<?xml version="1.0" encoding="UTF-8" standalone="no" ?>
<gpx xmlns="http://www.topografix.com/GPX/1/1" xmlns:xsi="http://www.w3.org/2001/XMLSchema-instance" xsi:schemaLocation="http://www.topografix.com/GPX/1/1 http://www.topografix.com/GPX/1/1/gpx.xsd" version="1.1" creator="VisuGPX - https://www.visugpx.com">
  <metadata>
    <name>Trace Salon du Gravel 45 kms</name>
    <desc><![CDATA[Trace modifiée 45 kms du Salon du Gravel StBrieuc 12 et 13 avril 2024]]></desc>
  </metadata>
  <trk>
    <name><![CDATA[Trace Salon du Gravel 45 kms]]></name>
    <trkseg>
      <trkpt lat="48.5084" lon="-2.73362">
        <ele>80.768736</ele>
        <time>2024-04-08T14:16:28.938Z</time>
      </trkpt>
      <trkpt lat="48.5084" lon="-2.73363">
        <ele>80.768736</ele>
        <time>2024-04-08T14:16:29.153Z</time>
      </trkpt>
      <trkpt lat="48.50853" lon="-2.73375">
        <ele>80.768736</ele>
        <time>2024-04-08T14:16:32.911Z</time>
      </trkpt>
      <trkpt lat="48.50901" lon="-2.73261">
        <ele>80.567179</ele>
        <time>2024-04-08T14:16:53.653Z</time>
      </trkpt>
      <trkpt lat="48.50904" lon="-2.73253">
        <ele>80.479378</ele>
        <time>2024-04-08T14:16:55.156Z</time>
      </trkpt>
      <trkpt lat="48.50891" lon="-2.73241">
        <ele>80.2724</ele>
        <time>2024-04-08T14:16:58.327Z</time>
      </trkpt>
      <trkpt lat="48.50848" lon="-2.73199">
        <ele>79.560286</ele>
        <time>2024-04-08T14:17:10.846Z</time>
      </trkpt>
      <trkpt lat="48.50841" lon="-2.73196">
        <ele>79.465285</ele>
        <time>2024-04-08T14:17:13.159Z</time>
      </trkpt>
      <trkpt lat="48.50837" lon="-2.73187">
        <ele>79.372184</ele>
        <time>2024-04-08T14:17:15.150Z</time>
      </trkpt>
      <trkpt lat="48.5081" lon="-2.7316">
        <ele>78.919961</ele>
        <time>2024-04-08T14:17:25.556Z</time>
      </trkpt>
      <trkpt lat="48.50797" lon="-2.73154">
        <ele>78.732084</ele>
        <time>2024-04-08T14:17:29.427Z</time>
      </trkpt>
      <trkpt lat="48.50777" lon="-2.7315">
        <ele>78.456959</ele>
        <time>2024-04-08T14:17:36.025Z</time>
      </trkpt>
      <trkpt lat="48.50797" lon="-2.73154">
        <ele>78.185737</ele>
        <time>2024-04-08T14:17:41.744Z</time>
      </trkpt>
      <trkpt lat="48.5081" lon="-2.7316">
        <ele>78.003875</ele>
        <time>2024-04-08T14:17:46.298Z</time>
      </trkpt>
      <trkpt lat="48.50837" lon="-2.73187">
        <ele>77.56613</ele>
        <time>2024-04-08T14:17:56.244Z</time>
      </trkpt>
      <trkpt lat="48.50841" lon="-2.73196">
        <ele>77.476008</ele>
        <time>2024-04-08T14:17:58.570Z</time>
      </trkpt>
      <trkpt lat="48.50807" lon="-2.73166">
        <ele>76.951712</ele>
        <time>2024-04-08T14:18:07.684Z</time>
      </trkpt>
      <trkpt lat="48.50791" lon="-2.73158">
        <ele>76.726139</ele>
        <time>2024-04-08T14:18:11.667Z</time>
      </trkpt>
      <trkpt lat="48.50595" lon="-2.73126">
        <ele>74.522675</ele>
        <time>2024-04-08T14:18:58.699Z</time>
      </trkpt>
      <trkpt lat="48.5056" lon="-2.73096">
        <ele>74.109499</ele>
        <time>2024-04-08T14:19:08.028Z</time>
      </trkpt>
      <trkpt lat="48.50548" lon="-2.73092">
        <ele>74.072922</ele>
        <time>2024-04-08T14:19:10.960Z</time>
      </trkpt>
      <trkpt lat="48.50529" lon="-2.73093">
        <ele>74.079481</ele>
        <time>2024-04-08T14:19:15.407Z</time>
      </trkpt>
      <trkpt lat="48.50517" lon="-2.73099">
        <ele>74.083833</ele>
        <time>2024-04-08T14:19:18.372Z</time>
      </trkpt>
      <trkpt lat="48.50505" lon="-2.73112">
        <ele>74.088777</ele>
        <time>2024-04-08T14:19:21.818Z</time>
      </trkpt>
      <trkpt lat="48.5047" lon="-2.73165">
        <ele>74.106129</ele>
        <time>2024-04-08T14:19:34.305Z</time>
      </trkpt>
      <trkpt lat="48.5046" lon="-2.73185">
        <ele>74.111731</ele>
        <time>2024-04-08T14:19:38.742Z</time>
      </trkpt>
      <trkpt lat="48.50457" lon="-2.73186">
        <ele>74.112754</ele>
        <time>2024-04-08T14:19:39.608Z</time>
      </trkpt>
      <trkpt lat="48.50454" lon="-2.73188">
        <ele>74.114143</ele>
        <time>2024-04-08T14:19:40.794Z</time>
      </trkpt>
      <trkpt lat="48.50437" lon="-2.73175">
        <ele>74.120681</ele>
        <time>2024-04-08T14:19:46.298Z</time>
      </trkpt>
      <trkpt lat="48.50376" lon="-2.73109">
        <ele>75.610354</ele>
        <time>2024-04-08T14:20:14.305Z</time>
      </trkpt>
      <trkpt lat="48.50322" lon="-2.73041">
        <ele>78.14341</ele>
        <time>2024-04-08T14:20:48.010Z</time>
      </trkpt>
      <trkpt lat="48.50318" lon="-2.73036">
        <ele>78.338317</ele>
        <time>2024-04-08T14:20:50.925Z</time>
      </trkpt>
      <trkpt lat="48.50189" lon="-2.72868">
        <ele>85.640597</ele>
        <time>2024-04-08T14:22:28.407Z</time>
      </trkpt>
      <trkpt lat="48.50167" lon="-2.7282">
        <ele>87.445875</ele>
        <time>2024-04-08T14:22:49.894Z</time>
      </trkpt>
      <trkpt lat="48.50162" lon="-2.72787">
        <ele>88.500091</ele>
        <time>2024-04-08T14:23:01.790Z</time>
      </trkpt>
      <trkpt lat="48.5016" lon="-2.72747">
        <ele>89.479171</ele>
        <time>2024-04-08T14:23:14.594Z</time>
      </trkpt>
      <trkpt lat="48.50146" lon="-2.72712">
        <ele>90.224154</ele>
        <time>2024-04-08T14:23:27.496Z</time>
      </trkpt>
      <trkpt lat="48.50115" lon="-2.72686">
        <ele>91.216456</ele>
        <time>2024-04-08T14:23:43.341Z</time>
      </trkpt>
      <trkpt lat="48.50067" lon="-2.72649">
        <ele>92.689228</ele>
        <time>2024-04-08T14:24:05.772Z</time>
      </trkpt>
      <trkpt lat="48.5008" lon="-2.72615">
        <ele>93.395754</ele>
        <time>2024-04-08T14:24:15.767Z</time>
      </trkpt>
      <trkpt lat="48.50084" lon="-2.72576">
        <ele>94.081286</ele>
        <time>2024-04-08T14:24:26.877Z</time>
      </trkpt>
      <trkpt lat="48.50081" lon="-2.72534">
        <ele>94.495589</ele>
        <time>2024-04-08T14:24:38.115Z</time>
      </trkpt>
      <trkpt lat="48.50057" lon="-2.72425">
        <ele>95.604691</ele>
        <time>2024-04-08T14:25:05.213Z</time>
      </trkpt>
      <trkpt lat="48.50033" lon="-2.72322">
        <ele>96.673423</ele>
        <time>2024-04-08T14:25:30.829Z</time>
      </trkpt>
      <trkpt lat="48.50027" lon="-2.72302">
        <ele>96.80507</ele>
        <time>2024-04-08T14:25:35.893Z</time>
      </trkpt>
      <trkpt lat="48.50017" lon="-2.72269">
        <ele>97.019561</ele>
        <time>2024-04-08T14:25:44.131Z</time>
      </trkpt>
      <trkpt lat="48.49985" lon="-2.72167">
        <ele>97.697372</ele>
        <time>2024-04-08T14:26:09.942Z</time>
      </trkpt>
      <trkpt lat="48.49974" lon="-2.72143">
        <ele>97.871827</ele>
        <time>2024-04-08T14:26:16.237Z</time>
      </trkpt>
      <trkpt lat="48.49958" lon="-2.72119">
        <ele>98.076844</ele>
        <time>2024-04-08T14:26:23.664Z</time>
      </trkpt>
      <trkpt lat="48.49952" lon="-2.72111">
        <ele>98.145964</ele>
        <time>2024-04-08T14:26:25.983Z</time>
      </trkpt>
      <trkpt lat="48.49921" lon="-2.72074">
        <ele>98.213695</ele>
        <time>2024-04-08T14:26:37.898Z</time>
      </trkpt>
      <trkpt lat="48.4986" lon="-2.7203">
        <ele>97.950443</ele>
        <time>2024-04-08T14:26:56.692Z</time>
      </trkpt>
      <trkpt lat="48.49837" lon="-2.71999">
        <ele>97.827492</ele>
        <time>2024-04-08T14:27:04.980Z</time>
      </trkpt>
      <trkpt lat="48.49824" lon="-2.71976">
        <ele>97.750898</ele>
        <time>2024-04-08T14:27:09.892Z</time>
      </trkpt>
      <trkpt lat="48.49807" lon="-2.7194">
        <ele>97.636473</ele>
        <time>2024-04-08T14:27:17.340Z</time>
      </trkpt>
      <trkpt lat="48.49782" lon="-2.71873">
        <ele>96.480261</ele>
        <time>2024-04-08T14:27:29.368Z</time>
      </trkpt>
      <trkpt lat="48.49768" lon="-2.71833">
        <ele>95.667667</ele>
        <time>2024-04-08T14:27:36.172Z</time>
      </trkpt>
      <trkpt lat="48.49761" lon="-2.71803">
        <ele>95.099477</ele>
        <time>2024-04-08T14:27:40.795Z</time>
      </trkpt>
      <trkpt lat="48.49758" lon="-2.71778">
        <ele>94.650914</ele>
        <time>2024-04-08T14:27:44.376Z</time>
      </trkpt>
      <trkpt lat="48.49757" lon="-2.71772">
        <ele>94.543545</ele>
        <time>2024-04-08T14:27:45.229Z</time>
      </trkpt>
      <trkpt lat="48.49779" lon="-2.71773">
        <ele>93.951518</ele>
        <time>2024-04-08T14:27:49.913Z</time>
      </trkpt>
      <trkpt lat="48.49783" lon="-2.71686">
        <ele>92.256395</ele>
        <time>2024-04-08T14:28:10.736Z</time>
      </trkpt>
      <trkpt lat="48.49786" lon="-2.71621">
        <ele>90.607052</ele>
        <time>2024-04-08T14:28:19.778Z</time>
      </trkpt>
      <trkpt lat="48.49786" lon="-2.71609">
        <ele>90.300553</ele>
        <time>2024-04-08T14:28:21.442Z</time>
      </trkpt>
      <trkpt lat="48.498" lon="-2.71611">
        <ele>89.756225</ele>
        <time>2024-04-08T14:28:24.306Z</time>
      </trkpt>
      <trkpt lat="48.49827" lon="-2.71599">
        <ele>88.684726</ele>
        <time>2024-04-08T14:28:34.270Z</time>
      </trkpt>
      <trkpt lat="48.49829" lon="-2.71543">
        <ele>87.235621</ele>
        <time>2024-04-08T14:28:42.060Z</time>
      </trkpt>
      <trkpt lat="48.49833" lon="-2.71541">
        <ele>87.067095</ele>
        <time>2024-04-08T14:28:43.291Z</time>
      </trkpt>
      <trkpt lat="48.49858" lon="-2.7153">
        <ele>86.076542</ele>
        <time>2024-04-08T14:28:50.344Z</time>
      </trkpt>
      <trkpt lat="48.49855" lon="-2.71506">
        <ele>85.508039</ele>
        <time>2024-04-08T14:28:54.664Z</time>
      </trkpt>
      <trkpt lat="48.49859" lon="-2.7148">
        <ele>84.90178</ele>
        <time>2024-04-08T14:28:59.667Z</time>
      </trkpt>
      <trkpt lat="48.49861" lon="-2.71469">
        <ele>84.65313</ele>
        <time>2024-04-08T14:29:01.613Z</time>
      </trkpt>
      <trkpt lat="48.49853" lon="-2.71422">
        <ele>83.566292</ele>
        <time>2024-04-08T14:29:10.619Z</time>
      </trkpt>
      <trkpt lat="48.49852" lon="-2.71415">
        <ele>83.400088</ele>
        <time>2024-04-08T14:29:11.906Z</time>
      </trkpt>
      <trkpt lat="48.49844" lon="-2.71383">
        <ele>82.642336</ele>
        <time>2024-04-08T14:29:27.515Z</time>
      </trkpt>
      <trkpt lat="48.49841" lon="-2.71369">
        <ele>82.300116</ele>
        <time>2024-04-08T14:29:34.555Z</time>
      </trkpt>
      <trkpt lat="48.49835" lon="-2.71344">
        <ele>81.718819</ele>
        <time>2024-04-08T14:29:46.504Z</time>
      </trkpt>
      <trkpt lat="48.49835" lon="-2.71336">
        <ele>81.530741</ele>
        <time>2024-04-08T14:29:50.393Z</time>
      </trkpt>
      <trkpt lat="48.49844" lon="-2.71305">
        <ele>80.79282</ele>
        <time>2024-04-08T14:29:58.263Z</time>
      </trkpt>
      <trkpt lat="48.49845" lon="-2.71302">
        <ele>80.714997</ele>
        <time>2024-04-08T14:29:59.143Z</time>
      </trkpt>
      <trkpt lat="48.49849" lon="-2.7129">
        <ele>80.414634</ele>
        <time>2024-04-08T14:30:02.471Z</time>
      </trkpt>
      <trkpt lat="48.49851" lon="-2.71281">
        <ele>80.194077</ele>
        <time>2024-04-08T14:30:04.911Z</time>
      </trkpt>
      <trkpt lat="48.49861" lon="-2.71273">
        <ele>79.813318</ele>
        <time>2024-04-08T14:30:08.928Z</time>
      </trkpt>
      <trkpt lat="48.49866" lon="-2.71269">
        <ele>79.666511</ele>
        <time>2024-04-08T14:30:10.752Z</time>
      </trkpt>
      <trkpt lat="48.49884" lon="-2.7124">
        <ele>78.952018</ele>
        <time>2024-04-08T14:30:20.746Z</time>
      </trkpt>
      <trkpt lat="48.49894" lon="-2.71222">
        <ele>78.538535</ele>
        <time>2024-04-08T14:30:26.518Z</time>
      </trkpt>
      <trkpt lat="48.49904" lon="-2.71207">
        <ele>78.146284</ele>
        <time>2024-04-08T14:30:32.174Z</time>
      </trkpt>
      <trkpt lat="48.49926" lon="-2.71187">
        <ele>77.455228</ele>
        <time>2024-04-08T14:30:41.848Z</time>
      </trkpt>
      <trkpt lat="48.49956" lon="-2.71145">
        <ele>76.348115</ele>
        <time>2024-04-08T14:30:57.534Z</time>
      </trkpt>
      <trkpt lat="48.49957" lon="-2.71144">
        <ele>76.325795</ele>
        <time>2024-04-08T14:30:57.859Z</time>
      </trkpt>
      <trkpt lat="48.49973" lon="-2.71114">
        <ele>75.658899</ele>
        <time>2024-04-08T14:31:07.390Z</time>
      </trkpt>
      <trkpt lat="48.50004" lon="-2.7108">
        <ele>74.683645</ele>
        <time>2024-04-08T14:31:22.031Z</time>
      </trkpt>
      <trkpt lat="48.5001" lon="-2.71077">
        <ele>74.55358</ele>
        <time>2024-04-08T14:31:24.370Z</time>
      </trkpt>
      <trkpt lat="48.50054" lon="-2.71035">
        <ele>73.47129</ele>
        <time>2024-04-08T14:31:43.960Z</time>
      </trkpt>
      <trkpt lat="48.50071" lon="-2.7101">
        <ele>72.977344</ele>
        <time>2024-04-08T14:31:53.157Z</time>
      </trkpt>
      <trkpt lat="48.50075" lon="-2.7098">
        <ele>72.556927</ele>
        <time>2024-04-08T14:31:57.671Z</time>
      </trkpt>
      <trkpt lat="48.50086" lon="-2.70886">
        <ele>71.239615</ele>
        <time>2024-04-08T14:32:12.871Z</time>
      </trkpt>
      <trkpt lat="48.50086" lon="-2.70859">
        <ele>70.917013</ele>
        <time>2024-04-08T14:32:17.234Z</time>
      </trkpt>
      <trkpt lat="48.50098" lon="-2.70848">
        <ele>70.682423</ele>
        <time>2024-04-08T14:32:20.607Z</time>
      </trkpt>
      <trkpt lat="48.50133" lon="-2.70832">
        <ele>70.052759</ele>
        <time>2024-04-08T14:32:29.505Z</time>
      </trkpt>
      <trkpt lat="48.50175" lon="-2.708">
        <ele>69.244976</ele>
        <time>2024-04-08T14:32:40.481Z</time>
      </trkpt>
      <trkpt lat="48.50228" lon="-2.70731">
        <ele>68.035524</ele>
        <time>2024-04-08T14:32:56.640Z</time>
      </trkpt>
      <trkpt lat="48.50252" lon="-2.70705">
        <ele>67.472277</ele>
        <time>2024-04-08T14:33:03.428Z</time>
      </trkpt>
      <trkpt lat="48.50268" lon="-2.70676">
        <ele>66.986501</ele>
        <time>2024-04-08T14:33:09.169Z</time>
      </trkpt>
      <trkpt lat="48.50278" lon="-2.70641">
        <ele>66.49096</ele>
        <time>2024-04-08T14:33:15.139Z</time>
      </trkpt>
      <trkpt lat="48.50292" lon="-2.70579">
        <ele>65.655111</ele>
        <time>2024-04-08T14:33:24.917Z</time>
      </trkpt>
      <trkpt lat="48.50394" lon="-2.70605">
        <ele>64.518461</ele>
        <time>2024-04-08T14:33:48.950Z</time>
      </trkpt>
      <trkpt lat="48.50486" lon="-2.70614">
        <ele>64.345359</ele>
        <time>2024-04-08T14:34:15.347Z</time>
      </trkpt>
      <trkpt lat="48.50486" lon="-2.70623">
        <ele>64.334897</ele>
        <time>2024-04-08T14:34:17.214Z</time>
      </trkpt>
      <trkpt lat="48.50519" lon="-2.7066">
        <ele>64.421947</ele>
        <time>2024-04-08T14:34:38.342Z</time>
      </trkpt>
      <trkpt lat="48.50527" lon="-2.70675">
        <ele>64.637421</ele>
        <time>2024-04-08T14:34:44.735Z</time>
      </trkpt>
      <trkpt lat="48.50537" lon="-2.70714">
        <ele>65.121154</ele>
        <time>2024-04-08T14:34:59.423Z</time>
      </trkpt>
      <trkpt lat="48.50539" lon="-2.70769">
        <ele>65.75656</ele>
        <time>2024-04-08T14:35:19.414Z</time>
      </trkpt>
      <trkpt lat="48.50544" lon="-2.70759">
        <ele>65.899554</ele>
        <time>2024-04-08T14:35:23.137Z</time>
      </trkpt>
      <trkpt lat="48.50539" lon="-2.70769">
        <ele>66.042548</ele>
        <time>2024-04-08T14:35:26.906Z</time>
      </trkpt>
      <trkpt lat="48.50526" lon="-2.70804">
        <ele>66.505418</ele>
        <time>2024-04-08T14:35:39.695Z</time>
      </trkpt>
      <trkpt lat="48.50515" lon="-2.70826">
        <ele>66.826023</ele>
        <time>2024-04-08T14:35:48.464Z</time>
      </trkpt>
      <trkpt lat="48.50584" lon="-2.70922">
        <ele>68.095255</ele>
        <time>2024-04-08T14:36:42.690Z</time>
      </trkpt>
      <trkpt lat="48.50595" lon="-2.70926">
        <ele>68.228272</ele>
        <time>2024-04-08T14:36:49.110Z</time>
      </trkpt>
      <trkpt lat="48.50608" lon="-2.70927">
        <ele>68.37661</ele>
        <time>2024-04-08T14:36:56.168Z</time>
      </trkpt>
      <trkpt lat="48.50608" lon="-2.70927">
        <ele>68.37661</ele>
        <time>2024-04-08T14:36:56.178Z</time>
      </trkpt>
      <trkpt lat="48.50623" lon="-2.70996">
        <ele>68.929602</ele>
        <time>2024-04-08T14:37:20.501Z</time>
      </trkpt>
      <trkpt lat="48.50612" lon="-2.71073">
        <ele>69.379246</ele>
        <time>2024-04-08T14:37:44.784Z</time>
      </trkpt>
      <trkpt lat="48.50626" lon="-2.71091">
        <ele>69.070375</ele>
        <time>2024-04-08T14:37:52.640Z</time>
      </trkpt>
      <trkpt lat="48.50736" lon="-2.71151">
        <ele>67.120228</ele>
        <time>2024-04-08T14:38:39.351Z</time>
      </trkpt>
      <trkpt lat="48.50784" lon="-2.71167">
        <ele>66.156377</ele>
        <time>2024-04-08T14:38:57.413Z</time>
      </trkpt>
      <trkpt lat="48.50832" lon="-2.71173">
        <ele>64.634368</ele>
        <time>2024-04-08T14:39:15.212Z</time>
      </trkpt>
      <trkpt lat="48.50844" lon="-2.71171">
        <ele>64.247168</ele>
        <time>2024-04-08T14:39:19.765Z</time>
      </trkpt>
      <trkpt lat="48.50877" lon="-2.71188">
        <ele>63.147913</ele>
        <time>2024-04-08T14:39:32.599Z</time>
      </trkpt>
      <trkpt lat="48.50941" lon="-2.71153">
        <ele>61.002251</ele>
        <time>2024-04-08T14:39:57.661Z</time>
      </trkpt>
      <trkpt lat="48.51028" lon="-2.7115">
        <ele>58.14886</ele>
        <time>2024-04-08T14:40:29.765Z</time>
      </trkpt>
      <trkpt lat="48.51057" lon="-2.71154">
        <ele>57.193001</ele>
        <time>2024-04-08T14:40:40.453Z</time>
      </trkpt>
      <trkpt lat="48.51087" lon="-2.7117">
        <ele>56.17239</ele>
        <time>2024-04-08T14:40:51.868Z</time>
      </trkpt>
      <trkpt lat="48.51122" lon="-2.71179">
        <ele>55.01171</ele>
        <time>2024-04-08T14:41:04.868Z</time>
      </trkpt>
      <trkpt lat="48.51167" lon="-2.71177">
        <ele>53.614598</ele>
        <time>2024-04-08T14:41:21.742Z</time>
      </trkpt>
      <trkpt lat="48.51212" lon="-2.71167">
        <ele>52.24295</ele>
        <time>2024-04-08T14:41:38.379Z</time>
      </trkpt>
      <trkpt lat="48.51219" lon="-2.71163">
        <ele>52.016109</ele>
        <time>2024-04-08T14:41:41.118Z</time>
      </trkpt>
      <trkpt lat="48.51226" lon="-2.71148">
        <ele>51.649067</ele>
        <time>2024-04-08T14:41:45.642Z</time>
      </trkpt>
      <trkpt lat="48.51234" lon="-2.71116">
        <ele>50.965682</ele>
        <time>2024-04-08T14:41:53.889Z</time>
      </trkpt>
      <trkpt lat="48.51242" lon="-2.71057">
        <ele>49.74952</ele>
        <time>2024-04-08T14:42:08.883Z</time>
      </trkpt>
      <trkpt lat="48.51248" lon="-2.70882">
        <ele>47.447702</ele>
        <time>2024-04-08T14:42:54.193Z</time>
      </trkpt>
      <trkpt lat="48.5125" lon="-2.70883">
        <ele>47.403235</ele>
        <time>2024-04-08T14:42:54.728Z</time>
      </trkpt>
      <trkpt lat="48.51255" lon="-2.70874">
        <ele>47.250972</ele>
        <time>2024-04-08T14:42:56.644Z</time>
      </trkpt>
      <trkpt lat="48.5127" lon="-2.7088">
        <ele>46.970241</ele>
        <time>2024-04-08T14:43:00.207Z</time>
      </trkpt>
      <trkpt lat="48.51327" lon="-2.70886">
        <ele>45.836025</ele>
        <time>2024-04-08T14:43:13.963Z</time>
      </trkpt>
      <trkpt lat="48.5133" lon="-2.70885">
        <ele>45.753358</ele>
        <time>2024-04-08T14:43:14.775Z</time>
      </trkpt>
      <trkpt lat="48.51333" lon="-2.7087">
        <ele>45.494184</ele>
        <time>2024-04-08T14:43:17.303Z</time>
      </trkpt>
      <trkpt lat="48.51338" lon="-2.70866">
        <ele>45.330246</ele>
        <time>2024-04-08T14:43:18.884Z</time>
      </trkpt>
      <trkpt lat="48.51332" lon="-2.70815">
        <ele>44.457401</ele>
        <time>2024-04-08T14:43:27.092Z</time>
      </trkpt>
      <trkpt lat="48.51328" lon="-2.70765">
        <ele>43.61267</ele>
        <time>2024-04-08T14:43:34.772Z</time>
      </trkpt>
      <trkpt lat="48.51316" lon="-2.70759">
        <ele>43.281314</ele>
        <time>2024-04-08T14:43:37.711Z</time>
      </trkpt>
      <trkpt lat="48.51241" lon="-2.70761">
        <ele>41.253176</ele>
        <time>2024-04-08T14:43:53.590Z</time>
      </trkpt>
      <trkpt lat="48.51236" lon="-2.70707">
        <ele>39.17063</ele>
        <time>2024-04-08T14:44:02.995Z</time>
      </trkpt>
      <trkpt lat="48.51223" lon="-2.7063">
        <ele>36.080489</ele>
        <time>2024-04-08T14:44:16.506Z</time>
      </trkpt>
      <trkpt lat="48.51224" lon="-2.70598">
        <ele>34.819224</ele>
        <time>2024-04-08T14:44:21.948Z</time>
      </trkpt>
      <trkpt lat="48.51225" lon="-2.70566">
        <ele>33.581474</ele>
        <time>2024-04-08T14:44:27.198Z</time>
      </trkpt>
      <trkpt lat="48.51219" lon="-2.70537">
        <ele>32.4131</ele>
        <time>2024-04-08T14:44:32.156Z</time>
      </trkpt>
      <trkpt lat="48.51197" lon="-2.70467">
        <ele>29.684942</ele>
        <time>2024-04-08T14:44:44.949Z</time>
      </trkpt>
      <trkpt lat="48.51188" lon="-2.70422">
        <ele>28.218779</ele>
        <time>2024-04-08T14:44:52.768Z</time>
      </trkpt>
      <trkpt lat="48.51192" lon="-2.70399">
        <ele>27.500852</ele>
        <time>2024-04-08T14:44:56.753Z</time>
      </trkpt>
      <trkpt lat="48.512" lon="-2.7038">
        <ele>26.787507</ele>
        <time>2024-04-08T14:45:00.640Z</time>
      </trkpt>
      <trkpt lat="48.512" lon="-2.7038">
        <ele>26.787507</ele>
        <time>2024-04-08T14:45:00.649Z</time>
      </trkpt>
      <trkpt lat="48.51253" lon="-2.70357">
        <ele>24.186809</ele>
        <time>2024-04-08T14:45:15.644Z</time>
      </trkpt>
      <trkpt lat="48.51267" lon="-2.70338">
        <ele>23.288469</ele>
        <time>2024-04-08T14:45:20.932Z</time>
      </trkpt>
      <trkpt lat="48.51284" lon="-2.70338">
        <ele>22.495657</ele>
        <time>2024-04-08T14:45:27.536Z</time>
      </trkpt>
      <trkpt lat="48.51305" lon="-2.70345">
        <ele>22.545284</ele>
        <time>2024-04-08T14:45:35.792Z</time>
      </trkpt>
      <trkpt lat="48.51324" lon="-2.70356">
        <ele>22.623746</ele>
        <time>2024-04-08T14:45:44.870Z</time>
      </trkpt>
      <trkpt lat="48.51325" lon="-2.70356">
        <ele>22.624639</ele>
        <time>2024-04-08T14:45:44.947Z</time>
      </trkpt>
      <trkpt lat="48.51347" lon="-2.70375">
        <ele>22.720255</ele>
        <time>2024-04-08T14:45:55.018Z</time>
      </trkpt>
      <trkpt lat="48.51379" lon="-2.70422">
        <ele>22.885744</ele>
        <time>2024-04-08T14:46:18.954Z</time>
      </trkpt>
      <trkpt lat="48.51414" lon="-2.70486">
        <ele>23.091028</ele>
        <time>2024-04-08T14:46:50.358Z</time>
      </trkpt>
      <trkpt lat="48.51427" lon="-2.70501">
        <ele>23.185064</ele>
        <time>2024-04-08T14:47:00.012Z</time>
      </trkpt>
      <trkpt lat="48.51453" lon="-2.70521">
        <ele>23.610826</ele>
        <time>2024-04-08T14:47:15.953Z</time>
      </trkpt>
      <trkpt lat="48.51463" lon="-2.70526">
        <ele>23.759208</ele>
        <time>2024-04-08T14:47:23.168Z</time>
      </trkpt>
      <trkpt lat="48.51474" lon="-2.70532">
        <ele>23.922635</ele>
        <time>2024-04-08T14:47:29.936Z</time>
      </trkpt>
      <trkpt lat="48.5151" lon="-2.70551">
        <ele>24.462316</ele>
        <time>2024-04-08T14:47:50.280Z</time>
      </trkpt>
      <trkpt lat="48.51533" lon="-2.70569">
        <ele>24.837992</ele>
        <time>2024-04-08T14:48:04.423Z</time>
      </trkpt>
      <trkpt lat="48.51547" lon="-2.70594">
        <ele>25.146968</ele>
        <time>2024-04-08T14:48:14.083Z</time>
      </trkpt>
      <trkpt lat="48.51556" lon="-2.70617">
        <ele>25.404535</ele>
        <time>2024-04-08T14:48:24.818Z</time>
      </trkpt>
      <trkpt lat="48.51585" lon="-2.70705">
        <ele>25.221071</ele>
        <time>2024-04-08T14:48:54.751Z</time>
      </trkpt>
      <trkpt lat="48.51596" lon="-2.70738">
        <ele>24.944901</ele>
        <time>2024-04-08T14:49:04.848Z</time>
      </trkpt>
      <trkpt lat="48.51626" lon="-2.70842">
        <ele>24.113525</ele>
        <time>2024-04-08T14:49:34.583Z</time>
      </trkpt>
      <trkpt lat="48.5163" lon="-2.70873">
        <ele>23.879108</ele>
        <time>2024-04-08T14:49:42.793Z</time>
      </trkpt>
      <trkpt lat="48.51632" lon="-2.70958">
        <ele>23.297914</ele>
        <time>2024-04-08T14:50:04.380Z</time>
      </trkpt>
      <trkpt lat="48.51632" lon="-2.71047">
        <ele>22.703337</ele>
        <time>2024-04-08T14:50:28.032Z</time>
      </trkpt>
      <trkpt lat="48.51632" lon="-2.71066">
        <ele>22.5819</ele>
        <time>2024-04-08T14:50:33.123Z</time>
      </trkpt>
      <trkpt lat="48.51636" lon="-2.7111">
        <ele>22.286389</ele>
        <time>2024-04-08T14:50:45.643Z</time>
      </trkpt>
      <trkpt lat="48.51649" lon="-2.71156">
        <ele>21.954842</ele>
        <time>2024-04-08T14:51:00.849Z</time>
      </trkpt>
      <trkpt lat="48.51663" lon="-2.71191">
        <ele>22.155967</ele>
        <time>2024-04-08T14:51:14.463Z</time>
      </trkpt>
      <trkpt lat="48.51681" lon="-2.71236">
        <ele>22.565998</ele>
        <time>2024-04-08T14:51:31.890Z</time>
      </trkpt>
      <trkpt lat="48.51719" lon="-2.71352">
        <ele>23.576884</ele>
        <time>2024-04-08T14:52:31.638Z</time>
      </trkpt>
      <trkpt lat="48.51719" lon="-2.71352">
        <ele>23.578441</ele>
        <time>2024-04-08T14:52:31.736Z</time>
      </trkpt>
      <trkpt lat="48.51723" lon="-2.71372">
        <ele>23.740047</ele>
        <time>2024-04-08T14:52:41.291Z</time>
      </trkpt>
      <trkpt lat="48.51739" lon="-2.71436">
        <ele>24.245231</ele>
        <time>2024-04-08T14:53:03.412Z</time>
      </trkpt>
      <trkpt lat="48.51755" lon="-2.71499">
        <ele>24.710551</ele>
        <time>2024-04-08T14:53:29.073Z</time>
      </trkpt>
      <trkpt lat="48.51761" lon="-2.71543">
        <ele>25.021842</ele>
        <time>2024-04-08T14:53:45.334Z</time>
      </trkpt>
      <trkpt lat="48.51769" lon="-2.71591">
        <ele>25.364881</ele>
        <time>2024-04-08T14:54:02.003Z</time>
      </trkpt>
      <trkpt lat="48.51769" lon="-2.7163">
        <ele>25.634102</ele>
        <time>2024-04-08T14:54:13.929Z</time>
      </trkpt>
      <trkpt lat="48.51764" lon="-2.71667">
        <ele>25.894915</ele>
        <time>2024-04-08T14:54:24.861Z</time>
      </trkpt>
      <trkpt lat="48.51759" lon="-2.71683">
        <ele>25.903558</ele>
        <time>2024-04-08T14:54:31.227Z</time>
      </trkpt>
      <trkpt lat="48.51746" lon="-2.71702">
        <ele>25.91515</ele>
        <time>2024-04-08T14:54:39.243Z</time>
      </trkpt>
      <trkpt lat="48.51759" lon="-2.71683">
        <ele>25.926742</ele>
        <time>2024-04-08T14:54:46.990Z</time>
      </trkpt>
      <trkpt lat="48.51748" lon="-2.71714">
        <ele>25.941492</ele>
        <time>2024-04-08T14:54:52.565Z</time>
      </trkpt>
      <trkpt lat="48.51705" lon="-2.71784">
        <ele>25.981936</ele>
        <time>2024-04-08T14:55:09.589Z</time>
      </trkpt>
      <trkpt lat="48.5168" lon="-2.71815">
        <ele>26.002573</ele>
        <time>2024-04-08T14:55:21.981Z</time>
      </trkpt>
      <trkpt lat="48.5168" lon="-2.71816">
        <ele>26.002785</ele>
        <time>2024-04-08T14:55:22.066Z</time>
      </trkpt>
      <trkpt lat="48.5167" lon="-2.71834">
        <ele>26.094699</ele>
        <time>2024-04-08T14:55:26.541Z</time>
      </trkpt>
      <trkpt lat="48.5166" lon="-2.71872">
        <ele>26.874171</ele>
        <time>2024-04-08T14:55:35.242Z</time>
      </trkpt>
      <trkpt lat="48.51656" lon="-2.71914">
        <ele>27.673102</ele>
        <time>2024-04-08T14:55:46.296Z</time>
      </trkpt>
      <trkpt lat="48.51658" lon="-2.71944">
        <ele>28.252928</ele>
        <time>2024-04-08T14:55:54.306Z</time>
      </trkpt>
      <trkpt lat="48.51667" lon="-2.71976">
        <ele>28.899164</ele>
        <time>2024-04-08T14:56:04.365Z</time>
      </trkpt>
      <trkpt lat="48.51669" lon="-2.71983">
        <ele>29.055624</ele>
        <time>2024-04-08T14:56:06.643Z</time>
      </trkpt>
      <trkpt lat="48.51681" lon="-2.72008">
        <ele>29.64546</ele>
        <time>2024-04-08T14:56:17.877Z</time>
      </trkpt>
      <trkpt lat="48.51738" lon="-2.7208">
        <ele>32.355324</ele>
        <time>2024-04-08T14:57:01.119Z</time>
      </trkpt>
      <trkpt lat="48.51756" lon="-2.72108">
        <ele>33.776834</ele>
        <time>2024-04-08T14:57:17.940Z</time>
      </trkpt>
      <trkpt lat="48.51765" lon="-2.72133">
        <ele>34.848268</ele>
        <time>2024-04-08T14:57:31.255Z</time>
      </trkpt>
      <trkpt lat="48.51768" lon="-2.72163">
        <ele>35.957647</ele>
        <time>2024-04-08T14:57:46.292Z</time>
      </trkpt>
      <trkpt lat="48.51768" lon="-2.72165">
        <ele>36.043072</ele>
        <time>2024-04-08T14:57:47.451Z</time>
      </trkpt>
      <trkpt lat="48.51766" lon="-2.723">
        <ele>41.080847</ele>
        <time>2024-04-08T14:58:44.898Z</time>
      </trkpt>
      <trkpt lat="48.51773" lon="-2.7233">
        <ele>41.926049</ele>
        <time>2024-04-08T14:58:56.300Z</time>
      </trkpt>
      <trkpt lat="48.51784" lon="-2.72357">
        <ele>42.727538</ele>
        <time>2024-04-08T14:59:07.645Z</time>
      </trkpt>
      <trkpt lat="48.51801" lon="-2.72376">
        <ele>43.520508</ele>
        <time>2024-04-08T14:59:18.365Z</time>
      </trkpt>
      <trkpt lat="48.51832" lon="-2.72407">
        <ele>44.937688</ele>
        <time>2024-04-08T14:59:36.348Z</time>
      </trkpt>
      <trkpt lat="48.51847" lon="-2.72422">
        <ele>45.631721</ele>
        <time>2024-04-08T14:59:44.351Z</time>
      </trkpt>
      <trkpt lat="48.51864" lon="-2.72445">
        <ele>46.492259</ele>
        <time>2024-04-08T14:59:57.443Z</time>
      </trkpt>
      <trkpt lat="48.51876" lon="-2.72467">
        <ele>47.20311</ele>
        <time>2024-04-08T15:00:07.831Z</time>
      </trkpt>
      <trkpt lat="48.51888" lon="-2.72506">
        <ele>48.301823</ele>
        <time>2024-04-08T15:00:20.153Z</time>
      </trkpt>
      <trkpt lat="48.5189" lon="-2.72534">
        <ele>49.105156</ele>
        <time>2024-04-08T15:00:31.086Z</time>
      </trkpt>
      <trkpt lat="48.5189" lon="-2.72622">
        <ele>51.575467</ele>
        <time>2024-04-08T15:01:00.487Z</time>
      </trkpt>
      <trkpt lat="48.5189" lon="-2.72622">
        <ele>51.575467</ele>
        <time>2024-04-08T15:01:00.575Z</time>
      </trkpt>
      <trkpt lat="48.5189" lon="-2.72622">
        <ele>51.575467</ele>
        <time>2024-04-08T15:01:00.575Z</time>
      </trkpt>
      <trkpt lat="48.51967" lon="-2.72642">
        <ele>54.86715</ele>
        <time>2024-04-08T15:01:20.700Z</time>
      </trkpt>
      <trkpt lat="48.52043" lon="-2.72661">
        <ele>56.971653</ele>
        <time>2024-04-08T15:01:40.826Z</time>
      </trkpt>
      <trkpt lat="48.52056" lon="-2.72664">
        <ele>57.244645</ele>
        <time>2024-04-08T15:01:46.349Z</time>
      </trkpt>
      <trkpt lat="48.52053" lon="-2.72625">
        <ele>57.81922</ele>
        <time>2024-04-08T15:01:57.386Z</time>
      </trkpt>
      <trkpt lat="48.5206" lon="-2.72557">
        <ele>58.80955</ele>
        <time>2024-04-08T15:02:13.880Z</time>
      </trkpt>
      <trkpt lat="48.52066" lon="-2.72537">
        <ele>59.14172</ele>
        <time>2024-04-08T15:02:18.337Z</time>
      </trkpt>
      <trkpt lat="48.52077" lon="-2.72513">
        <ele>59.556408</ele>
        <time>2024-04-08T15:02:23.519Z</time>
      </trkpt>
      <trkpt lat="48.5209" lon="-2.72485">
        <ele>59.146485</ele>
        <time>2024-04-08T15:02:29.028Z</time>
      </trkpt>
      <trkpt lat="48.52109" lon="-2.72445">
        <ele>58.313951</ele>
        <time>2024-04-08T15:02:36.400Z</time>
      </trkpt>
      <trkpt lat="48.5211" lon="-2.72427">
        <ele>58.006405</ele>
        <time>2024-04-08T15:02:39.050Z</time>
      </trkpt>
      <trkpt lat="48.5212" lon="-2.72423">
        <ele>57.756249</ele>
        <time>2024-04-08T15:02:41.237Z</time>
      </trkpt>
      <trkpt lat="48.52182" lon="-2.72305">
        <ele>55.202867</ele>
        <time>2024-04-08T15:03:01.395Z</time>
      </trkpt>
      <trkpt lat="48.52207" lon="-2.72273">
        <ele>53.820998</ele>
        <time>2024-04-08T15:03:07.967Z</time>
      </trkpt>
      <trkpt lat="48.5222" lon="-2.72259">
        <ele>53.13301</ele>
        <time>2024-04-08T15:03:11.043Z</time>
      </trkpt>
      <trkpt lat="48.5222" lon="-2.72259">
        <ele>53.13301</ele>
        <time>2024-04-08T15:03:11.091Z</time>
      </trkpt>
      <trkpt lat="48.5222" lon="-2.72259">
        <ele>53.13301</ele>
        <time>2024-04-08T15:03:11.091Z</time>
      </trkpt>
      <trkpt lat="48.5228" lon="-2.72203">
        <ele>49.935703</ele>
        <time>2024-04-08T15:03:29.475Z</time>
      </trkpt>
      <trkpt lat="48.52313" lon="-2.72154">
        <ele>47.867336</ele>
        <time>2024-04-08T15:03:41.370Z</time>
      </trkpt>
      <trkpt lat="48.52345" lon="-2.72105">
        <ele>45.760258</ele>
        <time>2024-04-08T15:03:53.288Z</time>
      </trkpt>
      <trkpt lat="48.52353" lon="-2.72108">
        <ele>45.38059</ele>
        <time>2024-04-08T15:03:54.869Z</time>
      </trkpt>
      <trkpt lat="48.5241" lon="-2.72152">
        <ele>42.416462</ele>
        <time>2024-04-08T15:04:07.310Z</time>
      </trkpt>
      <trkpt lat="48.52473" lon="-2.72173">
        <ele>39.418123</ele>
        <time>2024-04-08T15:04:19.680Z</time>
      </trkpt>
      <trkpt lat="48.52486" lon="-2.72174">
        <ele>38.843047</ele>
        <time>2024-04-08T15:04:22.053Z</time>
      </trkpt>
      <trkpt lat="48.52523" lon="-2.72048">
        <ele>34.667002</ele>
        <time>2024-04-08T15:04:40.588Z</time>
      </trkpt>
      <trkpt lat="48.52531" lon="-2.72011">
        <ele>33.493137</ele>
        <time>2024-04-08T15:04:45.952Z</time>
      </trkpt>
      <trkpt lat="48.52551" lon="-2.71921">
        <ele>30.635935</ele>
        <time>2024-04-08T15:04:58.678Z</time>
      </trkpt>
      <trkpt lat="48.52556" lon="-2.71909">
        <ele>30.198554</ele>
        <time>2024-04-08T15:05:00.563Z</time>
      </trkpt>
      <trkpt lat="48.52562" lon="-2.71901">
        <ele>29.826148</ele>
        <time>2024-04-08T15:05:02.119Z</time>
      </trkpt>
      <trkpt lat="48.52568" lon="-2.71899">
        <ele>29.536266</ele>
        <time>2024-04-08T15:05:03.348Z</time>
      </trkpt>
      <trkpt lat="48.52624" lon="-2.71933">
        <ele>26.628098</ele>
        <time>2024-04-08T15:05:15.515Z</time>
      </trkpt>
      <trkpt lat="48.52625" lon="-2.71925">
        <ele>26.365377</ele>
        <time>2024-04-08T15:05:16.939Z</time>
      </trkpt>
      <trkpt lat="48.52624" lon="-2.71933">
        <ele>26.102656</ele>
        <time>2024-04-08T15:05:18.410Z</time>
      </trkpt>
      <trkpt lat="48.52642" lon="-2.71932">
        <ele>25.259688</ele>
        <time>2024-04-08T15:05:21.848Z</time>
      </trkpt>
      <trkpt lat="48.52649" lon="-2.71925">
        <ele>24.852777</ele>
        <time>2024-04-08T15:05:23.537Z</time>
      </trkpt>
      <trkpt lat="48.52657" lon="-2.71915">
        <ele>24.364803</ele>
        <time>2024-04-08T15:05:27.032Z</time>
      </trkpt>
      <trkpt lat="48.52658" lon="-2.71914">
        <ele>24.298478</ele>
        <time>2024-04-08T15:05:27.511Z</time>
      </trkpt>
      <trkpt lat="48.52662" lon="-2.71902">
        <ele>23.893524</ele>
        <time>2024-04-08T15:05:30.446Z</time>
      </trkpt>
      <trkpt lat="48.52664" lon="-2.71882">
        <ele>23.26174</ele>
        <time>2024-04-08T15:05:34.962Z</time>
      </trkpt>
      <trkpt lat="48.52672" lon="-2.71867">
        <ele>22.645841</ele>
        <time>2024-04-08T15:05:39.464Z</time>
      </trkpt>
      <trkpt lat="48.52721" lon="-2.7177">
        <ele>21.104547</ele>
        <time>2024-04-08T15:06:09.508Z</time>
      </trkpt>
      <trkpt lat="48.52733" lon="-2.71747">
        <ele>20.885622</ele>
        <time>2024-04-08T15:06:17.005Z</time>
      </trkpt>
      <trkpt lat="48.5274" lon="-2.71741">
        <ele>20.79051</ele>
        <time>2024-04-08T15:06:20.206Z</time>
      </trkpt>
      <trkpt lat="48.52779" lon="-2.7173">
        <ele>20.32619</ele>
        <time>2024-04-08T15:06:37.163Z</time>
      </trkpt>
      <trkpt lat="48.52788" lon="-2.71729">
        <ele>20.229961</ele>
        <time>2024-04-08T15:06:40.871Z</time>
      </trkpt>
      <trkpt lat="48.52792" lon="-2.71732">
        <ele>20.176622</ele>
        <time>2024-04-08T15:06:43.856Z</time>
      </trkpt>
      <trkpt lat="48.52794" lon="-2.71735">
        <ele>20.140145</ele>
        <time>2024-04-08T15:06:45.137Z</time>
      </trkpt>
      <trkpt lat="48.52794" lon="-2.71742">
        <ele>20.082015</ele>
        <time>2024-04-08T15:06:47.212Z</time>
      </trkpt>
      <trkpt lat="48.52776" lon="-2.71791">
        <ele>20.117054</ele>
        <time>2024-04-08T15:07:06.428Z</time>
      </trkpt>
      <trkpt lat="48.52769" lon="-2.71801">
        <ele>20.481581</ele>
        <time>2024-04-08T15:07:11.704Z</time>
      </trkpt>
      <trkpt lat="48.52754" lon="-2.71816">
        <ele>21.182613</ele>
        <time>2024-04-08T15:07:24.282Z</time>
      </trkpt>
      <trkpt lat="48.52714" lon="-2.71842">
        <ele>22.83491</ele>
        <time>2024-04-08T15:07:54.061Z</time>
      </trkpt>
      <trkpt lat="48.52672" lon="-2.71867">
        <ele>24.541755</ele>
        <time>2024-04-08T15:08:27.220Z</time>
      </trkpt>
      <trkpt lat="48.52664" lon="-2.71882">
        <ele>25.035293</ele>
        <time>2024-04-08T15:08:36.950Z</time>
      </trkpt>
      <trkpt lat="48.52662" lon="-2.71902">
        <ele>25.54156</ele>
        <time>2024-04-08T15:08:46.749Z</time>
      </trkpt>
      <trkpt lat="48.52658" lon="-2.71914">
        <ele>25.866061</ele>
        <time>2024-04-08T15:08:52.462Z</time>
      </trkpt>
      <trkpt lat="48.52657" lon="-2.71915">
        <ele>25.919209</ele>
        <time>2024-04-08T15:08:53.387Z</time>
      </trkpt>
      <trkpt lat="48.52649" lon="-2.71925">
        <ele>26.310237</ele>
        <time>2024-04-08T15:09:00.938Z</time>
      </trkpt>
      <trkpt lat="48.52642" lon="-2.71932">
        <ele>26.643659</ele>
        <time>2024-04-08T15:09:05.355Z</time>
      </trkpt>
      <trkpt lat="48.52651" lon="-2.7194">
        <ele>27.231734</ele>
        <time>2024-04-08T15:09:12.603Z</time>
      </trkpt>
      <trkpt lat="48.52652" lon="-2.7195">
        <ele>27.590892</ele>
        <time>2024-04-08T15:09:16.863Z</time>
      </trkpt>
      <trkpt lat="48.52642" lon="-2.72004">
        <ele>29.654823</ele>
        <time>2024-04-08T15:09:43.487Z</time>
      </trkpt>
      <trkpt lat="48.52642" lon="-2.72022">
        <ele>30.321326</ele>
        <time>2024-04-08T15:09:52.430Z</time>
      </trkpt>
      <trkpt lat="48.52641" lon="-2.72029">
        <ele>30.571252</ele>
        <time>2024-04-08T15:09:55.875Z</time>
      </trkpt>
      <trkpt lat="48.52699" lon="-2.72123">
        <ele>35.2822</ele>
        <time>2024-04-08T15:10:55.229Z</time>
      </trkpt>
      <trkpt lat="48.52706" lon="-2.72134">
        <ele>35.842203</ele>
        <time>2024-04-08T15:11:02.285Z</time>
      </trkpt>
      <trkpt lat="48.52745" lon="-2.7222">
        <ele>38.983564</ele>
        <time>2024-04-08T15:11:50.161Z</time>
      </trkpt>
      <trkpt lat="48.52748" lon="-2.72234">
        <ele>39.395981</ele>
        <time>2024-04-08T15:11:56.791Z</time>
      </trkpt>
      <trkpt lat="48.52749" lon="-2.7224">
        <ele>39.578896</ele>
        <time>2024-04-08T15:11:59.708Z</time>
      </trkpt>
      <trkpt lat="48.52761" lon="-2.72239">
        <ele>40.091716</ele>
        <time>2024-04-08T15:12:05.643Z</time>
      </trkpt>
      <trkpt lat="48.528" lon="-2.72248">
        <ele>41.82002</ele>
        <time>2024-04-08T15:12:26.805Z</time>
      </trkpt>
      <trkpt lat="48.52804" lon="-2.72256">
        <ele>42.105234</ele>
        <time>2024-04-08T15:12:30.212Z</time>
      </trkpt>
      <trkpt lat="48.52803" lon="-2.72271">
        <ele>42.535303</ele>
        <time>2024-04-08T15:12:36.591Z</time>
      </trkpt>
      <trkpt lat="48.52781" lon="-2.72362">
        <ele>43.935057</ele>
        <time>2024-04-08T15:13:03.205Z</time>
      </trkpt>
      <trkpt lat="48.52765" lon="-2.72406">
        <ele>43.285314</ele>
        <time>2024-04-08T15:13:11.818Z</time>
      </trkpt>
      <trkpt lat="48.52743" lon="-2.72444">
        <ele>42.62576</ele>
        <time>2024-04-08T15:13:19.254Z</time>
      </trkpt>
      <trkpt lat="48.52725" lon="-2.72464">
        <ele>42.188838</ele>
        <time>2024-04-08T15:13:23.881Z</time>
      </trkpt>
      <trkpt lat="48.52723" lon="-2.72484">
        <ele>41.932592</ele>
        <time>2024-04-08T15:13:26.529Z</time>
      </trkpt>
      <trkpt lat="48.52732" lon="-2.72504">
        <ele>41.623282</ele>
        <time>2024-04-08T15:13:29.671Z</time>
      </trkpt>
      <trkpt lat="48.52734" lon="-2.72517">
        <ele>41.438964</ele>
        <time>2024-04-08T15:13:31.502Z</time>
      </trkpt>
      <trkpt lat="48.52739" lon="-2.72579">
        <ele>40.062359</ele>
        <time>2024-04-08T15:13:39.419Z</time>
      </trkpt>
      <trkpt lat="48.52726" lon="-2.72635">
        <ele>37.291177</ele>
        <time>2024-04-08T15:13:46.791Z</time>
      </trkpt>
      <trkpt lat="48.52723" lon="-2.72668">
        <ele>35.698639</ele>
        <time>2024-04-08T15:13:50.710Z</time>
      </trkpt>
      <trkpt lat="48.52722" lon="-2.72708">
        <ele>33.830049</ele>
        <time>2024-04-08T15:13:55.302Z</time>
      </trkpt>
      <trkpt lat="48.52723" lon="-2.72825">
        <ele>28.293432</ele>
        <time>2024-04-08T15:14:08.975Z</time>
      </trkpt>
      <trkpt lat="48.52725" lon="-2.72854">
        <ele>26.932666</ele>
        <time>2024-04-08T15:14:12.275Z</time>
      </trkpt>
      <trkpt lat="48.52734" lon="-2.72875">
        <ele>25.777066</ele>
        <time>2024-04-08T15:14:15.734Z</time>
      </trkpt>
      <trkpt lat="48.52737" lon="-2.72886">
        <ele>25.166664</ele>
        <time>2024-04-08T15:14:17.092Z</time>
      </trkpt>
      <trkpt lat="48.5274" lon="-2.72922">
        <ele>23.481454</ele>
        <time>2024-04-08T15:14:21.420Z</time>
      </trkpt>
      <trkpt lat="48.5274" lon="-2.73005">
        <ele>19.567647</ele>
        <time>2024-04-08T15:14:30.987Z</time>
      </trkpt>
      <trkpt lat="48.52744" lon="-2.73043">
        <ele>17.759873</ele>
        <time>2024-04-08T15:14:35.631Z</time>
      </trkpt>
      <trkpt lat="48.52758" lon="-2.73096">
        <ele>15.213426</ele>
        <time>2024-04-08T15:14:42.589Z</time>
      </trkpt>
      <trkpt lat="48.52763" lon="-2.73117">
        <ele>14.866824</ele>
        <time>2024-04-08T15:14:45.677Z</time>
      </trkpt>
      <trkpt lat="48.52772" lon="-2.73131">
        <ele>14.563863</ele>
        <time>2024-04-08T15:14:48.572Z</time>
      </trkpt>
      <trkpt lat="48.52775" lon="-2.73135">
        <ele>14.468062</ele>
        <time>2024-04-08T15:14:49.536Z</time>
      </trkpt>
      <trkpt lat="48.52775" lon="-2.73221">
        <ele>13.125727</ele>
        <time>2024-04-08T15:15:03.531Z</time>
      </trkpt>
      <trkpt lat="48.52782" lon="-2.73277">
        <ele>12.235089</ele>
        <time>2024-04-08T15:15:11.753Z</time>
      </trkpt>
      <trkpt lat="48.52788" lon="-2.73339">
        <ele>11.235622</ele>
        <time>2024-04-08T15:15:20.359Z</time>
      </trkpt>
      <trkpt lat="48.52788" lon="-2.73378">
        <ele>10.767465</ele>
        <time>2024-04-08T15:15:26.374Z</time>
      </trkpt>
      <trkpt lat="48.52782" lon="-2.73477">
        <ele>9.783977</ele>
        <time>2024-04-08T15:15:42.705Z</time>
      </trkpt>
      <trkpt lat="48.52775" lon="-2.73516">
        <ele>9.388941</ele>
        <time>2024-04-08T15:15:48.950Z</time>
      </trkpt>
      <trkpt lat="48.5277" lon="-2.73535">
        <ele>9.181455</ele>
        <time>2024-04-08T15:15:52.163Z</time>
      </trkpt>
      <trkpt lat="48.5275" lon="-2.73577">
        <ele>8.673403</ele>
        <time>2024-04-08T15:15:59.640Z</time>
      </trkpt>
      <trkpt lat="48.52726" lon="-2.73617">
        <ele>8.201802</ele>
        <time>2024-04-08T15:16:07.288Z</time>
      </trkpt>
      <trkpt lat="48.52715" lon="-2.73631">
        <ele>8.05713</ele>
        <time>2024-04-08T15:16:10.545Z</time>
      </trkpt>
      <trkpt lat="48.52705" lon="-2.73635">
        <ele>7.961774</ele>
        <time>2024-04-08T15:16:12.687Z</time>
      </trkpt>
      <trkpt lat="48.52687" lon="-2.73637">
        <ele>7.78415</ele>
        <time>2024-04-08T15:16:16.691Z</time>
      </trkpt>
      <trkpt lat="48.5263" lon="-2.73665">
        <ele>7.206384</ele>
        <time>2024-04-08T15:16:30.715Z</time>
      </trkpt>
      <trkpt lat="48.52582" lon="-2.73683">
        <ele>6.717823</ele>
        <time>2024-04-08T15:16:44.075Z</time>
      </trkpt>
      <trkpt lat="48.52564" lon="-2.7369">
        <ele>6.608836</ele>
        <time>2024-04-08T15:16:49.540Z</time>
      </trkpt>
      <trkpt lat="48.52545" lon="-2.73703">
        <ele>6.824621</ele>
        <time>2024-04-08T15:16:55.556Z</time>
      </trkpt>
      <trkpt lat="48.52527" lon="-2.73722">
        <ele>7.045179</ele>
        <time>2024-04-08T15:17:02.191Z</time>
      </trkpt>
      <trkpt lat="48.52483" lon="-2.73782">
        <ele>7.65232</ele>
        <time>2024-04-08T15:17:19.888Z</time>
      </trkpt>
      <trkpt lat="48.52451" lon="-2.7384">
        <ele>8.168751</ele>
        <time>2024-04-08T15:17:36.607Z</time>
      </trkpt>
      <trkpt lat="48.5241" lon="-2.73943">
        <ele>10.19882</ele>
        <time>2024-04-08T15:18:10.043Z</time>
      </trkpt>
      <trkpt lat="48.52396" lon="-2.74032">
        <ele>12.15199</ele>
        <time>2024-04-08T15:18:40.071Z</time>
      </trkpt>
      <trkpt lat="48.52396" lon="-2.74046">
        <ele>12.453695</ele>
        <time>2024-04-08T15:18:44.373Z</time>
      </trkpt>
      <trkpt lat="48.5239" lon="-2.74055">
        <ele>12.734735</ele>
        <time>2024-04-08T15:18:49.363Z</time>
      </trkpt>
      <trkpt lat="48.52385" lon="-2.74056">
        <ele>12.877883</ele>
        <time>2024-04-08T15:18:51.571Z</time>
      </trkpt>
      <trkpt lat="48.52385" lon="-2.74055">
        <ele>12.900019</ele>
        <time>2024-04-08T15:18:51.868Z</time>
      </trkpt>
      <trkpt lat="48.52378" lon="-2.7405">
        <ele>13.159753</ele>
        <time>2024-04-08T15:18:55.249Z</time>
      </trkpt>
      <trkpt lat="48.52353" lon="-2.74051">
        <ele>13.954571</ele>
        <time>2024-04-08T15:19:07.885Z</time>
      </trkpt>
      <trkpt lat="48.52301" lon="-2.74061">
        <ele>15.542674</ele>
        <time>2024-04-08T15:19:32.241Z</time>
      </trkpt>
      <trkpt lat="48.523" lon="-2.74048">
        <ele>15.811395</ele>
        <time>2024-04-08T15:19:35.941Z</time>
      </trkpt>
      <trkpt lat="48.52245" lon="-2.74059">
        <ele>17.481595</ele>
        <time>2024-04-08T15:20:11.413Z</time>
      </trkpt>
      <trkpt lat="48.52194" lon="-2.74083">
        <ele>19.072738</ele>
        <time>2024-04-08T15:20:43.808Z</time>
      </trkpt>
      <trkpt lat="48.52127" lon="-2.7412">
        <ele>21.515951</ele>
        <time>2024-04-08T15:21:23.253Z</time>
      </trkpt>
      <trkpt lat="48.52097" lon="-2.74164">
        <ele>23.035392</ele>
        <time>2024-04-08T15:21:55.136Z</time>
      </trkpt>
      <trkpt lat="48.52085" lon="-2.74165">
        <ele>23.467445</ele>
        <time>2024-04-08T15:22:01.523Z</time>
      </trkpt>
      <trkpt lat="48.52076" lon="-2.74147">
        <ele>23.988529</ele>
        <time>2024-04-08T15:22:09.617Z</time>
      </trkpt>
      <trkpt lat="48.52054" lon="-2.74119">
        <ele>25.024292</ele>
        <time>2024-04-08T15:22:31.603Z</time>
      </trkpt>
      <trkpt lat="48.52045" lon="-2.74115">
        <ele>25.361895</ele>
        <time>2024-04-08T15:22:37.156Z</time>
      </trkpt>
      <trkpt lat="48.52038" lon="-2.74117">
        <ele>25.628293</ele>
        <time>2024-04-08T15:22:47.260Z</time>
      </trkpt>
      <trkpt lat="48.52032" lon="-2.74133">
        <ele>26.073515</ele>
        <time>2024-04-08T15:22:53.966Z</time>
      </trkpt>
      <trkpt lat="48.52008" lon="-2.7427">
        <ele>29.006042</ele>
        <time>2024-04-08T15:23:57.347Z</time>
      </trkpt>
      <trkpt lat="48.52009" lon="-2.74313">
        <ele>29.902994</ele>
        <time>2024-04-08T15:24:12.263Z</time>
      </trkpt>
      <trkpt lat="48.52017" lon="-2.74364">
        <ele>31.005268</ele>
        <time>2024-04-08T15:24:36.757Z</time>
      </trkpt>
      <trkpt lat="48.52036" lon="-2.74426">
        <ele>31.87486</ele>
        <time>2024-04-08T15:25:00.309Z</time>
      </trkpt>
      <trkpt lat="48.52037" lon="-2.74452">
        <ele>31.998653</ele>
        <time>2024-04-08T15:25:08.833Z</time>
      </trkpt>
      <trkpt lat="48.52035" lon="-2.7447">
        <ele>32.085726</ele>
        <time>2024-04-08T15:25:14.996Z</time>
      </trkpt>
      <trkpt lat="48.52019" lon="-2.74507">
        <ele>32.291803</ele>
        <time>2024-04-08T15:25:28.175Z</time>
      </trkpt>
      <trkpt lat="48.51999" lon="-2.7453">
        <ele>32.469758</ele>
        <time>2024-04-08T15:25:39.627Z</time>
      </trkpt>
      <trkpt lat="48.51962" lon="-2.74541">
        <ele>32.741549</ele>
        <time>2024-04-08T15:25:56.886Z</time>
      </trkpt>
      <trkpt lat="48.51927" lon="-2.74557">
        <ele>33.000355</ele>
        <time>2024-04-08T15:26:13.940Z</time>
      </trkpt>
      <trkpt lat="48.51892" lon="-2.74565">
        <ele>33.112884</ele>
        <time>2024-04-08T15:26:31.041Z</time>
      </trkpt>
      <trkpt lat="48.51885" lon="-2.74567">
        <ele>33.137069</ele>
        <time>2024-04-08T15:26:34.453Z</time>
      </trkpt>
      <trkpt lat="48.51879" lon="-2.74574">
        <ele>33.158673</ele>
        <time>2024-04-08T15:26:37.920Z</time>
      </trkpt>
      <trkpt lat="48.51877" lon="-2.74576">
        <ele>33.166425</ele>
        <time>2024-04-08T15:26:39.224Z</time>
      </trkpt>
      <trkpt lat="48.51869" lon="-2.74592">
        <ele>33.209246</ele>
        <time>2024-04-08T15:26:45.959Z</time>
      </trkpt>
      <trkpt lat="48.51852" lon="-2.74639">
        <ele>33.322933</ele>
        <time>2024-04-08T15:27:02.054Z</time>
      </trkpt>
      <trkpt lat="48.51843" lon="-2.74657">
        <ele>33.369949</ele>
        <time>2024-04-08T15:27:08.302Z</time>
      </trkpt>
      <trkpt lat="48.51786" lon="-2.74736">
        <ele>33.92422</ele>
        <time>2024-04-08T15:27:43.002Z</time>
      </trkpt>
      <trkpt lat="48.51769" lon="-2.74753">
        <ele>34.425546</ele>
        <time>2024-04-08T15:27:53.633Z</time>
      </trkpt>
      <trkpt lat="48.51763" lon="-2.74762">
        <ele>34.644906</ele>
        <time>2024-04-08T15:27:57.606Z</time>
      </trkpt>
      <trkpt lat="48.51761" lon="-2.74764">
        <ele>34.711313</ele>
        <time>2024-04-08T15:27:58.693Z</time>
      </trkpt>
      <trkpt lat="48.51761" lon="-2.74774">
        <ele>34.866309</ele>
        <time>2024-04-08T15:28:01.878Z</time>
      </trkpt>
      <trkpt lat="48.51758" lon="-2.74761">
        <ele>35.088618</ele>
        <time>2024-04-08T15:28:06.705Z</time>
      </trkpt>
      <trkpt lat="48.51754" lon="-2.74757">
        <ele>35.195177</ele>
        <time>2024-04-08T15:28:09.257Z</time>
      </trkpt>
      <trkpt lat="48.51752" lon="-2.74752">
        <ele>35.302433</ele>
        <time>2024-04-08T15:28:11.806Z</time>
      </trkpt>
      <trkpt lat="48.51748" lon="-2.74746">
        <ele>35.441584</ele>
        <time>2024-04-08T15:28:14.071Z</time>
      </trkpt>
      <trkpt lat="48.51745" lon="-2.74738">
        <ele>35.60713</ele>
        <time>2024-04-08T15:28:17.124Z</time>
      </trkpt>
      <trkpt lat="48.51732" lon="-2.74757">
        <ele>36.062387</ele>
        <time>2024-04-08T15:28:27.942Z</time>
      </trkpt>
      <trkpt lat="48.51701" lon="-2.74777">
        <ele>36.902691</ele>
        <time>2024-04-08T15:28:49.013Z</time>
      </trkpt>
      <trkpt lat="48.51658" lon="-2.74836">
        <ele>38.744057</ele>
        <time>2024-04-08T15:29:21.165Z</time>
      </trkpt>
      <trkpt lat="48.51639" lon="-2.74844">
        <ele>39.868933</ele>
        <time>2024-04-08T15:29:33.024Z</time>
      </trkpt>
      <trkpt lat="48.51629" lon="-2.74858">
        <ele>40.67755</ele>
        <time>2024-04-08T15:29:42.486Z</time>
      </trkpt>
      <trkpt lat="48.51618" lon="-2.74875">
        <ele>41.574163</ele>
        <time>2024-04-08T15:29:52.372Z</time>
      </trkpt>
      <trkpt lat="48.51599" lon="-2.74914">
        <ele>43.465152</ele>
        <time>2024-04-08T15:30:15.070Z</time>
      </trkpt>
      <trkpt lat="48.51575" lon="-2.74937">
        <ele>45.133222</ele>
        <time>2024-04-08T15:30:36.197Z</time>
      </trkpt>
      <trkpt lat="48.5154" lon="-2.74957">
        <ele>47.356541</ele>
        <time>2024-04-08T15:31:04.544Z</time>
      </trkpt>
      <trkpt lat="48.51499" lon="-2.74997">
        <ele>49.792795</ele>
        <time>2024-04-08T15:31:29.760Z</time>
      </trkpt>
      <trkpt lat="48.51429" lon="-2.75096">
        <ele>54.020178</ele>
        <time>2024-04-08T15:32:26.379Z</time>
      </trkpt>
      <trkpt lat="48.51433" lon="-2.75104">
        <ele>54.317859</ele>
        <time>2024-04-08T15:32:28.706Z</time>
      </trkpt>
      <trkpt lat="48.51445" lon="-2.7514">
        <ele>55.487543</ele>
        <time>2024-04-08T15:32:50.510Z</time>
      </trkpt>
      <trkpt lat="48.51429" lon="-2.75162">
        <ele>56.425191</ele>
        <time>2024-04-08T15:32:59.414Z</time>
      </trkpt>
      <trkpt lat="48.51421" lon="-2.75177">
        <ele>56.879376</ele>
        <time>2024-04-08T15:33:06.418Z</time>
      </trkpt>
      <trkpt lat="48.51408" lon="-2.75231">
        <ele>58.168834</ele>
        <time>2024-04-08T15:33:24.208Z</time>
      </trkpt>
      <trkpt lat="48.51384" lon="-2.75372">
        <ele>61.443817</ele>
        <time>2024-04-08T15:34:07.055Z</time>
      </trkpt>
      <trkpt lat="48.51367" lon="-2.75407">
        <ele>62.429929</ele>
        <time>2024-04-08T15:34:21.843Z</time>
      </trkpt>
      <trkpt lat="48.51355" lon="-2.75423">
        <ele>62.853664</ele>
        <time>2024-04-08T15:34:32.107Z</time>
      </trkpt>
      <trkpt lat="48.51345" lon="-2.75434">
        <ele>63.119667</ele>
        <time>2024-04-08T15:34:36.945Z</time>
      </trkpt>
      <trkpt lat="48.51328" lon="-2.75441">
        <ele>63.484854</ele>
        <time>2024-04-08T15:34:45.585Z</time>
      </trkpt>
      <trkpt lat="48.51308" lon="-2.75442">
        <ele>63.937558</ele>
        <time>2024-04-08T15:34:53.629Z</time>
      </trkpt>
      <trkpt lat="48.51292" lon="-2.75439">
        <ele>64.267515</ele>
        <time>2024-04-08T15:35:00.419Z</time>
      </trkpt>
      <trkpt lat="48.51231" lon="-2.75398">
        <ele>65.72712</ele>
        <time>2024-04-08T15:35:23.964Z</time>
      </trkpt>
      <trkpt lat="48.51213" lon="-2.75392">
        <ele>66.124851</ele>
        <time>2024-04-08T15:35:31.622Z</time>
      </trkpt>
      <trkpt lat="48.5115" lon="-2.7538">
        <ele>66.939311</ele>
        <time>2024-04-08T15:35:51.756Z</time>
      </trkpt>
      <trkpt lat="48.51132" lon="-2.75385">
        <ele>67.107486</ele>
        <time>2024-04-08T15:35:57.517Z</time>
      </trkpt>
      <trkpt lat="48.51097" lon="-2.75398">
        <ele>67.447603</ele>
        <time>2024-04-08T15:36:09.031Z</time>
      </trkpt>
      <trkpt lat="48.51082" lon="-2.75406">
        <ele>67.592015</ele>
        <time>2024-04-08T15:36:15.184Z</time>
      </trkpt>
      <trkpt lat="48.51072" lon="-2.75417">
        <ele>67.709634</ele>
        <time>2024-04-08T15:36:19.113Z</time>
      </trkpt>
      <trkpt lat="48.51069" lon="-2.75413">
        <ele>67.748899</ele>
        <time>2024-04-08T15:36:20.060Z</time>
      </trkpt>
      <trkpt lat="48.5106" lon="-2.75401">
        <ele>67.863408</ele>
        <time>2024-04-08T15:36:23.234Z</time>
      </trkpt>
      <trkpt lat="48.51057" lon="-2.75398">
        <ele>67.894382</ele>
        <time>2024-04-08T15:36:24.701Z</time>
      </trkpt>
      <trkpt lat="48.51034" lon="-2.75422">
        <ele>68.15474</ele>
        <time>2024-04-08T15:36:44.120Z</time>
      </trkpt>
      <trkpt lat="48.51016" lon="-2.75429">
        <ele>68.499625</ele>
        <time>2024-04-08T15:36:57.363Z</time>
      </trkpt>
      <trkpt lat="48.51" lon="-2.75421">
        <ele>68.840664</ele>
        <time>2024-04-08T15:37:08.774Z</time>
      </trkpt>
      <trkpt lat="48.50983" lon="-2.75423">
        <ele>69.202703</ele>
        <time>2024-04-08T15:37:20.946Z</time>
      </trkpt>
      <trkpt lat="48.50963" lon="-2.75438">
        <ele>69.664317</ele>
        <time>2024-04-08T15:37:36.376Z</time>
      </trkpt>
      <trkpt lat="48.50956" lon="-2.75453">
        <ele>69.913031</ele>
        <time>2024-04-08T15:37:43.144Z</time>
      </trkpt>
      <trkpt lat="48.50936" lon="-2.75483">
        <ele>70.493873</ele>
        <time>2024-04-08T15:37:53.026Z</time>
      </trkpt>
      <trkpt lat="48.50931" lon="-2.75572">
        <ele>71.730106</ele>
        <time>2024-04-08T15:38:19.744Z</time>
      </trkpt>
      <trkpt lat="48.50944" lon="-2.75595">
        <ele>72.136885</ele>
        <time>2024-04-08T15:38:29.724Z</time>
      </trkpt>
      <trkpt lat="48.50947" lon="-2.756">
        <ele>72.230037</ele>
        <time>2024-04-08T15:38:31.531Z</time>
      </trkpt>
      <trkpt lat="48.50906" lon="-2.75659">
        <ele>73.390708</ele>
        <time>2024-04-08T15:39:03.812Z</time>
      </trkpt>
      <trkpt lat="48.50849" lon="-2.75689">
        <ele>74.62404</ele>
        <time>2024-04-08T15:39:36.189Z</time>
      </trkpt>
      <trkpt lat="48.5083" lon="-2.75703">
        <ele>75.057582</ele>
        <time>2024-04-08T15:39:50.020Z</time>
      </trkpt>
      <trkpt lat="48.50811" lon="-2.75748">
        <ele>75.698603</ele>
        <time>2024-04-08T15:40:09.268Z</time>
      </trkpt>
      <trkpt lat="48.50764" lon="-2.75801">
        <ele>76.425504</ele>
        <time>2024-04-08T15:40:39.313Z</time>
      </trkpt>
      <trkpt lat="48.50733" lon="-2.75824">
        <ele>76.852857</ele>
        <time>2024-04-08T15:40:56.846Z</time>
      </trkpt>
      <trkpt lat="48.50707" lon="-2.7583">
        <ele>77.173391</ele>
        <time>2024-04-08T15:41:09.066Z</time>
      </trkpt>
      <trkpt lat="48.50709" lon="-2.75836">
        <ele>77.229269</ele>
        <time>2024-04-08T15:41:09.839Z</time>
      </trkpt>
      <trkpt lat="48.50696" lon="-2.7587">
        <ele>77.552145</ele>
        <time>2024-04-08T15:41:20.922Z</time>
      </trkpt>
      <trkpt lat="48.50662" lon="-2.75897">
        <ele>77.816911</ele>
        <time>2024-04-08T15:41:39.652Z</time>
      </trkpt>
      <trkpt lat="48.50639" lon="-2.75922">
        <ele>77.818169</ele>
        <time>2024-04-08T15:41:51.679Z</time>
      </trkpt>
      <trkpt lat="48.50607" lon="-2.75972">
        <ele>77.82026</ele>
        <time>2024-04-08T15:42:15.220Z</time>
      </trkpt>
      <trkpt lat="48.50607" lon="-2.75972">
        <ele>77.820283</ele>
        <time>2024-04-08T15:42:15.492Z</time>
      </trkpt>
      <trkpt lat="48.50612" lon="-2.75979">
        <ele>77.820577</ele>
        <time>2024-04-08T15:42:16.620Z</time>
      </trkpt>
      <trkpt lat="48.50605" lon="-2.7599">
        <ele>77.821037</ele>
        <time>2024-04-08T15:42:19.643Z</time>
      </trkpt>
      <trkpt lat="48.50595" lon="-2.75995">
        <ele>77.821504</ele>
        <time>2024-04-08T15:42:23.203Z</time>
      </trkpt>
      <trkpt lat="48.50578" lon="-2.75999">
        <ele>77.822283</ele>
        <time>2024-04-08T15:42:27.509Z</time>
      </trkpt>
      <trkpt lat="48.50564" lon="-2.75998">
        <ele>77.82291</ele>
        <time>2024-04-08T15:42:31.716Z</time>
      </trkpt>
      <trkpt lat="48.50546" lon="-2.75999">
        <ele>77.823702</ele>
        <time>2024-04-08T15:42:36.192Z</time>
      </trkpt>
      <trkpt lat="48.50523" lon="-2.76009">
        <ele>77.777894</ele>
        <time>2024-04-08T15:42:42.422Z</time>
      </trkpt>
      <trkpt lat="48.50505" lon="-2.76023">
        <ele>77.699601</ele>
        <time>2024-04-08T15:42:47.131Z</time>
      </trkpt>
      <trkpt lat="48.50493" lon="-2.76039">
        <ele>77.637682</ele>
        <time>2024-04-08T15:42:51.839Z</time>
      </trkpt>
      <trkpt lat="48.50482" lon="-2.76046">
        <ele>77.591301</ele>
        <time>2024-04-08T15:42:54.850Z</time>
      </trkpt>
      <trkpt lat="48.50476" lon="-2.76046">
        <ele>77.567859</ele>
        <time>2024-04-08T15:42:56.240Z</time>
      </trkpt>
      <trkpt lat="48.50374" lon="-2.76013">
        <ele>77.159495</ele>
        <time>2024-04-08T15:43:22.559Z</time>
      </trkpt>
      <trkpt lat="48.50363" lon="-2.7601">
        <ele>77.120345</ele>
        <time>2024-04-08T15:43:25.454Z</time>
      </trkpt>
      <trkpt lat="48.5035" lon="-2.76013">
        <ele>77.10844</ele>
        <time>2024-04-08T15:43:29.144Z</time>
      </trkpt>
      <trkpt lat="48.50334" lon="-2.76001">
        <ele>77.093069</ele>
        <time>2024-04-08T15:43:36.742Z</time>
      </trkpt>
      <trkpt lat="48.50322" lon="-2.75983">
        <ele>77.078243</ele>
        <time>2024-04-08T15:43:43.878Z</time>
      </trkpt>
      <trkpt lat="48.50306" lon="-2.75971">
        <ele>77.06256</ele>
        <time>2024-04-08T15:43:51.876Z</time>
      </trkpt>
      <trkpt lat="48.50283" lon="-2.75948">
        <ele>77.038786</ele>
        <time>2024-04-08T15:44:03.886Z</time>
      </trkpt>
      <trkpt lat="48.5026" lon="-2.75906">
        <ele>77.007071</ele>
        <time>2024-04-08T15:44:20.339Z</time>
      </trkpt>
      <trkpt lat="48.50238" lon="-2.75852">
        <ele>76.970036</ele>
        <time>2024-04-08T15:44:39.628Z</time>
      </trkpt>
      <trkpt lat="48.502" lon="-2.75797">
        <ele>77.027027</ele>
        <time>2024-04-08T15:45:02.645Z</time>
      </trkpt>
      <trkpt lat="48.502" lon="-2.7579">
        <ele>77.033198</ele>
        <time>2024-04-08T15:45:04.564Z</time>
      </trkpt>
      <trkpt lat="48.50199" lon="-2.75777">
        <ele>77.04554</ele>
        <time>2024-04-08T15:45:08.520Z</time>
      </trkpt>
      <trkpt lat="48.50184" lon="-2.75779">
        <ele>77.066949</ele>
        <time>2024-04-08T15:45:15.398Z</time>
      </trkpt>
      <trkpt lat="48.50154" lon="-2.75753">
        <ele>77.115168</ele>
        <time>2024-04-08T15:45:30.874Z</time>
      </trkpt>
      <trkpt lat="48.50121" lon="-2.75745">
        <ele>77.16019</ele>
        <time>2024-04-08T15:45:45.064Z</time>
      </trkpt>
      <trkpt lat="48.50119" lon="-2.75745">
        <ele>77.163139</ele>
        <time>2024-04-08T15:45:45.984Z</time>
      </trkpt>
      <trkpt lat="48.50107" lon="-2.75747">
        <ele>77.179735</ele>
        <time>2024-04-08T15:45:51.796Z</time>
      </trkpt>
      <trkpt lat="48.50099" lon="-2.75754">
        <ele>77.193465</ele>
        <time>2024-04-08T15:45:56.582Z</time>
      </trkpt>
      <trkpt lat="48.50102" lon="-2.75774">
        <ele>77.212219</ele>
        <time>2024-04-08T15:46:02.582Z</time>
      </trkpt>
      <trkpt lat="48.50098" lon="-2.75782">
        <ele>77.300237</ele>
        <time>2024-04-08T15:46:05.918Z</time>
      </trkpt>
      <trkpt lat="48.50092" lon="-2.75786">
        <ele>77.400397</ele>
        <time>2024-04-08T15:46:09.144Z</time>
      </trkpt>
      <trkpt lat="48.50083" lon="-2.75786">
        <ele>77.536193</ele>
        <time>2024-04-08T15:46:13.626Z</time>
      </trkpt>
      <trkpt lat="48.50058" lon="-2.75798">
        <ele>77.944536</ele>
        <time>2024-04-08T15:46:26.716Z</time>
      </trkpt>
      <trkpt lat="48.50048" lon="-2.75808">
        <ele>78.130542</ele>
        <time>2024-04-08T15:46:33.183Z</time>
      </trkpt>
      <trkpt lat="48.50037" lon="-2.75859">
        <ele>78.67517</ele>
        <time>2024-04-08T15:46:52.550Z</time>
      </trkpt>
      <trkpt lat="48.50034" lon="-2.75868">
        <ele>78.786584</ele>
        <time>2024-04-08T15:46:56.031Z</time>
      </trkpt>
      <trkpt lat="48.50032" lon="-2.75875">
        <ele>78.861162</ele>
        <time>2024-04-08T15:46:58.245Z</time>
      </trkpt>
      <trkpt lat="48.49968" lon="-2.75887">
        <ele>79.852598</ele>
        <time>2024-04-08T15:47:23.628Z</time>
      </trkpt>
      <trkpt lat="48.49961" lon="-2.75896">
        <ele>79.992686</ele>
        <time>2024-04-08T15:47:26.640Z</time>
      </trkpt>
      <trkpt lat="48.49937" lon="-2.75962">
        <ele>80.981625</ele>
        <time>2024-04-08T15:47:48.382Z</time>
      </trkpt>
      <trkpt lat="48.49944" lon="-2.75971">
        <ele>81.172356</ele>
        <time>2024-04-08T15:47:54.465Z</time>
      </trkpt>
      <trkpt lat="48.49955" lon="-2.76005">
        <ele>81.667208</ele>
        <time>2024-04-08T15:48:09.566Z</time>
      </trkpt>
      <trkpt lat="48.49959" lon="-2.76043">
        <ele>82.174804</ele>
        <time>2024-04-08T15:48:24.495Z</time>
      </trkpt>
      <trkpt lat="48.49991" lon="-2.76127">
        <ele>83.449715</ele>
        <time>2024-04-08T15:48:59.161Z</time>
      </trkpt>
      <trkpt lat="48.50001" lon="-2.76144">
        <ele>83.570525</ele>
        <time>2024-04-08T15:49:06.909Z</time>
      </trkpt>
      <trkpt lat="48.5003" lon="-2.76178">
        <ele>83.643893</ele>
        <time>2024-04-08T15:49:24.260Z</time>
      </trkpt>
      <trkpt lat="48.5008" lon="-2.76217">
        <ele>83.756774</ele>
        <time>2024-04-08T15:49:48.959Z</time>
      </trkpt>
      <trkpt lat="48.50089" lon="-2.76224">
        <ele>83.777826</ele>
        <time>2024-04-08T15:49:54.181Z</time>
      </trkpt>
      <trkpt lat="48.50099" lon="-2.76244">
        <ele>83.810045</ele>
        <time>2024-04-08T15:50:00.652Z</time>
      </trkpt>
      <trkpt lat="48.50101" lon="-2.76262">
        <ele>83.833808</ele>
        <time>2024-04-08T15:50:06.037Z</time>
      </trkpt>
      <trkpt lat="48.50099" lon="-2.76283">
        <ele>83.86298</ele>
        <time>2024-04-08T15:50:13.430Z</time>
      </trkpt>
      <trkpt lat="48.50094" lon="-2.76319">
        <ele>83.911748</ele>
        <time>2024-04-08T15:50:23.783Z</time>
      </trkpt>
      <trkpt lat="48.50094" lon="-2.7635">
        <ele>83.997841</ele>
        <time>2024-04-08T15:50:32.426Z</time>
      </trkpt>
      <trkpt lat="48.50094" lon="-2.76355">
        <ele>84.01041</ele>
        <time>2024-04-08T15:50:33.614Z</time>
      </trkpt>
      <trkpt lat="48.5011" lon="-2.76352">
        <ele>84.078242</ele>
        <time>2024-04-08T15:50:41.734Z</time>
      </trkpt>
      <trkpt lat="48.5011" lon="-2.76357">
        <ele>84.092789</ele>
        <time>2024-04-08T15:50:43.394Z</time>
      </trkpt>
      <trkpt lat="48.50115" lon="-2.76357">
        <ele>84.113491</ele>
        <time>2024-04-08T15:50:44.911Z</time>
      </trkpt>
      <trkpt lat="48.50115" lon="-2.76373">
        <ele>84.159033</ele>
        <time>2024-04-08T15:50:48.141Z</time>
      </trkpt>
      <trkpt lat="48.50116" lon="-2.76385">
        <ele>84.192122</ele>
        <time>2024-04-08T15:50:51.484Z</time>
      </trkpt>
      <trkpt lat="48.50112" lon="-2.76404">
        <ele>84.249933</ele>
        <time>2024-04-08T15:50:57.711Z</time>
      </trkpt>
      <trkpt lat="48.50121" lon="-2.76407">
        <ele>84.291782</ele>
        <time>2024-04-08T15:51:01.020Z</time>
      </trkpt>
      <trkpt lat="48.50113" lon="-2.76492">
        <ele>84.531566</ele>
        <time>2024-04-08T15:51:23.458Z</time>
      </trkpt>
      <trkpt lat="48.50117" lon="-2.76497">
        <ele>84.553502</ele>
        <time>2024-04-08T15:51:26.088Z</time>
      </trkpt>
      <trkpt lat="48.50083" lon="-2.76547">
        <ele>84.924643</ele>
        <time>2024-04-08T15:51:48.186Z</time>
      </trkpt>
      <trkpt lat="48.50054" lon="-2.76587">
        <ele>85.419958</ele>
        <time>2024-04-08T15:52:09.444Z</time>
      </trkpt>
      <trkpt lat="48.50026" lon="-2.76649">
        <ele>86.042446</ele>
        <time>2024-04-08T15:52:36.845Z</time>
      </trkpt>
      <trkpt lat="48.50026" lon="-2.7665">
        <ele>86.0592</ele>
        <time>2024-04-08T15:52:37.576Z</time>
      </trkpt>
      <trkpt lat="48.49954" lon="-2.76704">
        <ele>87.041198</ele>
        <time>2024-04-08T15:53:19.417Z</time>
      </trkpt>
      <trkpt lat="48.49919" lon="-2.76722">
        <ele>87.380981</ele>
        <time>2024-04-08T15:53:36.944Z</time>
      </trkpt>
      <trkpt lat="48.49874" lon="-2.76769">
        <ele>87.895368</ele>
        <time>2024-04-08T15:54:03.783Z</time>
      </trkpt>
      <trkpt lat="48.49842" lon="-2.76812">
        <ele>88.293527</ele>
        <time>2024-04-08T15:54:25.482Z</time>
      </trkpt>
      <trkpt lat="48.49846" lon="-2.76846">
        <ele>88.509375</ele>
        <time>2024-04-08T15:54:37.461Z</time>
      </trkpt>
      <trkpt lat="48.49855" lon="-2.76845">
        <ele>88.594856</ele>
        <time>2024-04-08T15:54:40.460Z</time>
      </trkpt>
      <trkpt lat="48.49899" lon="-2.76849">
        <ele>88.855714</ele>
        <time>2024-04-08T15:54:54.864Z</time>
      </trkpt>
      <trkpt lat="48.49871" lon="-2.76957">
        <ele>89.296173</ele>
        <time>2024-04-08T15:55:16.473Z</time>
      </trkpt>
      <trkpt lat="48.49863" lon="-2.76988">
        <ele>89.41931</ele>
        <time>2024-04-08T15:55:21.763Z</time>
      </trkpt>
      <trkpt lat="48.49852" lon="-2.77066">
        <ele>89.8169</ele>
        <time>2024-04-08T15:55:38.386Z</time>
      </trkpt>
      <trkpt lat="48.49851" lon="-2.77102">
        <ele>90.156948</ele>
        <time>2024-04-08T15:55:46.426Z</time>
      </trkpt>
      <trkpt lat="48.49855" lon="-2.77135">
        <ele>90.462346</ele>
        <time>2024-04-08T15:55:54.615Z</time>
      </trkpt>
      <trkpt lat="48.4986" lon="-2.77149">
        <ele>90.617903</ele>
        <time>2024-04-08T15:55:58.089Z</time>
      </trkpt>
      <trkpt lat="48.49864" lon="-2.77161">
        <ele>90.736164</ele>
        <time>2024-04-08T15:56:01.369Z</time>
      </trkpt>
      <trkpt lat="48.49864" lon="-2.77174">
        <ele>90.863249</ele>
        <time>2024-04-08T15:56:04.776Z</time>
      </trkpt>
      <trkpt lat="48.49847" lon="-2.77198">
        <ele>91.184137</ele>
        <time>2024-04-08T15:56:12.761Z</time>
      </trkpt>
      <trkpt lat="48.49827" lon="-2.77222">
        <ele>91.54281</ele>
        <time>2024-04-08T15:56:21.852Z</time>
      </trkpt>
      <trkpt lat="48.49814" lon="-2.77235">
        <ele>91.750332</ele>
        <time>2024-04-08T15:56:27.315Z</time>
      </trkpt>
      <trkpt lat="48.49729" lon="-2.77334">
        <ele>93.366765</ele>
        <time>2024-04-08T15:57:08.305Z</time>
      </trkpt>
      <trkpt lat="48.49726" lon="-2.77328">
        <ele>93.445951</ele>
        <time>2024-04-08T15:57:10.127Z</time>
      </trkpt>
      <trkpt lat="48.49729" lon="-2.77334">
        <ele>93.525138</ele>
        <time>2024-04-08T15:57:12.472Z</time>
      </trkpt>
      <trkpt lat="48.49717" lon="-2.77348">
        <ele>93.762502</ele>
        <time>2024-04-08T15:57:18.801Z</time>
      </trkpt>
      <trkpt lat="48.49744" lon="-2.77406">
        <ele>94.491281</ele>
        <time>2024-04-08T15:57:35.802Z</time>
      </trkpt>
      <trkpt lat="48.49747" lon="-2.77411">
        <ele>94.562233</ele>
        <time>2024-04-08T15:57:37.014Z</time>
      </trkpt>
      <trkpt lat="48.49762" lon="-2.77435">
        <ele>94.892741</ele>
        <time>2024-04-08T15:57:44.409Z</time>
      </trkpt>
      <trkpt lat="48.49777" lon="-2.77474">
        <ele>95.16748</ele>
        <time>2024-04-08T15:57:53.858Z</time>
      </trkpt>
      <trkpt lat="48.49802" lon="-2.77533">
        <ele>95.56593</ele>
        <time>2024-04-08T15:58:08.275Z</time>
      </trkpt>
      <trkpt lat="48.4982" lon="-2.77587">
        <ele>95.909766</ele>
        <time>2024-04-08T15:58:21.133Z</time>
      </trkpt>
      <trkpt lat="48.49821" lon="-2.7761">
        <ele>96.038714</ele>
        <time>2024-04-08T15:58:25.389Z</time>
      </trkpt>
      <trkpt lat="48.49817" lon="-2.77646">
        <ele>96.249108</ele>
        <time>2024-04-08T15:58:34.157Z</time>
      </trkpt>
      <trkpt lat="48.49814" lon="-2.77656">
        <ele>96.307986</ele>
        <time>2024-04-08T15:58:37.294Z</time>
      </trkpt>
      <trkpt lat="48.49802" lon="-2.77708">
        <ele>96.785441</ele>
        <time>2024-04-08T15:58:56.136Z</time>
      </trkpt>
      <trkpt lat="48.49801" lon="-2.77714">
        <ele>96.859295</ele>
        <time>2024-04-08T15:58:58.051Z</time>
      </trkpt>
      <trkpt lat="48.49799" lon="-2.77725">
        <ele>96.997854</ele>
        <time>2024-04-08T15:59:02.594Z</time>
      </trkpt>
      <trkpt lat="48.49797" lon="-2.77732">
        <ele>97.090578</ele>
        <time>2024-04-08T15:59:05.309Z</time>
      </trkpt>
      <trkpt lat="48.49728" lon="-2.77829">
        <ele>98.788444</ele>
        <time>2024-04-08T15:59:58.166Z</time>
      </trkpt>
      <trkpt lat="48.4971" lon="-2.77854">
        <ele>99.233395</ele>
        <time>2024-04-08T16:00:12.155Z</time>
      </trkpt>
      <trkpt lat="48.49688" lon="-2.77889">
        <ele>99.820958</ele>
        <time>2024-04-08T16:00:30.182Z</time>
      </trkpt>
      <trkpt lat="48.49678" lon="-2.77934">
        <ele>100.506863</ele>
        <time>2024-04-08T16:00:48.277Z</time>
      </trkpt>
      <trkpt lat="48.49671" lon="-2.77945">
        <ele>100.70862</ele>
        <time>2024-04-08T16:00:54.142Z</time>
      </trkpt>
      <trkpt lat="48.49663" lon="-2.7795">
        <ele>100.89465</ele>
        <time>2024-04-08T16:00:59.116Z</time>
      </trkpt>
      <trkpt lat="48.49653" lon="-2.77952">
        <ele>101.124833</ele>
        <time>2024-04-08T16:01:05.259Z</time>
      </trkpt>
      <trkpt lat="48.49648" lon="-2.77954">
        <ele>101.234515</ele>
        <time>2024-04-08T16:01:07.779Z</time>
      </trkpt>
      <trkpt lat="48.49631" lon="-2.78011">
        <ele>102.134813</ele>
        <time>2024-04-08T16:01:32.007Z</time>
      </trkpt>
      <trkpt lat="48.49606" lon="-2.78075">
        <ele>103.20242</ele>
        <time>2024-04-08T16:02:01.057Z</time>
      </trkpt>
      <trkpt lat="48.4958" lon="-2.78177">
        <ele>104.461013</ele>
        <time>2024-04-08T16:02:41.512Z</time>
      </trkpt>
      <trkpt lat="48.4956" lon="-2.78236">
        <ele>105.162727</ele>
        <time>2024-04-08T16:03:05.396Z</time>
      </trkpt>
      <trkpt lat="48.4955" lon="-2.78284">
        <ele>105.693349</ele>
        <time>2024-04-08T16:03:22.868Z</time>
      </trkpt>
      <trkpt lat="48.49552" lon="-2.78292">
        <ele>105.785179</ele>
        <time>2024-04-08T16:03:25.758Z</time>
      </trkpt>
      <trkpt lat="48.49555" lon="-2.78294">
        <ele>105.829955</ele>
        <time>2024-04-08T16:03:27.135Z</time>
      </trkpt>
      <trkpt lat="48.49563" lon="-2.78304">
        <ele>106.000521</ele>
        <time>2024-04-08T16:03:32.725Z</time>
      </trkpt>
      <trkpt lat="48.49528" lon="-2.78397">
        <ele>107.027539</ele>
        <time>2024-04-08T16:03:56.664Z</time>
      </trkpt>
      <trkpt lat="48.49524" lon="-2.78408">
        <ele>107.14724</ele>
        <time>2024-04-08T16:03:59.787Z</time>
      </trkpt>
      <trkpt lat="48.49484" lon="-2.78468">
        <ele>107.904268</ele>
        <time>2024-04-08T16:04:18.855Z</time>
      </trkpt>
      <trkpt lat="48.4947" lon="-2.78502">
        <ele>108.263986</ele>
        <time>2024-04-08T16:04:27.736Z</time>
      </trkpt>
      <trkpt lat="48.49414" lon="-2.78585">
        <ele>109.491042</ele>
        <time>2024-04-08T16:04:56.233Z</time>
      </trkpt>
      <trkpt lat="48.49342" lon="-2.78725">
        <ele>111.733273</ele>
        <time>2024-04-08T16:05:42.676Z</time>
      </trkpt>
      <trkpt lat="48.49333" lon="-2.78733">
        <ele>111.928357</ele>
        <time>2024-04-08T16:05:46.637Z</time>
      </trkpt>
      <trkpt lat="48.49332" lon="-2.78735">
        <ele>111.959661</ele>
        <time>2024-04-08T16:05:47.270Z</time>
      </trkpt>
      <trkpt lat="48.49326" lon="-2.78735">
        <ele>112.076159</ele>
        <time>2024-04-08T16:05:49.504Z</time>
      </trkpt>
      <trkpt lat="48.49294" lon="-2.78733">
        <ele>112.685977</ele>
        <time>2024-04-08T16:06:07.115Z</time>
      </trkpt>
      <trkpt lat="48.49282" lon="-2.78765">
        <ele>113.146636</ele>
        <time>2024-04-08T16:06:15.942Z</time>
      </trkpt>
      <trkpt lat="48.49277" lon="-2.78792">
        <ele>113.497629</ele>
        <time>2024-04-08T16:06:22.853Z</time>
      </trkpt>
      <trkpt lat="48.49268" lon="-2.78793">
        <ele>113.669775</ele>
        <time>2024-04-08T16:06:26.248Z</time>
      </trkpt>
      <trkpt lat="48.49248" lon="-2.78804">
        <ele>114.078581</ele>
        <time>2024-04-08T16:06:34.499Z</time>
      </trkpt>
      <trkpt lat="48.49209" lon="-2.78834">
        <ele>114.912549</ele>
        <time>2024-04-08T16:06:51.421Z</time>
      </trkpt>
      <trkpt lat="48.4919" lon="-2.78849">
        <ele>115.319064</ele>
        <time>2024-04-08T16:06:59.937Z</time>
      </trkpt>
      <trkpt lat="48.49122" lon="-2.78869">
        <ele>116.69125</ele>
        <time>2024-04-08T16:07:25.728Z</time>
      </trkpt>
      <trkpt lat="48.49054" lon="-2.7891">
        <ele>118.158948</ele>
        <time>2024-04-08T16:07:54.277Z</time>
      </trkpt>
      <trkpt lat="48.49047" lon="-2.78913">
        <ele>118.307714</ele>
        <time>2024-04-08T16:07:57.649Z</time>
      </trkpt>
      <trkpt lat="48.49043" lon="-2.78898">
        <ele>118.524586</ele>
        <time>2024-04-08T16:08:02.264Z</time>
      </trkpt>
      <trkpt lat="48.49044" lon="-2.78893">
        <ele>118.60396</ele>
        <time>2024-04-08T16:08:03.692Z</time>
      </trkpt>
      <trkpt lat="48.49044" lon="-2.78891">
        <ele>118.621107</ele>
        <time>2024-04-08T16:08:04.007Z</time>
      </trkpt>
      <trkpt lat="48.4905" lon="-2.78875">
        <ele>118.865151</ele>
        <time>2024-04-08T16:08:08.322Z</time>
      </trkpt>
      <trkpt lat="48.49047" lon="-2.78868">
        <ele>118.974465</ele>
        <time>2024-04-08T16:08:10.783Z</time>
      </trkpt>
      <trkpt lat="48.49036" lon="-2.78872">
        <ele>119.19874</ele>
        <time>2024-04-08T16:08:15.605Z</time>
      </trkpt>
      <trkpt lat="48.49024" lon="-2.78876">
        <ele>119.427554</ele>
        <time>2024-04-08T16:08:19.581Z</time>
      </trkpt>
      <trkpt lat="48.49012" lon="-2.78868">
        <ele>119.631528</ele>
        <time>2024-04-08T16:08:25.076Z</time>
      </trkpt>
      <trkpt lat="48.48999" lon="-2.78865">
        <ele>119.832149</ele>
        <time>2024-04-08T16:08:30.351Z</time>
      </trkpt>
      <trkpt lat="48.48996" lon="-2.78866">
        <ele>119.887444</ele>
        <time>2024-04-08T16:08:31.547Z</time>
      </trkpt>
      <trkpt lat="48.48994" lon="-2.78868">
        <ele>119.928699</ele>
        <time>2024-04-08T16:08:32.327Z</time>
      </trkpt>
      <trkpt lat="48.48993" lon="-2.78869">
        <ele>119.939746</ele>
        <time>2024-04-08T16:08:32.513Z</time>
      </trkpt>
      <trkpt lat="48.48987" lon="-2.78874">
        <ele>120.044092</ele>
        <time>2024-04-08T16:08:35.989Z</time>
      </trkpt>
      <trkpt lat="48.48975" lon="-2.78895">
        <ele>120.325622</ele>
        <time>2024-04-08T16:08:46.538Z</time>
      </trkpt>
      <trkpt lat="48.48964" lon="-2.78902">
        <ele>120.506677</ele>
        <time>2024-04-08T16:08:52.171Z</time>
      </trkpt>
      <trkpt lat="48.48957" lon="-2.78908">
        <ele>120.628891</ele>
        <time>2024-04-08T16:08:56.219Z</time>
      </trkpt>
      <trkpt lat="48.48941" lon="-2.78922">
        <ele>120.921405</ele>
        <time>2024-04-08T16:09:06.729Z</time>
      </trkpt>
      <trkpt lat="48.48921" lon="-2.78947">
        <ele>121.305856</ele>
        <time>2024-04-08T16:09:19.304Z</time>
      </trkpt>
      <trkpt lat="48.48885" lon="-2.78979">
        <ele>121.958604</ele>
        <time>2024-04-08T16:09:42.138Z</time>
      </trkpt>
      <trkpt lat="48.48862" lon="-2.7899">
        <ele>122.357541</ele>
        <time>2024-04-08T16:09:53.830Z</time>
      </trkpt>
      <trkpt lat="48.48808" lon="-2.79038">
        <ele>123.493068</ele>
        <time>2024-04-08T16:10:28.094Z</time>
      </trkpt>
      <trkpt lat="48.48804" lon="-2.79045">
        <ele>123.606737</ele>
        <time>2024-04-08T16:10:31.321Z</time>
      </trkpt>
      <trkpt lat="48.48798" lon="-2.79046">
        <ele>123.710795</ele>
        <time>2024-04-08T16:10:34.767Z</time>
      </trkpt>
      <trkpt lat="48.48791" lon="-2.79044">
        <ele>123.84181</ele>
        <time>2024-04-08T16:10:38.390Z</time>
      </trkpt>
      <trkpt lat="48.48782" lon="-2.79054">
        <ele>124.045668</ele>
        <time>2024-04-08T16:10:42.326Z</time>
      </trkpt>
      <trkpt lat="48.48776" lon="-2.79058">
        <ele>124.16544</ele>
        <time>2024-04-08T16:10:44.265Z</time>
      </trkpt>
      <trkpt lat="48.48762" lon="-2.79057">
        <ele>124.421678</ele>
        <time>2024-04-08T16:10:50.859Z</time>
      </trkpt>
      <trkpt lat="48.48755" lon="-2.79061">
        <ele>124.5654</ele>
        <time>2024-04-08T16:10:54.388Z</time>
      </trkpt>
      <trkpt lat="48.48741" lon="-2.79078">
        <ele>124.881415</ele>
        <time>2024-04-08T16:11:00.609Z</time>
      </trkpt>
      <trkpt lat="48.48735" lon="-2.79091">
        <ele>125.069654</ele>
        <time>2024-04-08T16:11:05.877Z</time>
      </trkpt>
      <trkpt lat="48.48727" lon="-2.79122">
        <ele>125.490041</ele>
        <time>2024-04-08T16:11:14.522Z</time>
      </trkpt>
      <trkpt lat="48.48722" lon="-2.79143">
        <ele>125.820263</ele>
        <time>2024-04-08T16:11:21.698Z</time>
      </trkpt>
      <trkpt lat="48.48712" lon="-2.79165">
        <ele>126.213007</ele>
        <time>2024-04-08T16:11:28.847Z</time>
      </trkpt>
      <trkpt lat="48.48694" lon="-2.79184">
        <ele>126.678792</ele>
        <time>2024-04-08T16:11:38.829Z</time>
      </trkpt>
      <trkpt lat="48.48684" lon="-2.79187">
        <ele>126.912064</ele>
        <time>2024-04-08T16:11:43.225Z</time>
      </trkpt>
      <trkpt lat="48.48676" lon="-2.79194">
        <ele>127.119334</ele>
        <time>2024-04-08T16:11:46.487Z</time>
      </trkpt>
      <trkpt lat="48.48644" lon="-2.79229">
        <ele>127.982894</ele>
        <time>2024-04-08T16:12:04.252Z</time>
      </trkpt>
      <trkpt lat="48.48624" lon="-2.79235">
        <ele>128.429059</ele>
        <time>2024-04-08T16:12:13.766Z</time>
      </trkpt>
      <trkpt lat="48.48608" lon="-2.79244">
        <ele>128.799064</ele>
        <time>2024-04-08T16:12:20.638Z</time>
      </trkpt>
      <trkpt lat="48.48577" lon="-2.79275">
        <ele>129.60122</ele>
        <time>2024-04-08T16:12:36.232Z</time>
      </trkpt>
      <trkpt lat="48.48552" lon="-2.79271">
        <ele>130.134509</ele>
        <time>2024-04-08T16:12:46.217Z</time>
      </trkpt>
      <trkpt lat="48.48535" lon="-2.79288">
        <ele>130.547903</ele>
        <time>2024-04-08T16:12:53.489Z</time>
      </trkpt>
      <trkpt lat="48.4852" lon="-2.79312">
        <ele>131.007571</ele>
        <time>2024-04-08T16:13:03.205Z</time>
      </trkpt>
      <trkpt lat="48.48509" lon="-2.79345">
        <ele>131.514435</ele>
        <time>2024-04-08T16:13:13.150Z</time>
      </trkpt>
      <trkpt lat="48.48491" lon="-2.7941">
        <ele>132.483144</ele>
        <time>2024-04-08T16:13:33.949Z</time>
      </trkpt>
      <trkpt lat="48.48488" lon="-2.79428">
        <ele>132.729462</ele>
        <time>2024-04-08T16:13:38.889Z</time>
      </trkpt>
      <trkpt lat="48.4848" lon="-2.79472">
        <ele>133.361473</ele>
        <time>2024-04-08T16:13:52.408Z</time>
      </trkpt>
      <trkpt lat="48.48477" lon="-2.79477">
        <ele>133.448937</ele>
        <time>2024-04-08T16:13:54.183Z</time>
      </trkpt>
      <trkpt lat="48.48467" lon="-2.79473">
        <ele>133.646819</ele>
        <time>2024-04-08T16:13:57.531Z</time>
      </trkpt>
      <trkpt lat="48.48458" lon="-2.79469">
        <ele>133.838502</ele>
        <time>2024-04-08T16:14:02.424Z</time>
      </trkpt>
      <trkpt lat="48.48365" lon="-2.79477">
        <ele>135.73637</ele>
        <time>2024-04-08T16:14:38.710Z</time>
      </trkpt>
      <trkpt lat="48.48358" lon="-2.79447">
        <ele>136.165227</ele>
        <time>2024-04-08T16:14:47.144Z</time>
      </trkpt>
      <trkpt lat="48.48351" lon="-2.79417">
        <ele>136.589621</ele>
        <time>2024-04-08T16:14:55.537Z</time>
      </trkpt>
      <trkpt lat="48.48344" lon="-2.79385">
        <ele>136.766956</ele>
        <time>2024-04-08T16:15:04.568Z</time>
      </trkpt>
      <trkpt lat="48.48333" lon="-2.79338">
        <ele>136.862296</ele>
        <time>2024-04-08T16:15:15.580Z</time>
      </trkpt>
      <trkpt lat="48.4833" lon="-2.79329">
        <ele>136.881233</ele>
        <time>2024-04-08T16:15:18.096Z</time>
      </trkpt>
      <trkpt lat="48.48308" lon="-2.79328">
        <ele>136.946693</ele>
        <time>2024-04-08T16:15:25.343Z</time>
      </trkpt>
      <trkpt lat="48.48308" lon="-2.79328">
        <ele>136.946693</ele>
        <time>2024-04-08T16:15:25.378Z</time>
      </trkpt>
      <trkpt lat="48.48308" lon="-2.79328">
        <ele>136.946693</ele>
        <time>2024-04-08T16:15:25.378Z</time>
      </trkpt>
      <trkpt lat="48.48292" lon="-2.79249">
        <ele>137.104695</ele>
        <time>2024-04-08T16:15:39.491Z</time>
      </trkpt>
      <trkpt lat="48.48379" lon="-2.79156">
        <ele>136.646489</ele>
        <time>2024-04-08T16:16:05.338Z</time>
      </trkpt>
      <trkpt lat="48.48372" lon="-2.79138">
        <ele>136.504392</ele>
        <time>2024-04-08T16:16:10.982Z</time>
      </trkpt>
      <trkpt lat="48.48345" lon="-2.79079">
        <ele>136.026263</ele>
        <time>2024-04-08T16:16:30.490Z</time>
      </trkpt>
      <trkpt lat="48.48343" lon="-2.79075">
        <ele>135.994492</ele>
        <time>2024-04-08T16:16:31.824Z</time>
      </trkpt>
      <trkpt lat="48.48339" lon="-2.79078">
        <ele>135.948179</ele>
        <time>2024-04-08T16:16:33.798Z</time>
      </trkpt>
      <trkpt lat="48.48335" lon="-2.79067">
        <ele>135.863952</ele>
        <time>2024-04-08T16:16:35.889Z</time>
      </trkpt>
      <trkpt lat="48.48304" lon="-2.79003">
        <ele>135.338929</ele>
        <time>2024-04-08T16:16:48.842Z</time>
      </trkpt>
      <trkpt lat="48.48275" lon="-2.78938">
        <ele>134.841106</ele>
        <time>2024-04-08T16:17:01.729Z</time>
      </trkpt>
      <trkpt lat="48.48264" lon="-2.78886">
        <ele>134.493334</ele>
        <time>2024-04-08T16:17:10.723Z</time>
      </trkpt>
      <trkpt lat="48.48325" lon="-2.78848">
        <ele>133.858931</ele>
        <time>2024-04-08T16:17:27.387Z</time>
      </trkpt>
      <trkpt lat="48.48386" lon="-2.78821">
        <ele>132.708504</ele>
        <time>2024-04-08T16:17:43.395Z</time>
      </trkpt>
      <trkpt lat="48.48304" lon="-2.78726">
        <ele>130.508082</ele>
        <time>2024-04-08T16:18:06.540Z</time>
      </trkpt>
      <trkpt lat="48.48277" lon="-2.78658">
        <ele>129.103127</ele>
        <time>2024-04-08T16:18:26.048Z</time>
      </trkpt>
      <trkpt lat="48.48245" lon="-2.78538">
        <ele>126.18029</ele>
        <time>2024-04-08T16:18:57.496Z</time>
      </trkpt>
      <trkpt lat="48.48233" lon="-2.78524">
        <ele>125.671824</ele>
        <time>2024-04-08T16:19:02.895Z</time>
      </trkpt>
      <trkpt lat="48.48203" lon="-2.78525">
        <ele>124.679539</ele>
        <time>2024-04-08T16:19:13.372Z</time>
      </trkpt>
      <trkpt lat="48.48185" lon="-2.785">
        <ele>123.829861</ele>
        <time>2024-04-08T16:19:22.444Z</time>
      </trkpt>
      <trkpt lat="48.4818" lon="-2.7848">
        <ele>123.441343</ele>
        <time>2024-04-08T16:19:27.643Z</time>
      </trkpt>
      <trkpt lat="48.48208" lon="-2.78438">
        <ele>122.430853</ele>
        <time>2024-04-08T16:19:42.115Z</time>
      </trkpt>
      <trkpt lat="48.48257" lon="-2.7839">
        <ele>120.925746</ele>
        <time>2024-04-08T16:20:04.148Z</time>
      </trkpt>
      <trkpt lat="48.48256" lon="-2.7836">
        <ele>120.415324</ele>
        <time>2024-04-08T16:20:11.752Z</time>
      </trkpt>
      <trkpt lat="48.48398" lon="-2.7831">
        <ele>117.371995</ele>
        <time>2024-04-08T16:21:08.546Z</time>
      </trkpt>
      <trkpt lat="48.48418" lon="-2.78289">
        <ele>116.923382</ele>
        <time>2024-04-08T16:21:18.317Z</time>
      </trkpt>
      <trkpt lat="48.48432" lon="-2.7828">
        <ele>116.641856</ele>
        <time>2024-04-08T16:21:24.453Z</time>
      </trkpt>
      <trkpt lat="48.48443" lon="-2.7829">
        <ele>116.414742</ele>
        <time>2024-04-08T16:21:29.421Z</time>
      </trkpt>
      <trkpt lat="48.48457" lon="-2.78286">
        <ele>116.148581</ele>
        <time>2024-04-08T16:21:35.257Z</time>
      </trkpt>
      <trkpt lat="48.48499" lon="-2.78274">
        <ele>115.494645</ele>
        <time>2024-04-08T16:21:52.261Z</time>
      </trkpt>
      <trkpt lat="48.48533" lon="-2.78264">
        <ele>115.045177</ele>
        <time>2024-04-08T16:22:06.140Z</time>
      </trkpt>
      <trkpt lat="48.48548" lon="-2.78251">
        <ele>114.814348</ele>
        <time>2024-04-08T16:22:13.340Z</time>
      </trkpt>
      <trkpt lat="48.48615" lon="-2.78174">
        <ele>113.721098</ele>
        <time>2024-04-08T16:22:48.072Z</time>
      </trkpt>
      <trkpt lat="48.48642" lon="-2.78148">
        <ele>113.364268</ele>
        <time>2024-04-08T16:23:01.001Z</time>
      </trkpt>
      <trkpt lat="48.48648" lon="-2.78117">
        <ele>113.182057</ele>
        <time>2024-04-08T16:23:09.638Z</time>
      </trkpt>
      <trkpt lat="48.48648" lon="-2.78082">
        <ele>112.984749</ele>
        <time>2024-04-08T16:23:19.091Z</time>
      </trkpt>
      <trkpt lat="48.48643" lon="-2.78025">
        <ele>112.666721</ele>
        <time>2024-04-08T16:23:34.501Z</time>
      </trkpt>
      <trkpt lat="48.48645" lon="-2.77986">
        <ele>112.444972</ele>
        <time>2024-04-08T16:23:45.367Z</time>
      </trkpt>
      <trkpt lat="48.48665" lon="-2.77982">
        <ele>112.277802</ele>
        <time>2024-04-08T16:23:50.467Z</time>
      </trkpt>
      <trkpt lat="48.4872" lon="-2.77938">
        <ele>112.025303</ele>
        <time>2024-04-08T16:24:07.678Z</time>
      </trkpt>
      <trkpt lat="48.48737" lon="-2.77921">
        <ele>112.096364</ele>
        <time>2024-04-08T16:24:12.802Z</time>
      </trkpt>
      <trkpt lat="48.48727" lon="-2.77915">
        <ele>112.133341</ele>
        <time>2024-04-08T16:24:16.848Z</time>
      </trkpt>
      <trkpt lat="48.48717" lon="-2.77902">
        <ele>112.178912</ele>
        <time>2024-04-08T16:24:20.310Z</time>
      </trkpt>
      <trkpt lat="48.48647" lon="-2.77746">
        <ele>112.549311</ele>
        <time>2024-04-08T16:24:59.167Z</time>
      </trkpt>
      <trkpt lat="48.48606" lon="-2.77691">
        <ele>112.407871</ele>
        <time>2024-04-08T16:25:17.540Z</time>
      </trkpt>
      <trkpt lat="48.48594" lon="-2.77676">
        <ele>112.367864</ele>
        <time>2024-04-08T16:25:21.904Z</time>
      </trkpt>
      <trkpt lat="48.48564" lon="-2.77621">
        <ele>112.247389</ele>
        <time>2024-04-08T16:25:34.131Z</time>
      </trkpt>
      <trkpt lat="48.48546" lon="-2.77593">
        <ele>112.179602</ele>
        <time>2024-04-08T16:25:40.824Z</time>
      </trkpt>
      <trkpt lat="48.48531" lon="-2.77563">
        <ele>112.115521</ele>
        <time>2024-04-08T16:25:46.793Z</time>
      </trkpt>
      <trkpt lat="48.48526" lon="-2.77567">
        <ele>112.04674</ele>
        <time>2024-04-08T16:25:48.139Z</time>
      </trkpt>
      <trkpt lat="48.48502" lon="-2.77508">
        <ele>111.498975</ele>
        <time>2024-04-08T16:25:58.383Z</time>
      </trkpt>
      <trkpt lat="48.48492" lon="-2.77475">
        <ele>111.215293</ele>
        <time>2024-04-08T16:26:03.708Z</time>
      </trkpt>
      <trkpt lat="48.48454" lon="-2.77328">
        <ele>109.98226</ele>
        <time>2024-04-08T16:26:28.224Z</time>
      </trkpt>
      <trkpt lat="48.48445" lon="-2.77308">
        <ele>110.12192</ele>
        <time>2024-04-08T16:26:32.285Z</time>
      </trkpt>
      <trkpt lat="48.48433" lon="-2.77292">
        <ele>110.264515</ele>
        <time>2024-04-08T16:26:36.592Z</time>
      </trkpt>
      <trkpt lat="48.48433" lon="-2.77291">
        <ele>110.269043</ele>
        <time>2024-04-08T16:26:36.740Z</time>
      </trkpt>
      <trkpt lat="48.48422" lon="-2.77286">
        <ele>110.361695</ele>
        <time>2024-04-08T16:26:39.739Z</time>
      </trkpt>
      <trkpt lat="48.48365" lon="-2.77292">
        <ele>110.865737</ele>
        <time>2024-04-08T16:26:58.402Z</time>
      </trkpt>
      <trkpt lat="48.48343" lon="-2.77288">
        <ele>111.055421</ele>
        <time>2024-04-08T16:27:05.994Z</time>
      </trkpt>
      <trkpt lat="48.4831" lon="-2.77266">
        <ele>111.372515</ele>
        <time>2024-04-08T16:27:19.520Z</time>
      </trkpt>
      <trkpt lat="48.48251" lon="-2.77236">
        <ele>112.498013</ele>
        <time>2024-04-08T16:27:43.638Z</time>
      </trkpt>
      <trkpt lat="48.48239" lon="-2.77233">
        <ele>112.765452</ele>
        <time>2024-04-08T16:27:48.279Z</time>
      </trkpt>
      <trkpt lat="48.48227" lon="-2.77236">
        <ele>113.019472</ele>
        <time>2024-04-08T16:27:52.788Z</time>
      </trkpt>
      <trkpt lat="48.4817" lon="-2.77277">
        <ele>114.430639</ele>
        <time>2024-04-08T16:28:18.422Z</time>
      </trkpt>
      <trkpt lat="48.48127" lon="-2.77291">
        <ele>115.404705</ele>
        <time>2024-04-08T16:28:37.281Z</time>
      </trkpt>
      <trkpt lat="48.48089" lon="-2.77298">
        <ele>116.31431</ele>
        <time>2024-04-08T16:28:53.110Z</time>
      </trkpt>
      <trkpt lat="48.48064" lon="-2.77284">
        <ele>116.943931</ele>
        <time>2024-04-08T16:29:03.133Z</time>
      </trkpt>
      <trkpt lat="48.48039" lon="-2.77257">
        <ele>117.690035</ele>
        <time>2024-04-08T16:29:15.398Z</time>
      </trkpt>
      <trkpt lat="48.48004" lon="-2.77203">
        <ele>118.891863</ele>
        <time>2024-04-08T16:29:36.242Z</time>
      </trkpt>
      <trkpt lat="48.47964" lon="-2.77145">
        <ele>120.144828</ele>
        <time>2024-04-08T16:29:59.774Z</time>
      </trkpt>
      <trkpt lat="48.47947" lon="-2.77131">
        <ele>120.543351</ele>
        <time>2024-04-08T16:30:08.204Z</time>
      </trkpt>
      <trkpt lat="48.47926" lon="-2.77122">
        <ele>120.987946</ele>
        <time>2024-04-08T16:30:17.476Z</time>
      </trkpt>
      <trkpt lat="48.47905" lon="-2.77118">
        <ele>121.416123</ele>
        <time>2024-04-08T16:30:25.694Z</time>
      </trkpt>
      <trkpt lat="48.47911" lon="-2.77089">
        <ele>121.82122</ele>
        <time>2024-04-08T16:30:33.757Z</time>
      </trkpt>
      <trkpt lat="48.47917" lon="-2.7707">
        <ele>122.103669</ele>
        <time>2024-04-08T16:30:38.833Z</time>
      </trkpt>
      <trkpt lat="48.48003" lon="-2.76873">
        <ele>124.504718</ele>
        <time>2024-04-08T16:31:34.415Z</time>
      </trkpt>
      <trkpt lat="48.48013" lon="-2.76839">
        <ele>124.78392</ele>
        <time>2024-04-08T16:31:41.824Z</time>
      </trkpt>
      <trkpt lat="48.48016" lon="-2.76811">
        <ele>125.001962</ele>
        <time>2024-04-08T16:31:47.834Z</time>
      </trkpt>
      <trkpt lat="48.48015" lon="-2.7678">
        <ele>125.234348</ele>
        <time>2024-04-08T16:31:54.388Z</time>
      </trkpt>
      <trkpt lat="48.4801" lon="-2.76746">
        <ele>125.498608</ele>
        <time>2024-04-08T16:32:01.752Z</time>
      </trkpt>
      <trkpt lat="48.47994" lon="-2.76668">
        <ele>126.126396</ele>
        <time>2024-04-08T16:32:19.888Z</time>
      </trkpt>
      <trkpt lat="48.47983" lon="-2.7662">
        <ele>126.519994</ele>
        <time>2024-04-08T16:32:31.142Z</time>
      </trkpt>
      <trkpt lat="48.47974" lon="-2.76597">
        <ele>126.723855</ele>
        <time>2024-04-08T16:32:36.967Z</time>
      </trkpt>
      <trkpt lat="48.47964" lon="-2.76579">
        <ele>126.908381</ele>
        <time>2024-04-08T16:32:42.293Z</time>
      </trkpt>
      <trkpt lat="48.47907" lon="-2.76519">
        <ele>127.662681</ele>
        <time>2024-04-08T16:33:06.134Z</time>
      </trkpt>
      <trkpt lat="48.47897" lon="-2.76497">
        <ele>127.730437</ele>
        <time>2024-04-08T16:33:12.584Z</time>
      </trkpt>
      <trkpt lat="48.47889" lon="-2.76469">
        <ele>127.804239</ele>
        <time>2024-04-08T16:33:19.403Z</time>
      </trkpt>
      <trkpt lat="48.47886" lon="-2.76435">
        <ele>127.889615</ele>
        <time>2024-04-08T16:33:27.103Z</time>
      </trkpt>
      <trkpt lat="48.47879" lon="-2.76429">
        <ele>127.919054</ele>
        <time>2024-04-08T16:33:29.897Z</time>
      </trkpt>
      <trkpt lat="48.47876" lon="-2.76408">
        <ele>127.971418</ele>
        <time>2024-04-08T16:33:34.576Z</time>
      </trkpt>
      <trkpt lat="48.47827" lon="-2.76368">
        <ele>128.177449</ele>
        <time>2024-04-08T16:33:51.629Z</time>
      </trkpt>
      <trkpt lat="48.47815" lon="-2.7635">
        <ele>128.2404</ele>
        <time>2024-04-08T16:33:56.375Z</time>
      </trkpt>
      <trkpt lat="48.47804" lon="-2.76322">
        <ele>128.274561</ele>
        <time>2024-04-08T16:34:02.451Z</time>
      </trkpt>
      <trkpt lat="48.47774" lon="-2.7609">
        <ele>125.84484</ele>
        <time>2024-04-08T16:34:42.314Z</time>
      </trkpt>
      <trkpt lat="48.47771" lon="-2.76042">
        <ele>125.403254</ele>
        <time>2024-04-08T16:34:49.986Z</time>
      </trkpt>
      <trkpt lat="48.47771" lon="-2.76003">
        <ele>125.10793</ele>
        <time>2024-04-08T16:34:56.434Z</time>
      </trkpt>
      <trkpt lat="48.47769" lon="-2.75984">
        <ele>124.963359</ele>
        <time>2024-04-08T16:34:59.684Z</time>
      </trkpt>
      <trkpt lat="48.47752" lon="-2.75928">
        <ele>124.501343</ele>
        <time>2024-04-08T16:35:10.246Z</time>
      </trkpt>
      <trkpt lat="48.47743" lon="-2.75869">
        <ele>124.045858</ele>
        <time>2024-04-08T16:35:20.978Z</time>
      </trkpt>
      <trkpt lat="48.47741" lon="-2.7583">
        <ele>123.751729</ele>
        <time>2024-04-08T16:35:28.188Z</time>
      </trkpt>
      <trkpt lat="48.47743" lon="-2.75797">
        <ele>123.506857</ele>
        <time>2024-04-08T16:35:34.338Z</time>
      </trkpt>
      <trkpt lat="48.47792" lon="-2.75754">
        <ele>123.9865</ele>
        <time>2024-04-08T16:36:00.207Z</time>
      </trkpt>
      <trkpt lat="48.47812" lon="-2.75729">
        <ele>124.21557</ele>
        <time>2024-04-08T16:36:12.835Z</time>
      </trkpt>
      <trkpt lat="48.47836" lon="-2.75683">
        <ele>124.564289</ele>
        <time>2024-04-08T16:36:33.083Z</time>
      </trkpt>
      <trkpt lat="48.47856" lon="-2.75635">
        <ele>124.897522</ele>
        <time>2024-04-08T16:36:53.184Z</time>
      </trkpt>
      <trkpt lat="48.47911" lon="-2.75404">
        <ele>127.710639</ele>
        <time>2024-04-08T16:38:24.143Z</time>
      </trkpt>
      <trkpt lat="48.47934" lon="-2.75337">
        <ele>128.586254</ele>
        <time>2024-04-08T16:38:52.551Z</time>
      </trkpt>
      <trkpt lat="48.47943" lon="-2.75215">
        <ele>129.685313</ele>
        <time>2024-04-08T16:39:37.057Z</time>
      </trkpt>
      <trkpt lat="48.47946" lon="-2.75182">
        <ele>129.980299</ele>
        <time>2024-04-08T16:39:44.530Z</time>
      </trkpt>
      <trkpt lat="48.4796" lon="-2.75143">
        <ele>130.375701</ele>
        <time>2024-04-08T16:39:54.537Z</time>
      </trkpt>
      <trkpt lat="48.47994" lon="-2.75097">
        <ele>130.975697</ele>
        <time>2024-04-08T16:40:08.870Z</time>
      </trkpt>
      <trkpt lat="48.4803" lon="-2.75057">
        <ele>131.53342</ele>
        <time>2024-04-08T16:40:23.752Z</time>
      </trkpt>
      <trkpt lat="48.48034" lon="-2.75045">
        <ele>131.646016</ele>
        <time>2024-04-08T16:40:27.006Z</time>
      </trkpt>
      <trkpt lat="48.4805" lon="-2.75044">
        <ele>131.846556</ele>
        <time>2024-04-08T16:40:31.908Z</time>
      </trkpt>
      <trkpt lat="48.48065" lon="-2.75038">
        <ele>132.04089</ele>
        <time>2024-04-08T16:40:37.259Z</time>
      </trkpt>
      <trkpt lat="48.48097" lon="-2.75009">
        <ele>132.507646</ele>
        <time>2024-04-08T16:40:50.269Z</time>
      </trkpt>
      <trkpt lat="48.48114" lon="-2.74981">
        <ele>132.814514</ele>
        <time>2024-04-08T16:40:58.643Z</time>
      </trkpt>
      <trkpt lat="48.48116" lon="-2.7497">
        <ele>132.907866</ele>
        <time>2024-04-08T16:41:01.614Z</time>
      </trkpt>
      <trkpt lat="48.48095" lon="-2.74909">
        <ele>133.858822</ele>
        <time>2024-04-08T16:41:19.959Z</time>
      </trkpt>
      <trkpt lat="48.48082" lon="-2.74878">
        <ele>134.459767</ele>
        <time>2024-04-08T16:41:30.186Z</time>
      </trkpt>
      <trkpt lat="48.48074" lon="-2.74869">
        <ele>134.705559</ele>
        <time>2024-04-08T16:41:35.018Z</time>
      </trkpt>
      <trkpt lat="48.48041" lon="-2.74856">
        <ele>135.570641</ele>
        <time>2024-04-08T16:41:51.209Z</time>
      </trkpt>
      <trkpt lat="48.48033" lon="-2.74848">
        <ele>135.806244</ele>
        <time>2024-04-08T16:41:55.459Z</time>
      </trkpt>
      <trkpt lat="48.4803" lon="-2.74835">
        <ele>136.04115</ele>
        <time>2024-04-08T16:41:59.617Z</time>
      </trkpt>
      <trkpt lat="48.48025" lon="-2.74678">
        <ele>138.153464</ele>
        <time>2024-04-08T16:42:43.548Z</time>
      </trkpt>
      <trkpt lat="48.48025" lon="-2.74665">
        <ele>138.264158</ele>
        <time>2024-04-08T16:42:49.237Z</time>
      </trkpt>
      <trkpt lat="48.47995" lon="-2.74667">
        <ele>138.66326</ele>
        <time>2024-04-08T16:43:04.974Z</time>
      </trkpt>
      <trkpt lat="48.47973" lon="-2.74647">
        <ele>139.008991</ele>
        <time>2024-04-08T16:43:18.390Z</time>
      </trkpt>
      <trkpt lat="48.48005" lon="-2.74532">
        <ele>140.027902</ele>
        <time>2024-04-08T16:43:58.861Z</time>
      </trkpt>
      <trkpt lat="48.48043" lon="-2.74343">
        <ele>140.226667</ele>
        <time>2024-04-08T16:44:57.554Z</time>
      </trkpt>
      <trkpt lat="48.4808" lon="-2.74197">
        <ele>139.921836</ele>
        <time>2024-04-08T16:45:43.801Z</time>
      </trkpt>
      <trkpt lat="48.48087" lon="-2.74117">
        <ele>139.613013</ele>
        <time>2024-04-08T16:46:06.840Z</time>
      </trkpt>
      <trkpt lat="48.48108" lon="-2.74108">
        <ele>139.488438</ele>
        <time>2024-04-08T16:46:12.214Z</time>
      </trkpt>
      <trkpt lat="48.48138" lon="-2.7409">
        <ele>139.304263</ele>
        <time>2024-04-08T16:46:20.052Z</time>
      </trkpt>
      <trkpt lat="48.48166" lon="-2.7408">
        <ele>138.843545</ele>
        <time>2024-04-08T16:46:26.950Z</time>
      </trkpt>
      <trkpt lat="48.48202" lon="-2.74076">
        <ele>138.081686</ele>
        <time>2024-04-08T16:46:35.555Z</time>
      </trkpt>
      <trkpt lat="48.48202" lon="-2.74068">
        <ele>137.972895</ele>
        <time>2024-04-08T16:46:36.723Z</time>
      </trkpt>
      <trkpt lat="48.48202" lon="-2.74014">
        <ele>137.222514</ele>
        <time>2024-04-08T16:46:44.957Z</time>
      </trkpt>
      <trkpt lat="48.48199" lon="-2.73925">
        <ele>135.971792</ele>
        <time>2024-04-08T16:46:58.338Z</time>
      </trkpt>
      <trkpt lat="48.48199" lon="-2.73918">
        <ele>135.875462</ele>
        <time>2024-04-08T16:46:59.363Z</time>
      </trkpt>
      <trkpt lat="48.48161" lon="-2.73908">
        <ele>134.869985</ele>
        <time>2024-04-08T16:47:07.762Z</time>
      </trkpt>
      <trkpt lat="48.48136" lon="-2.73866">
        <ele>133.697096</ele>
        <time>2024-04-08T16:47:15.758Z</time>
      </trkpt>
      <trkpt lat="48.48094" lon="-2.73813">
        <ele>131.979227</ele>
        <time>2024-04-08T16:47:27.577Z</time>
      </trkpt>
      <trkpt lat="48.48069" lon="-2.73791">
        <ele>131.04653</ele>
        <time>2024-04-08T16:47:33.940Z</time>
      </trkpt>
      <trkpt lat="48.48069" lon="-2.73787">
        <ele>130.958379</ele>
        <time>2024-04-08T16:47:34.532Z</time>
      </trkpt>
      <trkpt lat="48.48072" lon="-2.73751">
        <ele>130.213072</ele>
        <time>2024-04-08T16:47:39.583Z</time>
      </trkpt>
      <trkpt lat="48.48078" lon="-2.73719">
        <ele>129.467875</ele>
        <time>2024-04-08T16:47:44.311Z</time>
      </trkpt>
      <trkpt lat="48.48118" lon="-2.73555">
        <ele>125.328295</ele>
        <time>2024-04-08T16:48:08.778Z</time>
      </trkpt>
      <trkpt lat="48.48145" lon="-2.7346">
        <ele>122.8836</ele>
        <time>2024-04-08T16:48:23.165Z</time>
      </trkpt>
      <trkpt lat="48.48123" lon="-2.73449">
        <ele>122.069897</ele>
        <time>2024-04-08T16:48:27.700Z</time>
      </trkpt>
      <trkpt lat="48.48148" lon="-2.73393">
        <ele>120.472803</ele>
        <time>2024-04-08T16:48:44.064Z</time>
      </trkpt>
      <trkpt lat="48.48166" lon="-2.73328">
        <ele>118.837503</ele>
        <time>2024-04-08T16:49:00.834Z</time>
      </trkpt>
      <trkpt lat="48.48185" lon="-2.73269">
        <ele>117.299197</ele>
        <time>2024-04-08T16:49:16.730Z</time>
      </trkpt>
      <trkpt lat="48.48201" lon="-2.73205">
        <ele>116.073692</ele>
        <time>2024-04-08T16:49:33.606Z</time>
      </trkpt>
      <trkpt lat="48.48179" lon="-2.73187">
        <ele>115.461693</ele>
        <time>2024-04-08T16:49:38.904Z</time>
      </trkpt>
      <trkpt lat="48.48131" lon="-2.73162">
        <ele>114.160124</ele>
        <time>2024-04-08T16:49:50.425Z</time>
      </trkpt>
      <trkpt lat="48.48041" lon="-2.73115">
        <ele>112.045521</ele>
        <time>2024-04-08T16:50:12.302Z</time>
      </trkpt>
      <trkpt lat="48.47998" lon="-2.73096">
        <ele>111.337553</ele>
        <time>2024-04-08T16:50:23.081Z</time>
      </trkpt>
      <trkpt lat="48.47934" lon="-2.73036">
        <ele>110.157447</ele>
        <time>2024-04-08T16:50:41.140Z</time>
      </trkpt>
      <trkpt lat="48.47874" lon="-2.72981">
        <ele>109.082264</ele>
        <time>2024-04-08T16:50:58.110Z</time>
      </trkpt>
      <trkpt lat="48.47798" lon="-2.72895">
        <ele>107.64914</ele>
        <time>2024-04-08T16:51:21.123Z</time>
      </trkpt>
      <trkpt lat="48.47725" lon="-2.72866">
        <ele>106.379105</ele>
        <time>2024-04-08T16:51:38.447Z</time>
      </trkpt>
      <trkpt lat="48.47699" lon="-2.72844">
        <ele>105.784095</ele>
        <time>2024-04-08T16:51:45.366Z</time>
      </trkpt>
      <trkpt lat="48.47696" lon="-2.72841">
        <ele>105.710529</ele>
        <time>2024-04-08T16:51:46.236Z</time>
      </trkpt>
      <trkpt lat="48.47704" lon="-2.72697">
        <ele>103.798644</ele>
        <time>2024-04-08T16:52:07.620Z</time>
      </trkpt>
      <trkpt lat="48.47681" lon="-2.72698">
        <ele>103.299688</ele>
        <time>2024-04-08T16:52:13.033Z</time>
      </trkpt>
      <trkpt lat="48.476" lon="-2.72655">
        <ele>100.648814</ele>
        <time>2024-04-08T16:52:31.971Z</time>
      </trkpt>
      <trkpt lat="48.47533" lon="-2.72661">
        <ele>98.584221</ele>
        <time>2024-04-08T16:52:46.791Z</time>
      </trkpt>
      <trkpt lat="48.47513" lon="-2.72771">
        <ele>94.774899</ele>
        <time>2024-04-08T16:53:01.931Z</time>
      </trkpt>
      <trkpt lat="48.47487" lon="-2.72869">
        <ele>90.528302</ele>
        <time>2024-04-08T16:53:15.604Z</time>
      </trkpt>
      <trkpt lat="48.47482" lon="-2.7287">
        <ele>90.275436</ele>
        <time>2024-04-08T16:53:16.356Z</time>
      </trkpt>
      <trkpt lat="48.47476" lon="-2.7287">
        <ele>89.87194</ele>
        <time>2024-04-08T16:53:17.566Z</time>
      </trkpt>
      <trkpt lat="48.47443" lon="-2.72873">
        <ele>87.919258</ele>
        <time>2024-04-08T16:53:23.627Z</time>
      </trkpt>
      <trkpt lat="48.47432" lon="-2.72879">
        <ele>87.191501</ele>
        <time>2024-04-08T16:53:27.558Z</time>
      </trkpt>
      <trkpt lat="48.47431" lon="-2.72951">
        <ele>84.445219</ele>
        <time>2024-04-08T16:53:43.076Z</time>
      </trkpt>
      <trkpt lat="48.47428" lon="-2.72971">
        <ele>83.658781</ele>
        <time>2024-04-08T16:53:47.394Z</time>
      </trkpt>
      <trkpt lat="48.47423" lon="-2.72989">
        <ele>82.891761</ele>
        <time>2024-04-08T16:53:51.898Z</time>
      </trkpt>
      <trkpt lat="48.47417" lon="-2.72999">
        <ele>82.388207</ele>
        <time>2024-04-08T16:53:54.907Z</time>
      </trkpt>
      <trkpt lat="48.4741" lon="-2.73022">
        <ele>81.398281</ele>
        <time>2024-04-08T16:54:00.386Z</time>
      </trkpt>
      <trkpt lat="48.47408" lon="-2.73045">
        <ele>80.512586</ele>
        <time>2024-04-08T16:54:05.830Z</time>
      </trkpt>
      <trkpt lat="48.47406" lon="-2.7304">
        <ele>80.26646</ele>
        <time>2024-04-08T16:54:07.220Z</time>
      </trkpt>
      <trkpt lat="48.47401" lon="-2.73041">
        <ele>79.983674</ele>
        <time>2024-04-08T16:54:08.871Z</time>
      </trkpt>
      <trkpt lat="48.47388" lon="-2.73045">
        <ele>79.239673</ele>
        <time>2024-04-08T16:54:13.295Z</time>
      </trkpt>
      <trkpt lat="48.47384" lon="-2.7304">
        <ele>78.937102</ele>
        <time>2024-04-08T16:54:15.182Z</time>
      </trkpt>
      <trkpt lat="48.47375" lon="-2.73011">
        <ele>77.69182</ele>
        <time>2024-04-08T16:54:22.804Z</time>
      </trkpt>
      <trkpt lat="48.47368" lon="-2.72931">
        <ele>75.727672</ele>
        <time>2024-04-08T16:54:41.890Z</time>
      </trkpt>
      <trkpt lat="48.4737" lon="-2.72764">
        <ele>72.916401</ele>
        <time>2024-04-08T16:55:24.762Z</time>
      </trkpt>
      <trkpt lat="48.47386" lon="-2.72554">
        <ele>70.73607</ele>
        <time>2024-04-08T16:56:20.976Z</time>
      </trkpt>
      <trkpt lat="48.47387" lon="-2.72496">
        <ele>70.258328</ele>
        <time>2024-04-08T16:56:36.654Z</time>
      </trkpt>
      <trkpt lat="48.47387" lon="-2.72473">
        <ele>70.070529</ele>
        <time>2024-04-08T16:56:42.856Z</time>
      </trkpt>
      <trkpt lat="48.47391" lon="-2.7242">
        <ele>69.987352</ele>
        <time>2024-04-08T16:56:57.777Z</time>
      </trkpt>
      <trkpt lat="48.47391" lon="-2.72381">
        <ele>70.281296</ele>
        <time>2024-04-08T16:57:09.052Z</time>
      </trkpt>
      <trkpt lat="48.47389" lon="-2.72364">
        <ele>70.407809</ele>
        <time>2024-04-08T16:57:13.869Z</time>
      </trkpt>
      <trkpt lat="48.47391" lon="-2.72262">
        <ele>71.179231</ele>
        <time>2024-04-08T16:57:51.923Z</time>
      </trkpt>
      <trkpt lat="48.47402" lon="-2.72226">
        <ele>71.481012</ele>
        <time>2024-04-08T16:58:07.543Z</time>
      </trkpt>
      <trkpt lat="48.47395" lon="-2.72222">
        <ele>71.560847</ele>
        <time>2024-04-08T16:58:11.362Z</time>
      </trkpt>
      <trkpt lat="48.4738" lon="-2.72225">
        <ele>71.736467</ele>
        <time>2024-04-08T16:58:21.052Z</time>
      </trkpt>
      <trkpt lat="48.47371" lon="-2.7223">
        <ele>71.846644</ele>
        <time>2024-04-08T16:58:25.832Z</time>
      </trkpt>
      <trkpt lat="48.47355" lon="-2.72224">
        <ele>71.892072</ele>
        <time>2024-04-08T16:58:35.085Z</time>
      </trkpt>
      <trkpt lat="48.47336" lon="-2.72212">
        <ele>71.924869</ele>
        <time>2024-04-08T16:58:45.335Z</time>
      </trkpt>
      <trkpt lat="48.47327" lon="-2.72204">
        <ele>71.941719</ele>
        <time>2024-04-08T16:58:50.508Z</time>
      </trkpt>
      <trkpt lat="48.47318" lon="-2.72191">
        <ele>71.962574</ele>
        <time>2024-04-08T16:58:58.115Z</time>
      </trkpt>
      <trkpt lat="48.47315" lon="-2.72183">
        <ele>71.972439</ele>
        <time>2024-04-08T16:59:00.859Z</time>
      </trkpt>
      <trkpt lat="48.47312" lon="-2.72165">
        <ele>71.992505</ele>
        <time>2024-04-08T16:59:06.200Z</time>
      </trkpt>
      <trkpt lat="48.47327" lon="-2.72068">
        <ele>72.100319</ele>
        <time>2024-04-08T16:59:34.778Z</time>
      </trkpt>
      <trkpt lat="48.47328" lon="-2.7206">
        <ele>72.109469</ele>
        <time>2024-04-08T16:59:37.671Z</time>
      </trkpt>
      <trkpt lat="48.47335" lon="-2.72019">
        <ele>72.155146</ele>
        <time>2024-04-08T16:59:44.457Z</time>
      </trkpt>
      <trkpt lat="48.47335" lon="-2.71995">
        <ele>71.909021</ele>
        <time>2024-04-08T16:59:48.794Z</time>
      </trkpt>
      <trkpt lat="48.47341" lon="-2.71979">
        <ele>71.659066</ele>
        <time>2024-04-08T16:59:51.495Z</time>
      </trkpt>
      <trkpt lat="48.47345" lon="-2.72009">
        <ele>71.233047</ele>
        <time>2024-04-08T16:59:56.753Z</time>
      </trkpt>
      <trkpt lat="48.47349" lon="-2.72019">
        <ele>71.066877</ele>
        <time>2024-04-08T16:59:58.306Z</time>
      </trkpt>
      <trkpt lat="48.47357" lon="-2.72027">
        <ele>70.881633</ele>
        <time>2024-04-08T17:00:00.088Z</time>
      </trkpt>
      <trkpt lat="48.47373" lon="-2.72036">
        <ele>70.512327</ele>
        <time>2024-04-08T17:00:04.750Z</time>
      </trkpt>
      <trkpt lat="48.47384" lon="-2.72019">
        <ele>70.196427</ele>
        <time>2024-04-08T17:00:09.890Z</time>
      </trkpt>
      <trkpt lat="48.47382" lon="-2.71963">
        <ele>69.421478</ele>
        <time>2024-04-08T17:00:24.076Z</time>
      </trkpt>
      <trkpt lat="48.47374" lon="-2.71878">
        <ele>68.359686</ele>
        <time>2024-04-08T17:00:46.656Z</time>
      </trkpt>
      <trkpt lat="48.47368" lon="-2.71741">
        <ele>67.603581</ele>
        <time>2024-04-08T17:01:24.239Z</time>
      </trkpt>
      <trkpt lat="48.47366" lon="-2.71723">
        <ele>67.502934</ele>
        <time>2024-04-08T17:01:29.643Z</time>
      </trkpt>
      <trkpt lat="48.4736" lon="-2.71668">
        <ele>67.195414</ele>
        <time>2024-04-08T17:01:45.823Z</time>
      </trkpt>
      <trkpt lat="48.47361" lon="-2.71657">
        <ele>67.13015</ele>
        <time>2024-04-08T17:01:49.180Z</time>
      </trkpt>
      <trkpt lat="48.47363" lon="-2.71607">
        <ele>66.903718</ele>
        <time>2024-04-08T17:02:03.208Z</time>
      </trkpt>
      <trkpt lat="48.47382" lon="-2.71509">
        <ele>66.661567</ele>
        <time>2024-04-08T17:02:32.222Z</time>
      </trkpt>
      <trkpt lat="48.47384" lon="-2.71477">
        <ele>66.586353</ele>
        <time>2024-04-08T17:02:41.273Z</time>
      </trkpt>
      <trkpt lat="48.47378" lon="-2.7142">
        <ele>66.450128</ele>
        <time>2024-04-08T17:02:57.833Z</time>
      </trkpt>
      <trkpt lat="48.47391" lon="-2.71378">
        <ele>66.341031</ele>
        <time>2024-04-08T17:03:11.168Z</time>
      </trkpt>
      <trkpt lat="48.47399" lon="-2.71374">
        <ele>66.310592</ele>
        <time>2024-04-08T17:03:14.816Z</time>
      </trkpt>
      <trkpt lat="48.47406" lon="-2.71362">
        <ele>66.287174</ele>
        <time>2024-04-08T17:03:19.640Z</time>
      </trkpt>
      <trkpt lat="48.4741" lon="-2.71345">
        <ele>66.2718</ele>
        <time>2024-04-08T17:03:24.724Z</time>
      </trkpt>
      <trkpt lat="48.47404" lon="-2.71313">
        <ele>66.242603</ele>
        <time>2024-04-08T17:03:34.466Z</time>
      </trkpt>
      <trkpt lat="48.47407" lon="-2.71226">
        <ele>66.166655</ele>
        <time>2024-04-08T17:04:00.378Z</time>
      </trkpt>
      <trkpt lat="48.47409" lon="-2.71208">
        <ele>66.150543</ele>
        <time>2024-04-08T17:04:05.850Z</time>
      </trkpt>
      <trkpt lat="48.47416" lon="-2.71193">
        <ele>66.134488</ele>
        <time>2024-04-08T17:04:11.247Z</time>
      </trkpt>
      <trkpt lat="48.47419" lon="-2.71163">
        <ele>66.107645</ele>
        <time>2024-04-08T17:04:20.267Z</time>
      </trkpt>
      <trkpt lat="48.47448" lon="-2.71088">
        <ele>65.920848</ele>
        <time>2024-04-08T17:04:45.219Z</time>
      </trkpt>
      <trkpt lat="48.47485" lon="-2.71049">
        <ele>65.615986</ele>
        <time>2024-04-08T17:05:05.075Z</time>
      </trkpt>
      <trkpt lat="48.47522" lon="-2.70995">
        <ele>65.272611</ele>
        <time>2024-04-08T17:05:27.228Z</time>
      </trkpt>
      <trkpt lat="48.47519" lon="-2.70972">
        <ele>65.169477</ele>
        <time>2024-04-08T17:05:33.817Z</time>
      </trkpt>
      <trkpt lat="48.47505" lon="-2.70949">
        <ele>65.032005</ele>
        <time>2024-04-08T17:05:42.253Z</time>
      </trkpt>
      <trkpt lat="48.47496" lon="-2.70926">
        <ele>64.915633</ele>
        <time>2024-04-08T17:05:49.386Z</time>
      </trkpt>
      <trkpt lat="48.47497" lon="-2.70915">
        <ele>64.868116</ele>
        <time>2024-04-08T17:05:52.227Z</time>
      </trkpt>
      <trkpt lat="48.47523" lon="-2.70885">
        <ele>64.323375</ele>
        <time>2024-04-08T17:06:05.354Z</time>
      </trkpt>
      <trkpt lat="48.47522" lon="-2.7086">
        <ele>64.0393</ele>
        <time>2024-04-08T17:06:11.936Z</time>
      </trkpt>
      <trkpt lat="48.47512" lon="-2.70847">
        <ele>63.81767</ele>
        <time>2024-04-08T17:06:17.111Z</time>
      </trkpt>
      <trkpt lat="48.47485" lon="-2.70828">
        <ele>63.31139</ele>
        <time>2024-04-08T17:06:29.003Z</time>
      </trkpt>
      <trkpt lat="48.47468" lon="-2.70818">
        <ele>63.008157</ele>
        <time>2024-04-08T17:06:36.118Z</time>
      </trkpt>
      <trkpt lat="48.47434" lon="-2.70808">
        <ele>62.425359</ele>
        <time>2024-04-08T17:06:49.876Z</time>
      </trkpt>
      <trkpt lat="48.47429" lon="-2.70796">
        <ele>62.259621</ele>
        <time>2024-04-08T17:06:53.720Z</time>
      </trkpt>
      <trkpt lat="48.47413" lon="-2.70775">
        <ele>61.899423</ele>
        <time>2024-04-08T17:07:01.915Z</time>
      </trkpt>
      <trkpt lat="48.47392" lon="-2.70741">
        <ele>61.412743</ele>
        <time>2024-04-08T17:07:13.916Z</time>
      </trkpt>
      <trkpt lat="48.47384" lon="-2.70712">
        <ele>61.089191</ele>
        <time>2024-04-08T17:07:21.860Z</time>
      </trkpt>
      <trkpt lat="48.47379" lon="-2.70653">
        <ele>60.468995</ele>
        <time>2024-04-08T17:07:37.349Z</time>
      </trkpt>
      <trkpt lat="48.47383" lon="-2.70622">
        <ele>60.146382</ele>
        <time>2024-04-08T17:07:45.388Z</time>
      </trkpt>
      <trkpt lat="48.47391" lon="-2.70587">
        <ele>59.765072</ele>
        <time>2024-04-08T17:07:55.227Z</time>
      </trkpt>
      <trkpt lat="48.47399" lon="-2.70567">
        <ele>59.523563</ele>
        <time>2024-04-08T17:08:01.312Z</time>
      </trkpt>
      <trkpt lat="48.47379" lon="-2.70582">
        <ele>59.179404</ele>
        <time>2024-04-08T17:08:10.640Z</time>
      </trkpt>
      <trkpt lat="48.47339" lon="-2.70601">
        <ele>59.441084</ele>
        <time>2024-04-08T17:08:28.443Z</time>
      </trkpt>
      <trkpt lat="48.47321" lon="-2.70607">
        <ele>59.717381</ele>
        <time>2024-04-08T17:08:37.397Z</time>
      </trkpt>
      <trkpt lat="48.47277" lon="-2.70601">
        <ele>60.35328</ele>
        <time>2024-04-08T17:08:59.490Z</time>
      </trkpt>
      <trkpt lat="48.47266" lon="-2.70606">
        <ele>60.517336</ele>
        <time>2024-04-08T17:09:05.337Z</time>
      </trkpt>
      <trkpt lat="48.47221" lon="-2.70646">
        <ele>61.272896</ele>
        <time>2024-04-08T17:09:36.512Z</time>
      </trkpt>
      <trkpt lat="48.4721" lon="-2.7065">
        <ele>61.426938</ele>
        <time>2024-04-08T17:09:42.987Z</time>
      </trkpt>
      <trkpt lat="48.47197" lon="-2.70649">
        <ele>61.645467</ele>
        <time>2024-04-08T17:09:51.593Z</time>
      </trkpt>
      <trkpt lat="48.47149" lon="-2.70648">
        <ele>63.881681</ele>
        <time>2024-04-08T17:10:24.380Z</time>
      </trkpt>
      <trkpt lat="48.47029" lon="-2.70635">
        <ele>69.420766</ele>
        <time>2024-04-08T17:11:54.142Z</time>
      </trkpt>
      <trkpt lat="48.4699" lon="-2.70616">
        <ele>71.548704</ele>
        <time>2024-04-08T17:12:25.647Z</time>
      </trkpt>
      <trkpt lat="48.46883" lon="-2.70551">
        <ele>77.66189</ele>
        <time>2024-04-08T17:13:35.251Z</time>
      </trkpt>
      <trkpt lat="48.46889" lon="-2.70545">
        <ele>78.020745</ele>
        <time>2024-04-08T17:13:40.579Z</time>
      </trkpt>
      <trkpt lat="48.46905" lon="-2.70526">
        <ele>79.099493</ele>
        <time>2024-04-08T17:13:56.609Z</time>
      </trkpt>
      <trkpt lat="48.46914" lon="-2.70508">
        <ele>79.825455</ele>
        <time>2024-04-08T17:14:08.199Z</time>
      </trkpt>
      <trkpt lat="48.46981" lon="-2.70288">
        <ele>86.906651</ele>
        <time>2024-04-08T17:16:03.826Z</time>
      </trkpt>
      <trkpt lat="48.46995" lon="-2.70251">
        <ele>87.675111</ele>
        <time>2024-04-08T17:16:21.074Z</time>
      </trkpt>
      <trkpt lat="48.47001" lon="-2.7024">
        <ele>87.818471</ele>
        <time>2024-04-08T17:16:26.527Z</time>
      </trkpt>
      <trkpt lat="48.47028" lon="-2.70205">
        <ele>88.392623</ele>
        <time>2024-04-08T17:16:47.083Z</time>
      </trkpt>
      <trkpt lat="48.47061" lon="-2.70153">
        <ele>89.158678</ele>
        <time>2024-04-08T17:17:12.391Z</time>
      </trkpt>
      <trkpt lat="48.471" lon="-2.70079">
        <ele>90.164963</ele>
        <time>2024-04-08T17:17:42.988Z</time>
      </trkpt>
      <trkpt lat="48.47124" lon="-2.70005">
        <ele>90.622829</ele>
        <time>2024-04-08T17:18:07.929Z</time>
      </trkpt>
      <trkpt lat="48.47124" lon="-2.69967">
        <ele>90.8057</ele>
        <time>2024-04-08T17:18:19.433Z</time>
      </trkpt>
      <trkpt lat="48.47127" lon="-2.69955">
        <ele>90.865084</ele>
        <time>2024-04-08T17:18:23.105Z</time>
      </trkpt>
      <trkpt lat="48.47183" lon="-2.69857">
        <ele>91.483792</ele>
        <time>2024-04-08T17:19:05.881Z</time>
      </trkpt>
      <trkpt lat="48.47237" lon="-2.69783">
        <ele>92.304606</ele>
        <time>2024-04-08T17:19:44.281Z</time>
      </trkpt>
      <trkpt lat="48.47248" lon="-2.69768">
        <ele>92.489669</ele>
        <time>2024-04-08T17:19:53.408Z</time>
      </trkpt>
      <trkpt lat="48.47333" lon="-2.69654">
        <ele>93.752597</ele>
        <time>2024-04-08T17:20:51.797Z</time>
      </trkpt>
      <trkpt lat="48.47344" lon="-2.69648">
        <ele>93.714619</ele>
        <time>2024-04-08T17:20:57.169Z</time>
      </trkpt>
      <trkpt lat="48.4736" lon="-2.6963">
        <ele>93.65134</ele>
        <time>2024-04-08T17:21:07.985Z</time>
      </trkpt>
      <trkpt lat="48.47456" lon="-2.69482">
        <ele>93.212478</ele>
        <time>2024-04-08T17:22:05.970Z</time>
      </trkpt>
      <trkpt lat="48.47473" lon="-2.69461">
        <ele>92.883063</ele>
        <time>2024-04-08T17:22:15.012Z</time>
      </trkpt>
      <trkpt lat="48.47538" lon="-2.69395">
        <ele>91.588981</ele>
        <time>2024-04-08T17:22:46.036Z</time>
      </trkpt>
      <trkpt lat="48.47545" lon="-2.69381">
        <ele>91.391303</ele>
        <time>2024-04-08T17:22:50.688Z</time>
      </trkpt>
      <trkpt lat="48.47545" lon="-2.69381">
        <ele>91.388546</ele>
        <time>2024-04-08T17:22:50.747Z</time>
      </trkpt>
      <trkpt lat="48.47547" lon="-2.6937">
        <ele>91.260886</ele>
        <time>2024-04-08T17:22:53.751Z</time>
      </trkpt>
      <trkpt lat="48.47563" lon="-2.69355">
        <ele>90.949546</ele>
        <time>2024-04-08T17:22:58.096Z</time>
      </trkpt>
      <trkpt lat="48.47577" lon="-2.69326">
        <ele>90.563961</ele>
        <time>2024-04-08T17:23:03.400Z</time>
      </trkpt>
      <trkpt lat="48.47587" lon="-2.69297">
        <ele>90.194541</ele>
        <time>2024-04-08T17:23:08.423Z</time>
      </trkpt>
      <trkpt lat="48.47631" lon="-2.69147">
        <ele>88.041292</ele>
        <time>2024-04-08T17:23:33.805Z</time>
      </trkpt>
      <trkpt lat="48.47644" lon="-2.69137">
        <ele>87.743145</ele>
        <time>2024-04-08T17:23:37.309Z</time>
      </trkpt>
      <trkpt lat="48.47657" lon="-2.69117">
        <ele>87.376452</ele>
        <time>2024-04-08T17:23:41.568Z</time>
      </trkpt>
      <trkpt lat="48.47673" lon="-2.69083">
        <ele>86.823067</ele>
        <time>2024-04-08T17:23:47.924Z</time>
      </trkpt>
      <trkpt lat="48.47683" lon="-2.69082">
        <ele>86.616305</ele>
        <time>2024-04-08T17:23:51.740Z</time>
      </trkpt>
      <trkpt lat="48.47723" lon="-2.69064">
        <ele>85.373311</ele>
        <time>2024-04-08T17:24:07.703Z</time>
      </trkpt>
      <trkpt lat="48.4777" lon="-2.69041">
        <ele>83.892778</ele>
        <time>2024-04-08T17:24:25.974Z</time>
      </trkpt>
      <trkpt lat="48.47791" lon="-2.69028">
        <ele>83.211648</ele>
        <time>2024-04-08T17:24:34.428Z</time>
      </trkpt>
      <trkpt lat="48.47802" lon="-2.69021">
        <ele>82.855895</ele>
        <time>2024-04-08T17:24:38.727Z</time>
      </trkpt>
      <trkpt lat="48.47821" lon="-2.69003">
        <ele>82.176393</ele>
        <time>2024-04-08T17:24:47.039Z</time>
      </trkpt>
      <trkpt lat="48.47831" lon="-2.68985">
        <ele>81.695533</ele>
        <time>2024-04-08T17:24:52.802Z</time>
      </trkpt>
      <trkpt lat="48.47844" lon="-2.68955">
        <ele>80.962023</ele>
        <time>2024-04-08T17:25:01.411Z</time>
      </trkpt>
      <trkpt lat="48.47866" lon="-2.68929">
        <ele>80.037437</ele>
        <time>2024-04-08T17:25:07.254Z</time>
      </trkpt>
      <trkpt lat="48.47874" lon="-2.68923">
        <ele>79.756235</ele>
        <time>2024-04-08T17:25:09.088Z</time>
      </trkpt>
      <trkpt lat="48.47869" lon="-2.69106">
        <ele>75.791033</ele>
        <time>2024-04-08T17:25:34.876Z</time>
      </trkpt>
      <trkpt lat="48.47865" lon="-2.69163">
        <ele>74.653625</ele>
        <time>2024-04-08T17:25:43.566Z</time>
      </trkpt>
      <trkpt lat="48.47857" lon="-2.69215">
        <ele>73.632297</ele>
        <time>2024-04-08T17:25:52.163Z</time>
      </trkpt>
      <trkpt lat="48.47843" lon="-2.69282">
        <ele>72.29956</ele>
        <time>2024-04-08T17:26:02.654Z</time>
      </trkpt>
      <trkpt lat="48.4781" lon="-2.694">
        <ele>69.347425</ele>
        <time>2024-04-08T17:26:20.898Z</time>
      </trkpt>
      <trkpt lat="48.47815" lon="-2.69398">
        <ele>69.008237</ele>
        <time>2024-04-08T17:26:22.630Z</time>
      </trkpt>
      <trkpt lat="48.47819" lon="-2.69391">
        <ele>68.545277</ele>
        <time>2024-04-08T17:26:24.867Z</time>
      </trkpt>
      <trkpt lat="48.47826" lon="-2.69369">
        <ele>67.433803</ele>
        <time>2024-04-08T17:26:30.199Z</time>
      </trkpt>
      <trkpt lat="48.47864" lon="-2.69375">
        <ele>64.730747</ele>
        <time>2024-04-08T17:26:42.940Z</time>
      </trkpt>
      <trkpt lat="48.47873" lon="-2.69369">
        <ele>64.04465</ele>
        <time>2024-04-08T17:26:46.161Z</time>
      </trkpt>
      <trkpt lat="48.47889" lon="-2.69317">
        <ele>61.32033</ele>
        <time>2024-04-08T17:26:58.590Z</time>
      </trkpt>
      <trkpt lat="48.47904" lon="-2.69286">
        <ele>59.572815</ele>
        <time>2024-04-08T17:27:06.384Z</time>
      </trkpt>
      <trkpt lat="48.47918" lon="-2.69273">
        <ele>58.396901</ele>
        <time>2024-04-08T17:27:11.576Z</time>
      </trkpt>
      <trkpt lat="48.47982" lon="-2.69262">
        <ele>52.989278</ele>
        <time>2024-04-08T17:27:31.583Z</time>
      </trkpt>
      <trkpt lat="48.47995" lon="-2.69247">
        <ele>51.573458</ele>
        <time>2024-04-08T17:27:36.612Z</time>
      </trkpt>
      <trkpt lat="48.47999" lon="-2.69227">
        <ele>50.412246</ele>
        <time>2024-04-08T17:27:40.763Z</time>
      </trkpt>
      <trkpt lat="48.47991" lon="-2.69208">
        <ele>49.121356</ele>
        <time>2024-04-08T17:27:45.350Z</time>
      </trkpt>
      <trkpt lat="48.47982" lon="-2.69198">
        <ele>48.13768</ele>
        <time>2024-04-08T17:27:48.887Z</time>
      </trkpt>
      <trkpt lat="48.47981" lon="-2.69181">
        <ele>47.136912</ele>
        <time>2024-04-08T17:27:52.505Z</time>
      </trkpt>
      <trkpt lat="48.48012" lon="-2.69173">
        <ele>44.405833</ele>
        <time>2024-04-08T17:28:02.488Z</time>
      </trkpt>
      <trkpt lat="48.48026" lon="-2.69176">
        <ele>43.104998</ele>
        <time>2024-04-08T17:28:07.300Z</time>
      </trkpt>
      <trkpt lat="48.48046" lon="-2.6924">
        <ele>40.742186</ele>
        <time>2024-04-08T17:28:23.018Z</time>
      </trkpt>
      <trkpt lat="48.48045" lon="-2.69286">
        <ele>39.6335</ele>
        <time>2024-04-08T17:28:34.174Z</time>
      </trkpt>
      <trkpt lat="48.48039" lon="-2.69319">
        <ele>38.826118</ele>
        <time>2024-04-08T17:28:42.594Z</time>
      </trkpt>
      <trkpt lat="48.48065" lon="-2.69356">
        <ele>37.536018</ele>
        <time>2024-04-08T17:28:55.938Z</time>
      </trkpt>
      <trkpt lat="48.48057" lon="-2.6938">
        <ele>36.907693</ele>
        <time>2024-04-08T17:29:02.390Z</time>
      </trkpt>
      <trkpt lat="48.48065" lon="-2.69414">
        <ele>36.045712</ele>
        <time>2024-04-08T17:29:11.965Z</time>
      </trkpt>
      <trkpt lat="48.48112" lon="-2.69356">
        <ele>35.083099</ele>
        <time>2024-04-08T17:29:25.884Z</time>
      </trkpt>
      <trkpt lat="48.48118" lon="-2.69341">
        <ele>34.990492</ele>
        <time>2024-04-08T17:29:28.810Z</time>
      </trkpt>
      <trkpt lat="48.48131" lon="-2.69273">
        <ele>34.591257</ele>
        <time>2024-04-08T17:29:40.644Z</time>
      </trkpt>
      <trkpt lat="48.48139" lon="-2.69203">
        <ele>34.197244</ele>
        <time>2024-04-08T17:29:52.697Z</time>
      </trkpt>
      <trkpt lat="48.48153" lon="-2.69139">
        <ele>33.990263</ele>
        <time>2024-04-08T17:30:03.477Z</time>
      </trkpt>
      <trkpt lat="48.48152" lon="-2.6908">
        <ele>34.106716</ele>
        <time>2024-04-08T17:30:13.197Z</time>
      </trkpt>
      <trkpt lat="48.48155" lon="-2.69028">
        <ele>34.209834</ele>
        <time>2024-04-08T17:30:22.632Z</time>
      </trkpt>
      <trkpt lat="48.48158" lon="-2.69007">
        <ele>34.251347</ele>
        <time>2024-04-08T17:30:26.692Z</time>
      </trkpt>
      <trkpt lat="48.48166" lon="-2.68974">
        <ele>34.322471</ele>
        <time>2024-04-08T17:30:33.528Z</time>
      </trkpt>
      <trkpt lat="48.48177" lon="-2.6894">
        <ele>34.397129</ele>
        <time>2024-04-08T17:30:40.798Z</time>
      </trkpt>
      <trkpt lat="48.48185" lon="-2.68924">
        <ele>34.436222</ele>
        <time>2024-04-08T17:30:44.196Z</time>
      </trkpt>
      <trkpt lat="48.482" lon="-2.68913">
        <ele>34.498256</ele>
        <time>2024-04-08T17:30:50.236Z</time>
      </trkpt>
      <trkpt lat="48.48215" lon="-2.68914">
        <ele>34.808609</ele>
        <time>2024-04-08T17:30:56.882Z</time>
      </trkpt>
      <trkpt lat="48.48223" lon="-2.68918">
        <ele>34.990428</ele>
        <time>2024-04-08T17:30:59.843Z</time>
      </trkpt>
      <trkpt lat="48.48228" lon="-2.68923">
        <ele>35.10781</ele>
        <time>2024-04-08T17:31:01.801Z</time>
      </trkpt>
      <trkpt lat="48.48234" lon="-2.68937">
        <ele>35.342789</ele>
        <time>2024-04-08T17:31:07.456Z</time>
      </trkpt>
      <trkpt lat="48.48237" lon="-2.68952">
        <ele>35.552973</ele>
        <time>2024-04-08T17:31:12.096Z</time>
      </trkpt>
      <trkpt lat="48.48237" lon="-2.68968">
        <ele>35.768192</ele>
        <time>2024-04-08T17:31:15.604Z</time>
      </trkpt>
      <trkpt lat="48.48234" lon="-2.68983">
        <ele>35.980423</ele>
        <time>2024-04-08T17:31:20.141Z</time>
      </trkpt>
      <trkpt lat="48.48229" lon="-2.68995">
        <ele>36.170137</ele>
        <time>2024-04-08T17:31:24.586Z</time>
      </trkpt>
      <trkpt lat="48.48202" lon="-2.69035">
        <ele>36.95732</ele>
        <time>2024-04-08T17:31:41.612Z</time>
      </trkpt>
      <trkpt lat="48.482" lon="-2.69046">
        <ele>37.106345</ele>
        <time>2024-04-08T17:31:44.545Z</time>
      </trkpt>
      <trkpt lat="48.48205" lon="-2.6906">
        <ele>37.323421</ele>
        <time>2024-04-08T17:31:48.426Z</time>
      </trkpt>
      <trkpt lat="48.48221" lon="-2.69032">
        <ele>37.807937</ele>
        <time>2024-04-08T17:31:58.647Z</time>
      </trkpt>
      <trkpt lat="48.48292" lon="-2.68943">
        <ele>37.467015</ele>
        <time>2024-04-08T17:32:27.221Z</time>
      </trkpt>
      <trkpt lat="48.48292" lon="-2.68928">
        <ele>37.370225</ele>
        <time>2024-04-08T17:32:30.040Z</time>
      </trkpt>
      <trkpt lat="48.48297" lon="-2.68921">
        <ele>37.304876</ele>
        <time>2024-04-08T17:32:31.736Z</time>
      </trkpt>
      <trkpt lat="48.48306" lon="-2.68921">
        <ele>37.220522</ele>
        <time>2024-04-08T17:32:33.775Z</time>
      </trkpt>
      <trkpt lat="48.48311" lon="-2.68927">
        <ele>37.162887</ele>
        <time>2024-04-08T17:32:35.555Z</time>
      </trkpt>
      <trkpt lat="48.48357" lon="-2.6887">
        <ele>36.600954</ele>
        <time>2024-04-08T17:32:48.552Z</time>
      </trkpt>
      <trkpt lat="48.48373" lon="-2.68845">
        <ele>35.959775</ele>
        <time>2024-04-08T17:32:53.079Z</time>
      </trkpt>
      <trkpt lat="48.48383" lon="-2.68828">
        <ele>35.099527</ele>
        <time>2024-04-08T17:32:56.052Z</time>
      </trkpt>
      <trkpt lat="48.48402" lon="-2.68791">
        <ele>33.369732</ele>
        <time>2024-04-08T17:33:01.900Z</time>
      </trkpt>
      <trkpt lat="48.48412" lon="-2.68764">
        <ele>32.245952</ele>
        <time>2024-04-08T17:33:05.648Z</time>
      </trkpt>
      <trkpt lat="48.48457" lon="-2.68597">
        <ele>25.778603</ele>
        <time>2024-04-08T17:33:27.502Z</time>
      </trkpt>
      <trkpt lat="48.48466" lon="-2.68568">
        <ele>24.761003</ele>
        <time>2024-04-08T17:33:31.448Z</time>
      </trkpt>
      <trkpt lat="48.48498" lon="-2.68501">
        <ele>22.205805</ele>
        <time>2024-04-08T17:33:41.571Z</time>
      </trkpt>
      <trkpt lat="48.48561" lon="-2.6839">
        <ele>17.9958</ele>
        <time>2024-04-08T17:34:01.018Z</time>
      </trkpt>
      <trkpt lat="48.48567" lon="-2.68381">
        <ele>17.950561</ele>
        <time>2024-04-08T17:34:02.655Z</time>
      </trkpt>
      <trkpt lat="48.48564" lon="-2.68368">
        <ele>17.89967</ele>
        <time>2024-04-08T17:34:04.614Z</time>
      </trkpt>
      <trkpt lat="48.4857" lon="-2.68358">
        <ele>17.848699</ele>
        <time>2024-04-08T17:34:06.523Z</time>
      </trkpt>
      <trkpt lat="48.48578" lon="-2.6836">
        <ele>17.802803</ele>
        <time>2024-04-08T17:34:08.263Z</time>
      </trkpt>
      <trkpt lat="48.48582" lon="-2.68366">
        <ele>17.772059</ele>
        <time>2024-04-08T17:34:09.444Z</time>
      </trkpt>
      <trkpt lat="48.48605" lon="-2.6835">
        <ele>17.624215</ele>
        <time>2024-04-08T17:34:15.702Z</time>
      </trkpt>
      <trkpt lat="48.48624" lon="-2.68369">
        <ele>17.490418</ele>
        <time>2024-04-08T17:34:21.830Z</time>
      </trkpt>
      <trkpt lat="48.48675" lon="-2.68448">
        <ele>17.072888</ele>
        <time>2024-04-08T17:34:44.773Z</time>
      </trkpt>
      <trkpt lat="48.48681" lon="-2.68465">
        <ele>17.036065</ele>
        <time>2024-04-08T17:34:49.354Z</time>
      </trkpt>
      <trkpt lat="48.48692" lon="-2.68488">
        <ele>17.282264</ele>
        <time>2024-04-08T17:34:57.275Z</time>
      </trkpt>
      <trkpt lat="48.48706" lon="-2.68505">
        <ele>17.514368</ele>
        <time>2024-04-08T17:35:04.263Z</time>
      </trkpt>
      <trkpt lat="48.48745" lon="-2.68528">
        <ele>18.054718</ele>
        <time>2024-04-08T17:35:20.920Z</time>
      </trkpt>
      <trkpt lat="48.48847" lon="-2.68587">
        <ele>19.341464</ele>
        <time>2024-04-08T17:35:59.115Z</time>
      </trkpt>
      <trkpt lat="48.48911" lon="-2.68639">
        <ele>19.505327</ele>
        <time>2024-04-08T17:36:18.762Z</time>
      </trkpt>
      <trkpt lat="48.48997" lon="-2.6869">
        <ele>19.711823</ele>
        <time>2024-04-08T17:36:44.081Z</time>
      </trkpt>
      <trkpt lat="48.49035" lon="-2.68716">
        <ele>20.643381</ele>
        <time>2024-04-08T17:36:58.428Z</time>
      </trkpt>
      <trkpt lat="48.49059" lon="-2.68723">
        <ele>21.222897</ele>
        <time>2024-04-08T17:37:07.510Z</time>
      </trkpt>
      <trkpt lat="48.49054" lon="-2.68786">
        <ele>22.247403</ele>
        <time>2024-04-08T17:37:31.637Z</time>
      </trkpt>
      <trkpt lat="48.49031" lon="-2.68934">
        <ele>25.100017</ele>
        <time>2024-04-08T17:38:39.041Z</time>
      </trkpt>
      <trkpt lat="48.49023" lon="-2.68977">
        <ele>26.333223</ele>
        <time>2024-04-08T17:39:00.986Z</time>
      </trkpt>
      <trkpt lat="48.49015" lon="-2.68995">
        <ele>26.930459</ele>
        <time>2024-04-08T17:39:10.977Z</time>
      </trkpt>
      <trkpt lat="48.49002" lon="-2.69007">
        <ele>27.562533</ele>
        <time>2024-04-08T17:39:22.327Z</time>
      </trkpt>
      <trkpt lat="48.48999" lon="-2.6902">
        <ele>27.925886</ele>
        <time>2024-04-08T17:39:28.481Z</time>
      </trkpt>
      <trkpt lat="48.48998" lon="-2.69122">
        <ele>30.7052</ele>
        <time>2024-04-08T17:40:15.159Z</time>
      </trkpt>
      <trkpt lat="48.49017" lon="-2.69242">
        <ele>33.745913</ele>
        <time>2024-04-08T17:41:10.185Z</time>
      </trkpt>
      <trkpt lat="48.49024" lon="-2.69278">
        <ele>34.639037</ele>
        <time>2024-04-08T17:41:26.705Z</time>
      </trkpt>
      <trkpt lat="48.49095" lon="-2.69468">
        <ele>39.348717</ele>
        <time>2024-04-08T17:43:01.178Z</time>
      </trkpt>
      <trkpt lat="48.49108" lon="-2.69501">
        <ele>40.011044</ele>
        <time>2024-04-08T17:43:12.043Z</time>
      </trkpt>
      <trkpt lat="48.49117" lon="-2.69543">
        <ele>40.783719</ele>
        <time>2024-04-08T17:43:24.306Z</time>
      </trkpt>
      <trkpt lat="48.49123" lon="-2.69604">
        <ele>41.861505</ele>
        <time>2024-04-08T17:43:41.432Z</time>
      </trkpt>
      <trkpt lat="48.49135" lon="-2.69659">
        <ele>42.772726</ele>
        <time>2024-04-08T17:43:55.742Z</time>
      </trkpt>
      <trkpt lat="48.49166" lon="-2.69688">
        <ele>43.164036</ele>
        <time>2024-04-08T17:44:08.527Z</time>
      </trkpt>
      <trkpt lat="48.49182" lon="-2.69694">
        <ele>43.335498</ele>
        <time>2024-04-08T17:44:14.170Z</time>
      </trkpt>
      <trkpt lat="48.49204" lon="-2.69715">
        <ele>43.617151</ele>
        <time>2024-04-08T17:44:21.964Z</time>
      </trkpt>
      <trkpt lat="48.49235" lon="-2.69763">
        <ele>44.097122</ele>
        <time>2024-04-08T17:44:35.469Z</time>
      </trkpt>
      <trkpt lat="48.49243" lon="-2.69754">
        <ele>44.204819</ele>
        <time>2024-04-08T17:44:37.936Z</time>
      </trkpt>
      <trkpt lat="48.49264" lon="-2.69778">
        <ele>44.490262</ele>
        <time>2024-04-08T17:44:47.216Z</time>
      </trkpt>
      <trkpt lat="48.49281" lon="-2.69776">
        <ele>44.724902</ele>
        <time>2024-04-08T17:44:52.233Z</time>
      </trkpt>
      <trkpt lat="48.49314" lon="-2.69795">
        <ele>45.589338</ele>
        <time>2024-04-08T17:45:04.843Z</time>
      </trkpt>
      <trkpt lat="48.49359" lon="-2.69839">
        <ele>46.913094</ele>
        <time>2024-04-08T17:45:26.634Z</time>
      </trkpt>
      <trkpt lat="48.49368" lon="-2.6991">
        <ele>48.097817</ele>
        <time>2024-04-08T17:45:55.672Z</time>
      </trkpt>
      <trkpt lat="48.49391" lon="-2.69967">
        <ele>49.257606</ele>
        <time>2024-04-08T17:46:24.774Z</time>
      </trkpt>
      <trkpt lat="48.49399" lon="-2.70003">
        <ele>50.268111</ele>
        <time>2024-04-08T17:46:41.970Z</time>
      </trkpt>
      <trkpt lat="48.49442" lon="-2.70103">
        <ele>53.416196</ele>
        <time>2024-04-08T17:47:37.698Z</time>
      </trkpt>
      <trkpt lat="48.49457" lon="-2.70127">
        <ele>54.302739</ele>
        <time>2024-04-08T17:47:53.423Z</time>
      </trkpt>
      <trkpt lat="48.49513" lon="-2.70197">
        <ele>57.012579</ele>
        <time>2024-04-08T17:48:42.798Z</time>
      </trkpt>
      <trkpt lat="48.49587" lon="-2.70219">
        <ele>59.412586</ele>
        <time>2024-04-08T17:49:30.113Z</time>
      </trkpt>
      <trkpt lat="48.49627" lon="-2.70222">
        <ele>60.691033</ele>
        <time>2024-04-08T17:49:54.637Z</time>
      </trkpt>
      <trkpt lat="48.49631" lon="-2.70223">
        <ele>60.815483</ele>
        <time>2024-04-08T17:49:57.077Z</time>
      </trkpt>
      <trkpt lat="48.49629" lon="-2.70305">
        <ele>62.597549</ele>
        <time>2024-04-08T17:50:22.176Z</time>
      </trkpt>
      <trkpt lat="48.49621" lon="-2.70432">
        <ele>65.508067</ele>
        <time>2024-04-08T17:51:02.347Z</time>
      </trkpt>
      <trkpt lat="48.49626" lon="-2.70522">
        <ele>67.55391</ele>
        <time>2024-04-08T17:51:32.085Z</time>
      </trkpt>
      <trkpt lat="48.49622" lon="-2.70588">
        <ele>69.100411</ele>
        <time>2024-04-08T17:51:54.934Z</time>
      </trkpt>
      <trkpt lat="48.49617" lon="-2.70604">
        <ele>69.521589</ele>
        <time>2024-04-08T17:52:00.939Z</time>
      </trkpt>
      <trkpt lat="48.49585" lon="-2.7068">
        <ele>71.654067</ele>
        <time>2024-04-08T17:52:31.203Z</time>
      </trkpt>
      <trkpt lat="48.49588" lon="-2.70703">
        <ele>72.198966</ele>
        <time>2024-04-08T17:52:38.843Z</time>
      </trkpt>
      <trkpt lat="48.49634" lon="-2.70759">
        <ele>74.308164</ele>
        <time>2024-04-08T17:53:07.319Z</time>
      </trkpt>
      <trkpt lat="48.49654" lon="-2.70783">
        <ele>74.971528</ele>
        <time>2024-04-08T17:53:19.371Z</time>
      </trkpt>
      <trkpt lat="48.49666" lon="-2.70796">
        <ele>75.267454</ele>
        <time>2024-04-08T17:53:25.564Z</time>
      </trkpt>
      <trkpt lat="48.49694" lon="-2.70824">
        <ele>75.976175</ele>
        <time>2024-04-08T17:53:39.895Z</time>
      </trkpt>
      <trkpt lat="48.49733" lon="-2.70859">
        <ele>76.933631</ele>
        <time>2024-04-08T17:53:57.982Z</time>
      </trkpt>
      <trkpt lat="48.49734" lon="-2.70854">
        <ele>76.998344</ele>
        <time>2024-04-08T17:53:59.123Z</time>
      </trkpt>
      <trkpt lat="48.49781" lon="-2.70868">
        <ele>78.00459</ele>
        <time>2024-04-08T17:54:16.521Z</time>
      </trkpt>
      <trkpt lat="48.49846" lon="-2.70911">
        <ele>79.012559</ele>
        <time>2024-04-08T17:54:40.620Z</time>
      </trkpt>
      <trkpt lat="48.49818" lon="-2.71002">
        <ele>79.820795</ele>
        <time>2024-04-08T17:55:14.027Z</time>
      </trkpt>
      <trkpt lat="48.49808" lon="-2.7103">
        <ele>80.076616</ele>
        <time>2024-04-08T17:55:24.418Z</time>
      </trkpt>
      <trkpt lat="48.49795" lon="-2.71073">
        <ele>80.459429</ele>
        <time>2024-04-08T17:55:40.704Z</time>
      </trkpt>
      <trkpt lat="48.49785" lon="-2.71101">
        <ele>80.841512</ele>
        <time>2024-04-08T17:55:52.008Z</time>
      </trkpt>
      <trkpt lat="48.49776" lon="-2.71129">
        <ele>81.281429</ele>
        <time>2024-04-08T17:56:03.293Z</time>
      </trkpt>
      <trkpt lat="48.4977" lon="-2.71149">
        <ele>81.598713</ele>
        <time>2024-04-08T17:56:11.916Z</time>
      </trkpt>
      <trkpt lat="48.49757" lon="-2.71191">
        <ele>82.24535</ele>
        <time>2024-04-08T17:56:28.846Z</time>
      </trkpt>
      <trkpt lat="48.49738" lon="-2.71252">
        <ele>83.204147</ele>
        <time>2024-04-08T17:56:54.135Z</time>
      </trkpt>
      <trkpt lat="48.49719" lon="-2.71313">
        <ele>84.160237</ele>
        <time>2024-04-08T17:57:20.779Z</time>
      </trkpt>
      <trkpt lat="48.49705" lon="-2.71357">
        <ele>85.047447</ele>
        <time>2024-04-08T17:57:41.184Z</time>
      </trkpt>
      <trkpt lat="48.49687" lon="-2.71415">
        <ele>86.350783</ele>
        <time>2024-04-08T17:58:08.441Z</time>
      </trkpt>
      <trkpt lat="48.49678" lon="-2.71441">
        <ele>86.947248</ele>
        <time>2024-04-08T17:58:21.234Z</time>
      </trkpt>
      <trkpt lat="48.49659" lon="-2.71503">
        <ele>88.335759</ele>
        <time>2024-04-08T17:58:49.655Z</time>
      </trkpt>
      <trkpt lat="48.49653" lon="-2.71524">
        <ele>88.797031</ele>
        <time>2024-04-08T17:58:59.134Z</time>
      </trkpt>
      <trkpt lat="48.49645" lon="-2.71549">
        <ele>89.365251</ele>
        <time>2024-04-08T17:59:10.956Z</time>
      </trkpt>
      <trkpt lat="48.49626" lon="-2.71538">
        <ele>89.964061</ele>
        <time>2024-04-08T17:59:23.554Z</time>
      </trkpt>
      <trkpt lat="48.49592" lon="-2.71525">
        <ele>90.774857</ele>
        <time>2024-04-08T17:59:45.185Z</time>
      </trkpt>
      <trkpt lat="48.49572" lon="-2.7152">
        <ele>91.254987</ele>
        <time>2024-04-08T17:59:55.846Z</time>
      </trkpt>
      <trkpt lat="48.49574" lon="-2.7157">
        <ele>92.041211</ele>
        <time>2024-04-08T18:00:10.639Z</time>
      </trkpt>
      <trkpt lat="48.4957" lon="-2.71573">
        <ele>92.137456</ele>
        <time>2024-04-08T18:00:12.273Z</time>
      </trkpt>
      <trkpt lat="48.49562" lon="-2.71577">
        <ele>92.326553</ele>
        <time>2024-04-08T18:00:16.234Z</time>
      </trkpt>
      <trkpt lat="48.49557" lon="-2.71576">
        <ele>92.44607</ele>
        <time>2024-04-08T18:00:18.240Z</time>
      </trkpt>
      <trkpt lat="48.49554" lon="-2.71576">
        <ele>92.513984</ele>
        <time>2024-04-08T18:00:19.448Z</time>
      </trkpt>
      <trkpt lat="48.49498" lon="-2.716">
        <ele>93.880425</ele>
        <time>2024-04-08T18:00:42.286Z</time>
      </trkpt>
      <trkpt lat="48.49496" lon="-2.71593">
        <ele>93.992952</ele>
        <time>2024-04-08T18:00:44.505Z</time>
      </trkpt>
      <trkpt lat="48.49473" lon="-2.71592">
        <ele>94.29241</ele>
        <time>2024-04-08T18:00:51.516Z</time>
      </trkpt>
      <trkpt lat="48.49449" lon="-2.71582">
        <ele>94.550252</ele>
        <time>2024-04-08T18:00:59.762Z</time>
      </trkpt>
      <trkpt lat="48.49444" lon="-2.71568">
        <ele>94.664037</ele>
        <time>2024-04-08T18:01:02.779Z</time>
      </trkpt>
      <trkpt lat="48.4943" lon="-2.71524">
        <ele>95.000668</ele>
        <time>2024-04-08T18:01:14.763Z</time>
      </trkpt>
      <trkpt lat="48.49428" lon="-2.71518">
        <ele>95.047589</ele>
        <time>2024-04-08T18:01:16.182Z</time>
      </trkpt>
      <trkpt lat="48.49411" lon="-2.71561">
        <ele>95.396948</ele>
        <time>2024-04-08T18:01:27.346Z</time>
      </trkpt>
      <trkpt lat="48.49405" lon="-2.71575">
        <ele>95.51023</ele>
        <time>2024-04-08T18:01:30.874Z</time>
      </trkpt>
      <trkpt lat="48.49398" lon="-2.71594">
        <ele>95.657037</ele>
        <time>2024-04-08T18:01:35.745Z</time>
      </trkpt>
      <trkpt lat="48.49385" lon="-2.71636">
        <ele>95.978658</ele>
        <time>2024-04-08T18:01:45.478Z</time>
      </trkpt>
      <trkpt lat="48.49382" lon="-2.71658">
        <ele>96.161673</ele>
        <time>2024-04-08T18:01:50.140Z</time>
      </trkpt>
      <trkpt lat="48.49383" lon="-2.71664">
        <ele>96.2087</ele>
        <time>2024-04-08T18:01:51.278Z</time>
      </trkpt>
      <trkpt lat="48.49381" lon="-2.71671">
        <ele>96.27771</ele>
        <time>2024-04-08T18:01:52.974Z</time>
      </trkpt>
      <trkpt lat="48.49373" lon="-2.71672">
        <ele>96.368867</ele>
        <time>2024-04-08T18:01:55.896Z</time>
      </trkpt>
      <trkpt lat="48.49371" lon="-2.71667">
        <ele>96.417202</ele>
        <time>2024-04-08T18:01:57.239Z</time>
      </trkpt>
      <trkpt lat="48.49362" lon="-2.71658">
        <ele>96.553089</ele>
        <time>2024-04-08T18:02:00.920Z</time>
      </trkpt>
      <trkpt lat="48.49352" lon="-2.71652">
        <ele>96.681917</ele>
        <time>2024-04-08T18:02:04.158Z</time>
      </trkpt>
      <trkpt lat="48.49323" lon="-2.71637">
        <ele>97.047159</ele>
        <time>2024-04-08T18:02:14.547Z</time>
      </trkpt>
      <trkpt lat="48.49289" lon="-2.7162">
        <ele>97.486653</ele>
        <time>2024-04-08T18:02:27.845Z</time>
      </trkpt>
      <trkpt lat="48.49263" lon="-2.71611">
        <ele>97.809638</ele>
        <time>2024-04-08T18:02:37.869Z</time>
      </trkpt>
      <trkpt lat="48.49255" lon="-2.71597">
        <ele>97.958514</ele>
        <time>2024-04-08T18:02:42.359Z</time>
      </trkpt>
      <trkpt lat="48.4925" lon="-2.71602">
        <ele>98.034676</ele>
        <time>2024-04-08T18:02:44.585Z</time>
      </trkpt>
      <trkpt lat="48.49234" lon="-2.71601">
        <ele>98.221473</ele>
        <time>2024-04-08T18:02:50.877Z</time>
      </trkpt>
      <trkpt lat="48.49202" lon="-2.71586">
        <ele>98.589233</ele>
        <time>2024-04-08T18:03:02.845Z</time>
      </trkpt>
      <trkpt lat="48.49154" lon="-2.71565">
        <ele>99.136159</ele>
        <time>2024-04-08T18:03:20.417Z</time>
      </trkpt>
      <trkpt lat="48.49131" lon="-2.71555">
        <ele>99.399369</ele>
        <time>2024-04-08T18:03:28.535Z</time>
      </trkpt>
      <trkpt lat="48.49126" lon="-2.71556">
        <ele>99.449512</ele>
        <time>2024-04-08T18:03:30.043Z</time>
      </trkpt>
      <trkpt lat="48.49112" lon="-2.71555">
        <ele>99.609496</ele>
        <time>2024-04-08T18:03:34.722Z</time>
      </trkpt>
      <trkpt lat="48.49066" lon="-2.71518">
        <ele>100.105257</ele>
        <time>2024-04-08T18:03:59.455Z</time>
      </trkpt>
      <trkpt lat="48.49023" lon="-2.71476">
        <ele>99.957686</ele>
        <time>2024-04-08T18:04:22.373Z</time>
      </trkpt>
      <trkpt lat="48.48976" lon="-2.7142">
        <ele>99.784786</ele>
        <time>2024-04-08T18:04:48.154Z</time>
      </trkpt>
      <trkpt lat="48.48973" lon="-2.71416">
        <ele>99.773981</ele>
        <time>2024-04-08T18:04:49.772Z</time>
      </trkpt>
      <trkpt lat="48.48967" lon="-2.71408">
        <ele>99.749958</ele>
        <time>2024-04-08T18:04:53.333Z</time>
      </trkpt>
      <trkpt lat="48.48971" lon="-2.71374">
        <ele>99.683681</ele>
        <time>2024-04-08T18:04:59.011Z</time>
      </trkpt>
      <trkpt lat="48.4895" lon="-2.7136">
        <ele>99.618464</ele>
        <time>2024-04-08T18:05:04.830Z</time>
      </trkpt>
      <trkpt lat="48.48893" lon="-2.71386">
        <ele>99.10057</ele>
        <time>2024-04-08T18:05:29.849Z</time>
      </trkpt>
      <trkpt lat="48.48859" lon="-2.71386">
        <ele>98.780298</ele>
        <time>2024-04-08T18:05:43.920Z</time>
      </trkpt>
      <trkpt lat="48.48845" lon="-2.71382">
        <ele>98.643243</ele>
        <time>2024-04-08T18:05:49.831Z</time>
      </trkpt>
      <trkpt lat="48.488" lon="-2.71357">
        <ele>98.195865</ele>
        <time>2024-04-08T18:06:09.462Z</time>
      </trkpt>
      <trkpt lat="48.48745" lon="-2.71334">
        <ele>97.685503</ele>
        <time>2024-04-08T18:06:33.498Z</time>
      </trkpt>
      <trkpt lat="48.48697" lon="-2.71308">
        <ele>97.25385</ele>
        <time>2024-04-08T18:06:54.493Z</time>
      </trkpt>
      <trkpt lat="48.48692" lon="-2.71305">
        <ele>97.210307</ele>
        <time>2024-04-08T18:06:56.548Z</time>
      </trkpt>
      <trkpt lat="48.4869" lon="-2.71314">
        <ele>97.153786</ele>
        <time>2024-04-08T18:06:58.583Z</time>
      </trkpt>
      <trkpt lat="48.48655" lon="-2.71414">
        <ele>96.519337</ele>
        <time>2024-04-08T18:07:16.590Z</time>
      </trkpt>
      <trkpt lat="48.48649" lon="-2.71446">
        <ele>96.372502</ele>
        <time>2024-04-08T18:07:21.827Z</time>
      </trkpt>
      <trkpt lat="48.48646" lon="-2.71529">
        <ele>96.249816</ele>
        <time>2024-04-08T18:07:35.510Z</time>
      </trkpt>
      <trkpt lat="48.48635" lon="-2.71535">
        <ele>96.224882</ele>
        <time>2024-04-08T18:07:38.401Z</time>
      </trkpt>
      <trkpt lat="48.48626" lon="-2.71541">
        <ele>96.202349</ele>
        <time>2024-04-08T18:07:40.858Z</time>
      </trkpt>
      <trkpt lat="48.48587" lon="-2.71567">
        <ele>96.106996</ele>
        <time>2024-04-08T18:07:51.645Z</time>
      </trkpt>
      <trkpt lat="48.48576" lon="-2.71575">
        <ele>96.079503</ele>
        <time>2024-04-08T18:07:55.171Z</time>
      </trkpt>
      <trkpt lat="48.48577" lon="-2.71583">
        <ele>96.067862</ele>
        <time>2024-04-08T18:07:56.659Z</time>
      </trkpt>
      <trkpt lat="48.48573" lon="-2.71589">
        <ele>96.056383</ele>
        <time>2024-04-08T18:07:58.034Z</time>
      </trkpt>
      <trkpt lat="48.48568" lon="-2.71587">
        <ele>96.044922</ele>
        <time>2024-04-08T18:07:59.324Z</time>
      </trkpt>
      <trkpt lat="48.48566" lon="-2.71582">
        <ele>96.037138</ele>
        <time>2024-04-08T18:08:00.155Z</time>
      </trkpt>
      <trkpt lat="48.48547" lon="-2.7159">
        <ele>95.992763</ele>
        <time>2024-04-08T18:08:06.415Z</time>
      </trkpt>
      <trkpt lat="48.48537" lon="-2.71593">
        <ele>96.118883</ele>
        <time>2024-04-08T18:08:09.465Z</time>
      </trkpt>
      <trkpt lat="48.48503" lon="-2.71607">
        <ele>96.704336</ele>
        <time>2024-04-08T18:08:21.328Z</time>
      </trkpt>
      <trkpt lat="48.48476" lon="-2.71625">
        <ele>97.196156</ele>
        <time>2024-04-08T18:08:31.853Z</time>
      </trkpt>
      <trkpt lat="48.4847" lon="-2.71629">
        <ele>97.298953</ele>
        <time>2024-04-08T18:08:34.080Z</time>
      </trkpt>
      <trkpt lat="48.48455" lon="-2.71635">
        <ele>97.561688</ele>
        <time>2024-04-08T18:08:39.701Z</time>
      </trkpt>
      <trkpt lat="48.48407" lon="-2.71755">
        <ele>99.075688</ele>
        <time>2024-04-08T18:09:17.873Z</time>
      </trkpt>
      <trkpt lat="48.48413" lon="-2.71758">
        <ele>99.162771</ele>
        <time>2024-04-08T18:09:21.297Z</time>
      </trkpt>
      <trkpt lat="48.48422" lon="-2.71764">
        <ele>99.293266</ele>
        <time>2024-04-08T18:09:26.478Z</time>
      </trkpt>
      <trkpt lat="48.48426" lon="-2.71824">
        <ele>99.844416</ele>
        <time>2024-04-08T18:09:49.870Z</time>
      </trkpt>
      <trkpt lat="48.48434" lon="-2.71835">
        <ele>99.986476</ele>
        <time>2024-04-08T18:09:56.321Z</time>
      </trkpt>
      <trkpt lat="48.48437" lon="-2.7184">
        <ele>100.056207</ele>
        <time>2024-04-08T18:09:59.205Z</time>
      </trkpt>
      <trkpt lat="48.48597" lon="-2.71934">
        <ele>101.672506</ele>
        <time>2024-04-08T18:11:21.783Z</time>
      </trkpt>
      <trkpt lat="48.48627" lon="-2.72019">
        <ele>101.884181</ele>
        <time>2024-04-08T18:11:49.988Z</time>
      </trkpt>
      <trkpt lat="48.48657" lon="-2.72074">
        <ele>102.045679</ele>
        <time>2024-04-08T18:12:11.607Z</time>
      </trkpt>
      <trkpt lat="48.48668" lon="-2.72103">
        <ele>102.172167</ele>
        <time>2024-04-08T18:12:22.194Z</time>
      </trkpt>
      <trkpt lat="48.48717" lon="-2.72192">
        <ele>102.609963</ele>
        <time>2024-04-08T18:12:59.474Z</time>
      </trkpt>
      <trkpt lat="48.48749" lon="-2.7224">
        <ele>102.870374</ele>
        <time>2024-04-08T18:13:21.637Z</time>
      </trkpt>
      <trkpt lat="48.48765" lon="-2.72268">
        <ele>103.008695</ele>
        <time>2024-04-08T18:13:33.552Z</time>
      </trkpt>
      <trkpt lat="48.48768" lon="-2.72284">
        <ele>103.060044</ele>
        <time>2024-04-08T18:13:38.699Z</time>
      </trkpt>
      <trkpt lat="48.48775" lon="-2.72351">
        <ele>103.051154</ele>
        <time>2024-04-08T18:14:00.120Z</time>
      </trkpt>
      <trkpt lat="48.48778" lon="-2.72359">
        <ele>103.050025</ele>
        <time>2024-04-08T18:14:02.783Z</time>
      </trkpt>
      <trkpt lat="48.48784" lon="-2.72362">
        <ele>103.048787</ele>
        <time>2024-04-08T18:14:05.629Z</time>
      </trkpt>
      <trkpt lat="48.48804" lon="-2.72388">
        <ele>103.043522</ele>
        <time>2024-04-08T18:14:17.879Z</time>
      </trkpt>
      <trkpt lat="48.48825" lon="-2.72402">
        <ele>103.039087</ele>
        <time>2024-04-08T18:14:27.892Z</time>
      </trkpt>
      <trkpt lat="48.48832" lon="-2.72415">
        <ele>103.036972</ele>
        <time>2024-04-08T18:14:32.681Z</time>
      </trkpt>
      <trkpt lat="48.48889" lon="-2.72456">
        <ele>103.006564</ele>
        <time>2024-04-08T18:14:59.796Z</time>
      </trkpt>
      <trkpt lat="48.4889" lon="-2.72461">
        <ele>102.983937</ele>
        <time>2024-04-08T18:15:01.321Z</time>
      </trkpt>
      <trkpt lat="48.48883" lon="-2.7249">
        <ele>102.853307</ele>
        <time>2024-04-08T18:15:09.957Z</time>
      </trkpt>
      <trkpt lat="48.48886" lon="-2.72495">
        <ele>102.821799</ele>
        <time>2024-04-08T18:15:12.050Z</time>
      </trkpt>
      <trkpt lat="48.48913" lon="-2.72536">
        <ele>102.5778</ele>
        <time>2024-04-08T18:15:28.167Z</time>
      </trkpt>
      <trkpt lat="48.48921" lon="-2.7254">
        <ele>102.52524</ele>
        <time>2024-04-08T18:15:30.421Z</time>
      </trkpt>
      <trkpt lat="48.4897" lon="-2.72608">
        <ele>102.10477</ele>
        <time>2024-04-08T18:15:48.507Z</time>
      </trkpt>
      <trkpt lat="48.48975" lon="-2.72619">
        <ele>102.045437</ele>
        <time>2024-04-08T18:15:51.079Z</time>
      </trkpt>
      <trkpt lat="48.4898" lon="-2.7263">
        <ele>101.987746</ele>
        <time>2024-04-08T18:15:53.628Z</time>
      </trkpt>
      <trkpt lat="48.48985" lon="-2.72656">
        <ele>101.879556</ele>
        <time>2024-04-08T18:15:58.697Z</time>
      </trkpt>
      <trkpt lat="48.49001" lon="-2.72666">
        <ele>101.847676</ele>
        <time>2024-04-08T18:16:03.614Z</time>
      </trkpt>
      <trkpt lat="48.49018" lon="-2.72682">
        <ele>101.811068</ele>
        <time>2024-04-08T18:16:09.301Z</time>
      </trkpt>
      <trkpt lat="48.49054" lon="-2.7273">
        <ele>101.721734</ele>
        <time>2024-04-08T18:16:23.094Z</time>
      </trkpt>
      <trkpt lat="48.4907" lon="-2.72756">
        <ele>101.677066</ele>
        <time>2024-04-08T18:16:30.114Z</time>
      </trkpt>
      <trkpt lat="48.49074" lon="-2.72773">
        <ele>101.654408</ele>
        <time>2024-04-08T18:16:33.682Z</time>
      </trkpt>
      <trkpt lat="48.49077" lon="-2.72805">
        <ele>101.615116</ele>
        <time>2024-04-08T18:16:39.989Z</time>
      </trkpt>
      <trkpt lat="48.49077" lon="-2.72848">
        <ele>101.561685</ele>
        <time>2024-04-08T18:16:48.485Z</time>
      </trkpt>
      <trkpt lat="48.49072" lon="-2.7286">
        <ele>101.548951</ele>
        <time>2024-04-08T18:16:51.250Z</time>
      </trkpt>
      <trkpt lat="48.49067" lon="-2.72862">
        <ele>101.553463</ele>
        <time>2024-04-08T18:16:52.744Z</time>
      </trkpt>
      <trkpt lat="48.49072" lon="-2.72885">
        <ele>101.568376</ele>
        <time>2024-04-08T18:16:57.543Z</time>
      </trkpt>
      <trkpt lat="48.49123" lon="-2.72844">
        <ele>101.62187</ele>
        <time>2024-04-08T18:17:23.969Z</time>
      </trkpt>
      <trkpt lat="48.49133" lon="-2.72843">
        <ele>101.631221</ele>
        <time>2024-04-08T18:17:28.545Z</time>
      </trkpt>
      <trkpt lat="48.49139" lon="-2.72847">
        <ele>101.6378</ele>
        <time>2024-04-08T18:17:31.773Z</time>
      </trkpt>
      <trkpt lat="48.49153" lon="-2.72863">
        <ele>101.654051</ele>
        <time>2024-04-08T18:17:39.822Z</time>
      </trkpt>
      <trkpt lat="48.49163" lon="-2.72881">
        <ele>101.66791</ele>
        <time>2024-04-08T18:17:46.522Z</time>
      </trkpt>
      <trkpt lat="48.49172" lon="-2.72909">
        <ele>101.687265</ele>
        <time>2024-04-08T18:17:55.950Z</time>
      </trkpt>
      <trkpt lat="48.49179" lon="-2.7292">
        <ele>101.697051</ele>
        <time>2024-04-08T18:18:00.551Z</time>
      </trkpt>
      <trkpt lat="48.49199" lon="-2.72945">
        <ele>101.722608</ele>
        <time>2024-04-08T18:18:11.842Z</time>
      </trkpt>
      <trkpt lat="48.49225" lon="-2.72963">
        <ele>101.756111</ele>
        <time>2024-04-08T18:18:24.760Z</time>
      </trkpt>
      <trkpt lat="48.49241" lon="-2.7298">
        <ele>101.77885</ele>
        <time>2024-04-08T18:18:33.477Z</time>
      </trkpt>
      <trkpt lat="48.49253" lon="-2.73002">
        <ele>101.800155</ele>
        <time>2024-04-08T18:18:41.922Z</time>
      </trkpt>
      <trkpt lat="48.49259" lon="-2.73021">
        <ele>101.816922</ele>
        <time>2024-04-08T18:18:48.483Z</time>
      </trkpt>
      <trkpt lat="48.49258" lon="-2.73035">
        <ele>101.827368</ele>
        <time>2024-04-08T18:18:52.444Z</time>
      </trkpt>
      <trkpt lat="48.49255" lon="-2.73047">
        <ele>101.837001</ele>
        <time>2024-04-08T18:18:56.081Z</time>
      </trkpt>
      <trkpt lat="48.49245" lon="-2.73061">
        <ele>101.85292</ele>
        <time>2024-04-08T18:19:02.301Z</time>
      </trkpt>
      <trkpt lat="48.49241" lon="-2.73076">
        <ele>101.865274</ele>
        <time>2024-04-08T18:19:07.245Z</time>
      </trkpt>
      <trkpt lat="48.49247" lon="-2.73085">
        <ele>101.874988</ele>
        <time>2024-04-08T18:19:10.942Z</time>
      </trkpt>
      <trkpt lat="48.49262" lon="-2.731">
        <ele>101.896135</ele>
        <time>2024-04-08T18:19:19.104Z</time>
      </trkpt>
      <trkpt lat="48.49267" lon="-2.73121">
        <ele>101.91341</ele>
        <time>2024-04-08T18:19:25.946Z</time>
      </trkpt>
      <trkpt lat="48.49268" lon="-2.73141">
        <ele>101.916954</ele>
        <time>2024-04-08T18:19:32.031Z</time>
      </trkpt>
      <trkpt lat="48.49283" lon="-2.73146">
        <ele>101.900779</ele>
        <time>2024-04-08T18:19:36.507Z</time>
      </trkpt>
      <trkpt lat="48.49293" lon="-2.73161">
        <ele>101.884886</ele>
        <time>2024-04-08T18:19:40.540Z</time>
      </trkpt>
      <trkpt lat="48.49302" lon="-2.7318">
        <ele>101.86845</ele>
        <time>2024-04-08T18:19:45.043Z</time>
      </trkpt>
      <trkpt lat="48.49303" lon="-2.73189">
        <ele>101.862329</ele>
        <time>2024-04-08T18:19:46.866Z</time>
      </trkpt>
      <trkpt lat="48.4932" lon="-2.73188">
        <ele>101.843213</ele>
        <time>2024-04-08T18:19:55.002Z</time>
      </trkpt>
      <trkpt lat="48.49329" lon="-2.73193">
        <ele>101.832973</ele>
        <time>2024-04-08T18:19:59.200Z</time>
      </trkpt>
      <trkpt lat="48.49338" lon="-2.7321">
        <ele>101.817681</ele>
        <time>2024-04-08T18:20:05.521Z</time>
      </trkpt>
      <trkpt lat="48.49349" lon="-2.73238">
        <ele>101.794444</ele>
        <time>2024-04-08T18:20:14.834Z</time>
      </trkpt>
      <trkpt lat="48.49356" lon="-2.7327">
        <ele>101.769861</ele>
        <time>2024-04-08T18:20:24.622Z</time>
      </trkpt>
      <trkpt lat="48.49361" lon="-2.73314">
        <ele>101.737924</ele>
        <time>2024-04-08T18:20:37.391Z</time>
      </trkpt>
      <trkpt lat="48.49365" lon="-2.73313">
        <ele>101.733534</ele>
        <time>2024-04-08T18:20:38.332Z</time>
      </trkpt>
      <trkpt lat="48.49377" lon="-2.73324">
        <ele>101.604998</ele>
        <time>2024-04-08T18:20:41.896Z</time>
      </trkpt>
      <trkpt lat="48.49392" lon="-2.73353">
        <ele>101.267186</ele>
        <time>2024-04-08T18:20:47.641Z</time>
      </trkpt>
      <trkpt lat="48.49394" lon="-2.73362">
        <ele>101.171185</ele>
        <time>2024-04-08T18:20:49.300Z</time>
      </trkpt>
      <trkpt lat="48.49421" lon="-2.73369">
        <ele>100.791691</ele>
        <time>2024-04-08T18:20:56.483Z</time>
      </trkpt>
      <trkpt lat="48.49439" lon="-2.73383">
        <ele>100.503548</ele>
        <time>2024-04-08T18:21:01.977Z</time>
      </trkpt>
      <trkpt lat="48.49445" lon="-2.73396">
        <ele>100.357309</ele>
        <time>2024-04-08T18:21:04.740Z</time>
      </trkpt>
      <trkpt lat="48.49448" lon="-2.73417">
        <ele>100.161674</ele>
        <time>2024-04-08T18:21:08.308Z</time>
      </trkpt>
      <trkpt lat="48.49448" lon="-2.73457">
        <ele>99.789684</ele>
        <time>2024-04-08T18:21:15.002Z</time>
      </trkpt>
      <trkpt lat="48.49457" lon="-2.73465">
        <ele>99.640307</ele>
        <time>2024-04-08T18:21:17.313Z</time>
      </trkpt>
      <trkpt lat="48.49484" lon="-2.73519">
        <ele>98.902047</ele>
        <time>2024-04-08T18:21:27.101Z</time>
      </trkpt>
      <trkpt lat="48.49505" lon="-2.73562">
        <ele>98.127974</ele>
        <time>2024-04-08T18:21:34.548Z</time>
      </trkpt>
      <trkpt lat="48.49511" lon="-2.73583">
        <ele>97.791464</ele>
        <time>2024-04-08T18:21:38.029Z</time>
      </trkpt>
      <trkpt lat="48.49525" lon="-2.73583">
        <ele>97.462871</ele>
        <time>2024-04-08T18:21:42.169Z</time>
      </trkpt>
      <trkpt lat="48.49546" lon="-2.7359">
        <ele>96.997219</ele>
        <time>2024-04-08T18:21:48.761Z</time>
      </trkpt>
      <trkpt lat="48.4956" lon="-2.73599">
        <ele>96.659519</ele>
        <time>2024-04-08T18:21:53.003Z</time>
      </trkpt>
      <trkpt lat="48.49563" lon="-2.73628">
        <ele>96.233837</ele>
        <time>2024-04-08T18:21:58.785Z</time>
      </trkpt>
      <trkpt lat="48.49564" lon="-2.73634">
        <ele>96.143722</ele>
        <time>2024-04-08T18:21:59.985Z</time>
      </trkpt>
      <trkpt lat="48.49588" lon="-2.73613">
        <ele>95.529749</ele>
        <time>2024-04-08T18:22:05.981Z</time>
      </trkpt>
      <trkpt lat="48.49592" lon="-2.73618">
        <ele>95.403779</ele>
        <time>2024-04-08T18:22:07.324Z</time>
      </trkpt>
      <trkpt lat="48.49606" lon="-2.73619">
        <ele>95.210833</ele>
        <time>2024-04-08T18:22:10.139Z</time>
      </trkpt>
      <trkpt lat="48.49628" lon="-2.73655">
        <ele>95.035781</ele>
        <time>2024-04-08T18:22:17.529Z</time>
      </trkpt>
      <trkpt lat="48.4963" lon="-2.73668">
        <ele>94.986576</ele>
        <time>2024-04-08T18:22:19.553Z</time>
      </trkpt>
      <trkpt lat="48.49642" lon="-2.73696">
        <ele>94.871318</ele>
        <time>2024-04-08T18:22:24.780Z</time>
      </trkpt>
      <trkpt lat="48.49646" lon="-2.73704">
        <ele>94.835542</ele>
        <time>2024-04-08T18:22:26.390Z</time>
      </trkpt>
      <trkpt lat="48.49657" lon="-2.73713">
        <ele>94.768639</ele>
        <time>2024-04-08T18:22:29.427Z</time>
      </trkpt>
      <trkpt lat="48.49664" lon="-2.73724">
        <ele>94.712762</ele>
        <time>2024-04-08T18:22:32.229Z</time>
      </trkpt>
      <trkpt lat="48.49667" lon="-2.7376">
        <ele>94.585724</ele>
        <time>2024-04-08T18:22:38.447Z</time>
      </trkpt>
      <trkpt lat="48.49691" lon="-2.73808">
        <ele>94.375093</ele>
        <time>2024-04-08T18:22:49.703Z</time>
      </trkpt>
      <trkpt lat="48.49691" lon="-2.7381">
        <ele>94.367311</ele>
        <time>2024-04-08T18:22:50.718Z</time>
      </trkpt>
      <trkpt lat="48.49694" lon="-2.73814">
        <ele>94.344805</ele>
        <time>2024-04-08T18:22:52.728Z</time>
      </trkpt>
      <trkpt lat="48.49701" lon="-2.73823">
        <ele>94.298641</ele>
        <time>2024-04-08T18:22:55.524Z</time>
      </trkpt>
      <trkpt lat="48.49719" lon="-2.7386">
        <ele>94.683919</ele>
        <time>2024-04-08T18:23:05.652Z</time>
      </trkpt>
      <trkpt lat="48.4974" lon="-2.73885">
        <ele>95.067901</ele>
        <time>2024-04-08T18:23:14.755Z</time>
      </trkpt>
      <trkpt lat="48.49758" lon="-2.73919">
        <ele>95.495041</ele>
        <time>2024-04-08T18:23:25.540Z</time>
      </trkpt>
      <trkpt lat="48.49764" lon="-2.73927">
        <ele>95.6147</ele>
        <time>2024-04-08T18:23:28.941Z</time>
      </trkpt>
      <trkpt lat="48.49775" lon="-2.73955">
        <ele>95.926288</ele>
        <time>2024-04-08T18:23:36.836Z</time>
      </trkpt>
      <trkpt lat="48.49778" lon="-2.73953">
        <ele>95.977205</ele>
        <time>2024-04-08T18:23:38.031Z</time>
      </trkpt>
      <trkpt lat="48.49786" lon="-2.73956">
        <ele>96.099379</ele>
        <time>2024-04-08T18:23:41.323Z</time>
      </trkpt>
      <trkpt lat="48.498" lon="-2.73978">
        <ele>96.383669</ele>
        <time>2024-04-08T18:23:48.619Z</time>
      </trkpt>
      <trkpt lat="48.49812" lon="-2.74">
        <ele>96.669614</ele>
        <time>2024-04-08T18:23:56.085Z</time>
      </trkpt>
      <trkpt lat="48.49829" lon="-2.74041">
        <ele>97.04534</ele>
        <time>2024-04-08T18:24:07.215Z</time>
      </trkpt>
      <trkpt lat="48.4983" lon="-2.7405">
        <ele>97.101743</ele>
        <time>2024-04-08T18:24:09.319Z</time>
      </trkpt>
      <trkpt lat="48.49833" lon="-2.74064">
        <ele>97.190587</ele>
        <time>2024-04-08T18:24:12.957Z</time>
      </trkpt>
      <trkpt lat="48.49818" lon="-2.74139">
        <ele>97.666077</ele>
        <time>2024-04-08T18:24:30.152Z</time>
      </trkpt>
      <trkpt lat="48.49885" lon="-2.74172">
        <ele>98.308442</ele>
        <time>2024-04-08T18:24:51.506Z</time>
      </trkpt>
      <trkpt lat="48.49889" lon="-2.74164">
        <ele>98.368736</ele>
        <time>2024-04-08T18:24:53.173Z</time>
      </trkpt>
      <trkpt lat="48.49895" lon="-2.74161">
        <ele>98.429147</ele>
        <time>2024-04-08T18:24:55.029Z</time>
      </trkpt>
      <trkpt lat="48.49898" lon="-2.74162">
        <ele>98.460144</ele>
        <time>2024-04-08T18:24:56.163Z</time>
      </trkpt>
      <trkpt lat="48.49903" lon="-2.74168">
        <ele>98.520277</ele>
        <time>2024-04-08T18:24:58.562Z</time>
      </trkpt>
      <trkpt lat="48.49905" lon="-2.74178">
        <ele>98.562533</ele>
        <time>2024-04-08T18:25:00.579Z</time>
      </trkpt>
      <trkpt lat="48.49912" lon="-2.74179">
        <ele>98.5801</ele>
        <time>2024-04-08T18:25:02.617Z</time>
      </trkpt>
      <trkpt lat="48.49919" lon="-2.74188">
        <ele>98.602672</ele>
        <time>2024-04-08T18:25:05.009Z</time>
      </trkpt>
      <trkpt lat="48.49949" lon="-2.74242">
        <ele>98.719085</ele>
        <time>2024-04-08T18:25:19.068Z</time>
      </trkpt>
      <trkpt lat="48.49961" lon="-2.74263">
        <ele>98.763065</ele>
        <time>2024-04-08T18:25:24.078Z</time>
      </trkpt>
      <trkpt lat="48.49973" lon="-2.74286">
        <ele>98.811784</ele>
        <time>2024-04-08T18:25:30.123Z</time>
      </trkpt>
      <trkpt lat="48.49983" lon="-2.74304">
        <ele>98.849616</ele>
        <time>2024-04-08T18:25:34.451Z</time>
      </trkpt>
      <trkpt lat="48.49987" lon="-2.74312">
        <ele>98.866059</ele>
        <time>2024-04-08T18:25:36.039Z</time>
      </trkpt>
      <trkpt lat="48.49993" lon="-2.74322">
        <ele>98.887997</ele>
        <time>2024-04-08T18:25:38.410Z</time>
      </trkpt>
      <trkpt lat="48.49992" lon="-2.74341">
        <ele>98.918909</ele>
        <time>2024-04-08T18:25:42.704Z</time>
      </trkpt>
      <trkpt lat="48.5001" lon="-2.74383">
        <ele>98.993178</ele>
        <time>2024-04-08T18:25:51.726Z</time>
      </trkpt>
      <trkpt lat="48.49999" lon="-2.74372">
        <ele>98.892008</ele>
        <time>2024-04-08T18:25:55.017Z</time>
      </trkpt>
      <trkpt lat="48.49981" lon="-2.74353">
        <ele>98.713686</ele>
        <time>2024-04-08T18:26:01.022Z</time>
      </trkpt>
      <trkpt lat="48.49975" lon="-2.74353">
        <ele>98.668725</ele>
        <time>2024-04-08T18:26:02.564Z</time>
      </trkpt>
      <trkpt lat="48.4997" lon="-2.74322">
        <ele>98.499654</ele>
        <time>2024-04-08T18:26:17.234Z</time>
      </trkpt>
      <trkpt lat="48.49958" lon="-2.74308">
        <ele>98.376272</ele>
        <time>2024-04-08T18:26:27.955Z</time>
      </trkpt>
      <trkpt lat="48.49969" lon="-2.74288">
        <ele>98.232043</ele>
        <time>2024-04-08T18:26:35.191Z</time>
      </trkpt>
      <trkpt lat="48.49984" lon="-2.74263">
        <ele>98.056193</ele>
        <time>2024-04-08T18:26:44.505Z</time>
      </trkpt>
      <trkpt lat="48.50054" lon="-2.7415">
        <ele>96.987653</ele>
        <time>2024-04-08T18:27:26.366Z</time>
      </trkpt>
      <trkpt lat="48.50063" lon="-2.74143">
        <ele>96.852605</ele>
        <time>2024-04-08T18:27:30.178Z</time>
      </trkpt>
      <trkpt lat="48.50075" lon="-2.7414">
        <ele>96.679916</ele>
        <time>2024-04-08T18:27:34.974Z</time>
      </trkpt>
      <trkpt lat="48.50084" lon="-2.74141">
        <ele>96.546465</ele>
        <time>2024-04-08T18:27:38.770Z</time>
      </trkpt>
      <trkpt lat="48.50086" lon="-2.74138">
        <ele>96.508345</ele>
        <time>2024-04-08T18:27:39.808Z</time>
      </trkpt>
      <trkpt lat="48.5009" lon="-2.74131">
        <ele>96.423708</ele>
        <time>2024-04-08T18:27:42.236Z</time>
      </trkpt>
      <trkpt lat="48.50094" lon="-2.74129">
        <ele>96.360861</ele>
        <time>2024-04-08T18:27:43.337Z</time>
      </trkpt>
      <trkpt lat="48.50199" lon="-2.74304">
        <ele>94.212506</ele>
        <time>2024-04-08T18:28:21.101Z</time>
      </trkpt>
      <trkpt lat="48.50318" lon="-2.74496">
        <ele>92.090722</ele>
        <time>2024-04-08T18:29:03.293Z</time>
      </trkpt>
      <trkpt lat="48.50334" lon="-2.74529">
        <ele>91.81479</ele>
        <time>2024-04-08T18:29:10.160Z</time>
      </trkpt>
      <trkpt lat="48.50348" lon="-2.74572">
        <ele>91.506531</ele>
        <time>2024-04-08T18:29:18.057Z</time>
      </trkpt>
      <trkpt lat="48.50355" lon="-2.74639">
        <ele>91.061202</ele>
        <time>2024-04-08T18:29:29.262Z</time>
      </trkpt>
      <trkpt lat="48.50362" lon="-2.74646">
        <ele>90.978329</ele>
        <time>2024-04-08T18:29:31.444Z</time>
      </trkpt>
      <trkpt lat="48.50356" lon="-2.74705">
        <ele>90.663645</ele>
        <time>2024-04-08T18:29:41.149Z</time>
      </trkpt>
      <trkpt lat="48.50347" lon="-2.74712">
        <ele>90.59328</ele>
        <time>2024-04-08T18:29:44.143Z</time>
      </trkpt>
      <trkpt lat="48.50356" lon="-2.74705">
        <ele>90.522915</ele>
        <time>2024-04-08T18:29:46.351Z</time>
      </trkpt>
      <trkpt lat="48.50362" lon="-2.74646">
        <ele>90.243359</ele>
        <time>2024-04-08T18:29:56.247Z</time>
      </trkpt>
      <trkpt lat="48.50374" lon="-2.74575">
        <ele>89.896412</ele>
        <time>2024-04-08T18:30:08.578Z</time>
      </trkpt>
      <trkpt lat="48.50387" lon="-2.74524">
        <ele>89.642785</ele>
        <time>2024-04-08T18:30:17.202Z</time>
      </trkpt>
      <trkpt lat="48.50406" lon="-2.74469">
        <ele>89.080938</ele>
        <time>2024-04-08T18:30:26.983Z</time>
      </trkpt>
      <trkpt lat="48.5043" lon="-2.74417">
        <ele>88.437808</ele>
        <time>2024-04-08T18:30:36.565Z</time>
      </trkpt>
      <trkpt lat="48.50453" lon="-2.74375">
        <ele>87.889759</ele>
        <time>2024-04-08T18:30:44.624Z</time>
      </trkpt>
      <trkpt lat="48.50495" lon="-2.74321">
        <ele>87.050389</ele>
        <time>2024-04-08T18:30:56.883Z</time>
      </trkpt>
      <trkpt lat="48.50533" lon="-2.74283">
        <ele>86.424676</ele>
        <time>2024-04-08T18:31:07.172Z</time>
      </trkpt>
      <trkpt lat="48.50566" lon="-2.74256">
        <ele>85.952291</ele>
        <time>2024-04-08T18:31:15.507Z</time>
      </trkpt>
      <trkpt lat="48.50585" lon="-2.74246">
        <ele>85.693886</ele>
        <time>2024-04-08T18:31:20.139Z</time>
      </trkpt>
      <trkpt lat="48.50788" lon="-2.74138">
        <ele>83.616977</ele>
        <time>2024-04-08T18:32:12.259Z</time>
      </trkpt>
      <trkpt lat="48.50834" lon="-2.74105">
        <ele>83.234612</ele>
        <time>2024-04-08T18:32:25.261Z</time>
      </trkpt>
      <trkpt lat="48.50879" lon="-2.74063">
        <ele>82.685366</ele>
        <time>2024-04-08T18:32:38.284Z</time>
      </trkpt>
      <trkpt lat="48.50924" lon="-2.74004">
        <ele>82.040901</ele>
        <time>2024-04-08T18:32:52.827Z</time>
      </trkpt>
      <trkpt lat="48.50967" lon="-2.73928">
        <ele>81.332405</ele>
        <time>2024-04-08T18:33:08.068Z</time>
      </trkpt>
      <trkpt lat="48.50988" lon="-2.73887">
        <ele>80.762653</ele>
        <time>2024-04-08T18:33:15.603Z</time>
      </trkpt>
      <trkpt lat="48.50993" lon="-2.73872">
        <ele>80.5575</ele>
        <time>2024-04-08T18:33:18.120Z</time>
      </trkpt>
      <trkpt lat="48.51008" lon="-2.73826">
        <ele>79.942043</ele>
        <time>2024-04-08T18:33:25.460Z</time>
      </trkpt>
      <trkpt lat="48.51026" lon="-2.73752">
        <ele>79.001931</ele>
        <time>2024-04-08T18:33:36.516Z</time>
      </trkpt>
      <trkpt lat="48.51053" lon="-2.73613">
        <ele>78.059081</ele>
        <time>2024-04-08T18:33:58.919Z</time>
      </trkpt>
      <trkpt lat="48.51062" lon="-2.73579">
        <ele>78.083009</ele>
        <time>2024-04-08T18:34:05.016Z</time>
      </trkpt>
      <trkpt lat="48.51042" lon="-2.73561">
        <ele>78.106223</ele>
        <time>2024-04-08T18:34:10.977Z</time>
      </trkpt>
      <trkpt lat="48.51032" lon="-2.73551">
        <ele>78.118533</ele>
        <time>2024-04-08T18:34:14.804Z</time>
      </trkpt>
      <trkpt lat="48.51013" lon="-2.73533">
        <ele>78.140329</ele>
        <time>2024-04-08T18:34:21.013Z</time>
      </trkpt>
      <trkpt lat="48.50957" lon="-2.73477">
        <ele>78.197481</ele>
        <time>2024-04-08T18:34:44.002Z</time>
      </trkpt>
      <trkpt lat="48.50871" lon="-2.73393">
        <ele>78.197481</ele>
        <time>2024-04-08T18:35:22.180Z</time>
      </trkpt>
    </trkseg>
  </trk>
</gpx>